PWSweather.com
Personal Weather Stations
Station Observations
HVALPSUND
Hvalpsund, FarsoeDK 9640

HvalpsundFarsoeDK 9640

Lat: 56.705311, Lon: 9.203638

Elevation: 5

Station Type: Vantage Pro2

http://hvalpsundvejr.dk

High Low Average
Temperature 38.0°F3.3°C 32.6°F0.3°C 34.8°F1.6°C
Dew Point 35.9°F2.2°C 29.5°F-1.4°C 31.9°F-0.1°C
Winds 22.4 mph 36.0 kmh 7.1 mph 11.4 kmh 15.0 mph SE24.1 kmh SE
Wind Gusts 33.0 mph53.1 kmh 13.0 mph20.9 kmh 22.0 mph35.4 kmh
Humidity 92% 85% 89%
Pressure 29.65 in1004.1 mb 28.89 in978.3 mb -
Precipitation 0.11 in2.8 mm - -
Hour Temp Dew Point Humidity Winds Wind Gusts Pressure Precip Precip Rate Daily Precip Total
12:00 AM 32.6°F0.3°C 29.7°F-1.3°C 89% 10.1 mph SE16.3 kmh SE 15.0 mph24.1 kmh 29.65 in1004.1 mb 0.00 in0.0 mm 0.00 in0.0 mm 0.00 in0.0 mm
12:01 AM 32.7°F0.4°C 29.8°F-1.2°C 89% 7.4 mph SSE11.9 kmh SSE 13.0 mph20.9 kmh 29.65 in1004.1 mb 0.00 in0.0 mm 0.00 in0.0 mm 0.00 in0.0 mm
12:02 AM 32.7°F0.4°C 29.8°F-1.2°C 89% 10.5 mph SE16.9 kmh SE 15.0 mph24.1 kmh 29.65 in1004.1 mb 0.00 in0.0 mm 0.00 in0.0 mm 0.00 in0.0 mm
12:03 AM 32.7°F0.4°C 29.8°F-1.2°C 89% 13.1 mph SE21.1 kmh SE 16.0 mph25.7 kmh 29.65 in1004.1 mb 0.00 in0.0 mm 0.00 in0.0 mm 0.00 in0.0 mm
12:04 AM 32.7°F0.4°C 29.8°F-1.2°C 89% 11.8 mph SE19.0 kmh SE 16.0 mph25.7 kmh 29.65 in1004.1 mb 0.00 in0.0 mm 0.00 in0.0 mm 0.00 in0.0 mm
12:05 AM 32.7°F0.4°C 29.8°F-1.2°C 89% 10.3 mph SE16.6 kmh SE 15.0 mph24.1 kmh 29.65 in1004.1 mb 0.00 in0.0 mm 0.00 in0.0 mm 0.00 in0.0 mm
12:06 AM 32.7°F0.4°C 29.8°F-1.2°C 89% 10.8 mph SE17.4 kmh SE 16.0 mph25.7 kmh 29.65 in1004.1 mb 0.00 in0.0 mm 0.00 in0.0 mm 0.00 in0.0 mm
12:07 AM 32.7°F0.4°C 29.8°F-1.2°C 89% 8.0 mph SE12.9 kmh SE 16.0 mph25.7 kmh 29.64 in1003.7 mb 0.00 in0.0 mm 0.00 in0.0 mm 0.00 in0.0 mm
12:08 AM 32.7°F0.4°C 29.5°F-1.4°C 88% 11.5 mph SE18.5 kmh SE 15.0 mph24.1 kmh 29.65 in1004.1 mb 0.00 in0.0 mm 0.00 in0.0 mm 0.00 in0.0 mm
12:09 AM 32.8°F0.4°C 29.6°F-1.3°C 88% 11.3 mph SE18.2 kmh SE 17.0 mph27.4 kmh 29.64 in1003.7 mb 0.00 in0.0 mm 0.00 in0.0 mm 0.00 in0.0 mm
12:10 AM 32.8°F0.4°C 29.6°F-1.3°C 88% 11.4 mph SE18.3 kmh SE 17.0 mph27.4 kmh 29.65 in1004.1 mb 0.00 in0.0 mm 0.00 in0.0 mm 0.00 in0.0 mm
12:11 AM 32.7°F0.4°C 29.5°F-1.4°C 88% 10.9 mph SE17.5 kmh SE 15.0 mph24.1 kmh 29.65 in1004.1 mb 0.00 in0.0 mm 0.00 in0.0 mm 0.00 in0.0 mm
12:12 AM 32.8°F0.4°C 29.6°F-1.3°C 88% 9.8 mph SE15.8 kmh SE 15.0 mph24.1 kmh 29.64 in1003.7 mb 0.00 in0.0 mm 0.00 in0.0 mm 0.00 in0.0 mm
12:13 AM 32.8°F0.4°C 29.6°F-1.3°C 88% 8.9 mph SE14.3 kmh SE 14.0 mph22.5 kmh 29.64 in1003.7 mb 0.00 in0.0 mm 0.00 in0.0 mm 0.00 in0.0 mm
12:14 AM 32.8°F0.4°C 29.6°F-1.3°C 88% 7.8 mph SE12.6 kmh SE 13.0 mph20.9 kmh 29.64 in1003.7 mb 0.00 in0.0 mm 0.00 in0.0 mm 0.00 in0.0 mm
12:15 AM 32.8°F0.4°C 29.6°F-1.3°C 88% 12.1 mph SE19.5 kmh SE 16.0 mph25.7 kmh 29.64 in1003.7 mb 0.00 in0.0 mm 0.00 in0.0 mm 0.00 in0.0 mm
12:16 AM 32.8°F0.4°C 29.6°F-1.3°C 88% 9.1 mph SE14.6 kmh SE 16.0 mph25.7 kmh 29.64 in1003.7 mb 0.00 in0.0 mm 0.00 in0.0 mm 0.00 in0.0 mm
12:17 AM 32.8°F0.4°C 29.6°F-1.3°C 88% 7.2 mph SE11.6 kmh SE 13.0 mph20.9 kmh 29.64 in1003.7 mb 0.00 in0.0 mm 0.00 in0.0 mm 0.00 in0.0 mm
12:18 AM 32.8°F0.4°C 29.6°F-1.3°C 88% 7.6 mph SE12.2 kmh SE 14.0 mph22.5 kmh 29.64 in1003.7 mb 0.00 in0.0 mm 0.00 in0.0 mm 0.00 in0.0 mm
12:19 AM 32.8°F0.4°C 29.6°F-1.3°C 88% 9.2 mph SSE14.8 kmh SSE 14.0 mph22.5 kmh 29.64 in1003.7 mb 0.00 in0.0 mm 0.00 in0.0 mm 0.00 in0.0 mm
12:20 AM 32.9°F0.5°C 29.7°F-1.3°C 88% 8.6 mph SE13.8 kmh SE 14.0 mph22.5 kmh 29.64 in1003.7 mb 0.00 in0.0 mm 0.00 in0.0 mm 0.00 in0.0 mm
12:21 AM 32.8°F0.4°C 29.6°F-1.3°C 88% 9.6 mph SE15.4 kmh SE 15.0 mph24.1 kmh 29.64 in1003.7 mb 0.00 in0.0 mm 0.00 in0.0 mm 0.00 in0.0 mm
12:22 AM 32.8°F0.4°C 29.6°F-1.3°C 88% 9.3 mph SE15.0 kmh SE 15.0 mph24.1 kmh 29.64 in1003.7 mb 0.00 in0.0 mm 0.00 in0.0 mm 0.00 in0.0 mm
12:23 AM 32.8°F0.4°C 29.6°F-1.3°C 88% 8.1 mph SSE13.0 kmh SSE 18.0 mph29.0 kmh 29.64 in1003.7 mb 0.00 in0.0 mm 0.00 in0.0 mm 0.00 in0.0 mm
12:24 AM 32.8°F0.4°C 29.6°F-1.3°C 88% 12.9 mph SE20.8 kmh SE 18.0 mph29.0 kmh 29.64 in1003.7 mb 0.00 in0.0 mm 0.00 in0.0 mm 0.00 in0.0 mm
12:25 AM 32.9°F0.5°C 29.7°F-1.3°C 88% 13.6 mph SSE21.9 kmh SSE 18.0 mph29.0 kmh 29.64 in1003.7 mb 0.00 in0.0 mm 0.00 in0.0 mm 0.00 in0.0 mm
12:26 AM 32.8°F0.4°C 29.6°F-1.3°C 88% 9.8 mph SE15.8 kmh SE 18.0 mph29.0 kmh 29.64 in1003.7 mb 0.00 in0.0 mm 0.00 in0.0 mm 0.00 in0.0 mm
12:27 AM 32.8°F0.4°C 29.6°F-1.3°C 88% 10.2 mph SE16.4 kmh SE 14.0 mph22.5 kmh 29.63 in1003.4 mb 0.00 in0.0 mm 0.00 in0.0 mm 0.00 in0.0 mm
12:28 AM 32.9°F0.5°C 29.7°F-1.3°C 88% 11.4 mph SE18.3 kmh SE 18.0 mph29.0 kmh 29.63 in1003.4 mb 0.00 in0.0 mm 0.00 in0.0 mm 0.00 in0.0 mm
12:29 AM 32.9°F0.5°C 29.7°F-1.3°C 88% 8.0 mph SSE12.9 kmh SSE 18.0 mph29.0 kmh 29.63 in1003.4 mb 0.00 in0.0 mm 0.00 in0.0 mm 0.00 in0.0 mm
12:30 AM 32.9°F0.5°C 29.7°F-1.3°C 88% 9.5 mph SE15.3 kmh SE 14.0 mph22.5 kmh 29.63 in1003.4 mb 0.00 in0.0 mm 0.00 in0.0 mm 0.00 in0.0 mm
12:31 AM 32.9°F0.5°C 29.7°F-1.3°C 88% 11.1 mph SE17.9 kmh SE 14.0 mph22.5 kmh 29.63 in1003.4 mb 0.00 in0.0 mm 0.00 in0.0 mm 0.00 in0.0 mm
12:32 AM 32.9°F0.5°C 29.7°F-1.3°C 88% 8.5 mph SE13.7 kmh SE 14.0 mph22.5 kmh 29.63 in1003.4 mb 0.00 in0.0 mm 0.00 in0.0 mm 0.00 in0.0 mm
12:33 AM 32.9°F0.5°C 29.7°F-1.3°C 88% 10.9 mph SE17.5 kmh SE 13.0 mph20.9 kmh 29.63 in1003.4 mb 0.00 in0.0 mm 0.00 in0.0 mm 0.00 in0.0 mm
12:34 AM 32.9°F0.5°C 29.7°F-1.3°C 88% 11.8 mph SE19.0 kmh SE 16.0 mph25.7 kmh 29.63 in1003.4 mb 0.00 in0.0 mm 0.00 in0.0 mm 0.00 in0.0 mm
12:35 AM 32.9°F0.5°C 29.7°F-1.3°C 88% 13.9 mph SE22.4 kmh SE 18.0 mph29.0 kmh 29.63 in1003.4 mb 0.00 in0.0 mm 0.00 in0.0 mm 0.00 in0.0 mm
12:36 AM 32.9°F0.5°C 29.7°F-1.3°C 88% 10.1 mph SE16.3 kmh SE 18.0 mph29.0 kmh 29.63 in1003.4 mb 0.00 in0.0 mm 0.00 in0.0 mm 0.00 in0.0 mm
12:37 AM 32.9°F0.5°C 29.7°F-1.3°C 88% 10.7 mph SE17.2 kmh SE 18.0 mph29.0 kmh 29.63 in1003.4 mb 0.00 in0.0 mm 0.00 in0.0 mm 0.00 in0.0 mm
12:38 AM 32.9°F0.5°C 29.7°F-1.3°C 88% 9.5 mph SE15.3 kmh SE 18.0 mph29.0 kmh 29.63 in1003.4 mb 0.00 in0.0 mm 0.00 in0.0 mm 0.00 in0.0 mm
12:39 AM 32.9°F0.5°C 29.7°F-1.3°C 88% 9.9 mph SE15.9 kmh SE 13.0 mph20.9 kmh 29.63 in1003.4 mb 0.00 in0.0 mm 0.00 in0.0 mm 0.00 in0.0 mm
12:40 AM 32.9°F0.5°C 29.7°F-1.3°C 88% 9.5 mph SSE15.3 kmh SSE 13.0 mph20.9 kmh 29.63 in1003.4 mb 0.00 in0.0 mm 0.00 in0.0 mm 0.00 in0.0 mm
12:41 AM 33.0°F0.6°C 29.8°F-1.2°C 88% 9.1 mph SE14.6 kmh SE 13.0 mph20.9 kmh 29.63 in1003.4 mb 0.00 in0.0 mm 0.00 in0.0 mm 0.00 in0.0 mm
12:42 AM 33.0°F0.6°C 29.8°F-1.2°C 88% 7.5 mph SSE12.1 kmh SSE 13.0 mph20.9 kmh 29.62 in1003.0 mb 0.00 in0.0 mm 0.00 in0.0 mm 0.00 in0.0 mm
12:43 AM 32.9°F0.5°C 29.7°F-1.3°C 88% 11.2 mph SE18.0 kmh SE 17.0 mph27.4 kmh 29.62 in1003.0 mb 0.00 in0.0 mm 0.00 in0.0 mm 0.00 in0.0 mm
12:44 AM 32.9°F0.5°C 29.7°F-1.3°C 88% 9.4 mph SE15.1 kmh SE 17.0 mph27.4 kmh 29.62 in1003.0 mb 0.00 in0.0 mm 0.00 in0.0 mm 0.00 in0.0 mm
12:45 AM 32.9°F0.5°C 29.7°F-1.3°C 88% 9.6 mph SE15.4 kmh SE 13.0 mph20.9 kmh 29.62 in1003.0 mb 0.00 in0.0 mm 0.00 in0.0 mm 0.00 in0.0 mm
12:46 AM 33.0°F0.6°C 29.8°F-1.2°C 88% 10.1 mph SSE16.3 kmh SSE 14.0 mph22.5 kmh 29.62 in1003.0 mb 0.00 in0.0 mm 0.00 in0.0 mm 0.00 in0.0 mm
12:47 AM 32.9°F0.5°C 29.7°F-1.3°C 88% 10.5 mph SE16.9 kmh SE 17.0 mph27.4 kmh 29.62 in1003.0 mb 0.00 in0.0 mm 0.00 in0.0 mm 0.00 in0.0 mm
12:48 AM 32.9°F0.5°C 29.7°F-1.3°C 88% 13.2 mph SE21.2 kmh SE 18.0 mph29.0 kmh 29.62 in1003.0 mb 0.00 in0.0 mm 0.00 in0.0 mm 0.00 in0.0 mm
12:49 AM 32.9°F0.5°C 29.7°F-1.3°C 88% 8.9 mph SE14.3 kmh SE 18.0 mph29.0 kmh 29.62 in1003.0 mb 0.00 in0.0 mm 0.00 in0.0 mm 0.00 in0.0 mm
12:50 AM 33.0°F0.6°C 29.8°F-1.2°C 88% 11.6 mph SE18.7 kmh SE 18.0 mph29.0 kmh 29.62 in1003.0 mb 0.00 in0.0 mm 0.00 in0.0 mm 0.00 in0.0 mm
12:51 AM 33.0°F0.6°C 29.8°F-1.2°C 88% 11.7 mph SE18.8 kmh SE 18.0 mph29.0 kmh 29.62 in1003.0 mb 0.00 in0.0 mm 0.00 in0.0 mm 0.00 in0.0 mm
12:52 AM 33.0°F0.6°C 29.8°F-1.2°C 88% 12.1 mph SE19.5 kmh SE 16.0 mph25.7 kmh 29.62 in1003.0 mb 0.00 in0.0 mm 0.00 in0.0 mm 0.00 in0.0 mm
12:53 AM 33.0°F0.6°C 29.8°F-1.2°C 88% 11.0 mph SE17.7 kmh SE 16.0 mph25.7 kmh 29.62 in1003.0 mb 0.00 in0.0 mm 0.00 in0.0 mm 0.00 in0.0 mm
12:54 AM 33.0°F0.6°C 29.8°F-1.2°C 88% 10.4 mph SE16.7 kmh SE 19.0 mph30.6 kmh 29.62 in1003.0 mb 0.00 in0.0 mm 0.00 in0.0 mm 0.00 in0.0 mm
12:55 AM 33.0°F0.6°C 29.8°F-1.2°C 88% 10.8 mph SE17.4 kmh SE 19.0 mph30.6 kmh 29.62 in1003.0 mb 0.00 in0.0 mm 0.00 in0.0 mm 0.00 in0.0 mm
12:56 AM 33.0°F0.6°C 29.8°F-1.2°C 88% 13.7 mph SE22.0 kmh SE 18.0 mph29.0 kmh 29.61 in1002.7 mb 0.00 in0.0 mm 0.00 in0.0 mm 0.00 in0.0 mm
12:57 AM 33.0°F0.6°C 29.8°F-1.2°C 88% 10.5 mph SE16.9 kmh SE 18.0 mph29.0 kmh 29.61 in1002.7 mb 0.00 in0.0 mm 0.00 in0.0 mm 0.00 in0.0 mm
12:58 AM 33.0°F0.6°C 29.8°F-1.2°C 88% 11.4 mph SE18.3 kmh SE 16.0 mph25.7 kmh 29.61 in1002.7 mb 0.00 in0.0 mm 0.00 in0.0 mm 0.00 in0.0 mm
12:59 AM 33.0°F0.6°C 29.8°F-1.2°C 88% 13.0 mph SE20.9 kmh SE 17.0 mph27.4 kmh 29.61 in1002.7 mb 0.00 in0.0 mm 0.00 in0.0 mm 0.00 in0.0 mm
01:00 AM 33.0°F0.6°C 29.8°F-1.2°C 88% 10.0 mph SE16.1 kmh SE 17.0 mph27.4 kmh 29.61 in1002.7 mb 0.00 in0.0 mm 0.00 in0.0 mm 0.00 in0.0 mm
01:01 AM 33.0°F0.6°C 29.8°F-1.2°C 88% 12.5 mph SE20.1 kmh SE 16.0 mph25.7 kmh 29.61 in1002.7 mb 0.00 in0.0 mm 0.00 in0.0 mm 0.00 in0.0 mm
01:02 AM 33.0°F0.6°C 29.8°F-1.2°C 88% 14.3 mph SE23.0 kmh SE 20.0 mph32.2 kmh 29.61 in1002.7 mb 0.00 in0.0 mm 0.00 in0.0 mm 0.00 in0.0 mm
01:03 AM 33.0°F0.6°C 29.8°F-1.2°C 88% 13.9 mph SE22.4 kmh SE 21.0 mph33.8 kmh 29.61 in1002.7 mb 0.00 in0.0 mm 0.00 in0.0 mm 0.00 in0.0 mm
01:04 AM 33.0°F0.6°C 29.8°F-1.2°C 88% 11.8 mph SE19.0 kmh SE 21.0 mph33.8 kmh 29.61 in1002.7 mb 0.00 in0.0 mm 0.00 in0.0 mm 0.00 in0.0 mm
01:05 AM 33.0°F0.6°C 29.8°F-1.2°C 88% 13.2 mph SE21.2 kmh SE 18.0 mph29.0 kmh 29.61 in1002.7 mb 0.00 in0.0 mm 0.00 in0.0 mm 0.00 in0.0 mm
01:06 AM 33.0°F0.6°C 29.8°F-1.2°C 88% 12.2 mph SE19.6 kmh SE 18.0 mph29.0 kmh 29.61 in1002.7 mb 0.00 in0.0 mm 0.00 in0.0 mm 0.00 in0.0 mm
01:07 AM 33.0°F0.6°C 29.8°F-1.2°C 88% 12.1 mph SE19.5 kmh SE 17.0 mph27.4 kmh 29.60 in1002.4 mb 0.00 in0.0 mm 0.00 in0.0 mm 0.00 in0.0 mm
01:08 AM 33.0°F0.6°C 29.8°F-1.2°C 88% 13.4 mph SE21.6 kmh SE 20.0 mph32.2 kmh 29.61 in1002.7 mb 0.00 in0.0 mm 0.00 in0.0 mm 0.00 in0.0 mm
01:09 AM 33.0°F0.6°C 29.8°F-1.2°C 88% 11.1 mph SE17.9 kmh SE 20.0 mph32.2 kmh 29.60 in1002.4 mb 0.00 in0.0 mm 0.00 in0.0 mm 0.00 in0.0 mm
01:10 AM 33.0°F0.6°C 29.8°F-1.2°C 88% 11.7 mph SE18.8 kmh SE 16.0 mph25.7 kmh 29.61 in1002.7 mb 0.00 in0.0 mm 0.00 in0.0 mm 0.00 in0.0 mm
01:11 AM 33.0°F0.6°C 29.8°F-1.2°C 88% 14.3 mph SE23.0 kmh SE 18.0 mph29.0 kmh 29.60 in1002.4 mb 0.00 in0.0 mm 0.00 in0.0 mm 0.00 in0.0 mm
01:12 AM 33.0°F0.6°C 29.8°F-1.2°C 88% 13.7 mph SE22.0 kmh SE 18.0 mph29.0 kmh 29.60 in1002.4 mb 0.00 in0.0 mm 0.00 in0.0 mm 0.00 in0.0 mm
01:13 AM 33.0°F0.6°C 29.8°F-1.2°C 88% 12.1 mph SE19.5 kmh SE 18.0 mph29.0 kmh 29.60 in1002.4 mb 0.00 in0.0 mm 0.00 in0.0 mm 0.00 in0.0 mm
01:14 AM 33.0°F0.6°C 29.8°F-1.2°C 88% 12.7 mph SE20.4 kmh SE 19.0 mph30.6 kmh 29.60 in1002.4 mb 0.00 in0.0 mm 0.00 in0.0 mm 0.00 in0.0 mm
01:15 AM 33.0°F0.6°C 29.8°F-1.2°C 88% 13.0 mph SE20.9 kmh SE 19.0 mph30.6 kmh 29.60 in1002.4 mb 0.00 in0.0 mm 0.00 in0.0 mm 0.00 in0.0 mm
01:16 AM 33.0°F0.6°C 29.8°F-1.2°C 88% 13.4 mph SE21.6 kmh SE 17.0 mph27.4 kmh 29.60 in1002.4 mb 0.00 in0.0 mm 0.00 in0.0 mm 0.00 in0.0 mm
01:17 AM 33.0°F0.6°C 29.8°F-1.2°C 88% 12.0 mph SE19.3 kmh SE 17.0 mph27.4 kmh 29.60 in1002.4 mb 0.00 in0.0 mm 0.00 in0.0 mm 0.00 in0.0 mm
01:18 AM 33.0°F0.6°C 29.8°F-1.2°C 88% 10.1 mph SE16.3 kmh SE 17.0 mph27.4 kmh 29.60 in1002.4 mb 0.00 in0.0 mm 0.00 in0.0 mm 0.00 in0.0 mm
01:19 AM 33.0°F0.6°C 29.8°F-1.2°C 88% 11.5 mph SE18.5 kmh SE 17.0 mph27.4 kmh 29.60 in1002.4 mb 0.00 in0.0 mm 0.00 in0.0 mm 0.00 in0.0 mm
01:20 AM 33.0°F0.6°C 29.8°F-1.2°C 88% 13.5 mph SE21.7 kmh SE 21.0 mph33.8 kmh 29.60 in1002.4 mb 0.00 in0.0 mm 0.00 in0.0 mm 0.00 in0.0 mm
01:21 AM 33.0°F0.6°C 29.8°F-1.2°C 88% 14.5 mph SE23.3 kmh SE 21.0 mph33.8 kmh 29.60 in1002.4 mb 0.00 in0.0 mm 0.00 in0.0 mm 0.00 in0.0 mm
01:22 AM 33.1°F0.6°C 29.9°F-1.2°C 88% 12.6 mph SE20.3 kmh SE 18.0 mph29.0 kmh 29.60 in1002.4 mb 0.00 in0.0 mm 0.00 in0.0 mm 0.00 in0.0 mm
01:23 AM 33.0°F0.6°C 29.8°F-1.2°C 88% 13.5 mph SE21.7 kmh SE 20.0 mph32.2 kmh 29.59 in1002.0 mb 0.00 in0.0 mm 0.00 in0.0 mm 0.00 in0.0 mm
01:24 AM 33.0°F0.6°C 29.8°F-1.2°C 88% 13.8 mph SE22.2 kmh SE 20.0 mph32.2 kmh 29.59 in1002.0 mb 0.00 in0.0 mm 0.00 in0.0 mm 0.00 in0.0 mm
01:25 AM 33.0°F0.6°C 29.8°F-1.2°C 88% 12.4 mph SE20.0 kmh SE 19.0 mph30.6 kmh 29.59 in1002.0 mb 0.00 in0.0 mm 0.00 in0.0 mm 0.00 in0.0 mm
01:26 AM 33.0°F0.6°C 29.8°F-1.2°C 88% 11.9 mph SE19.2 kmh SE 19.0 mph30.6 kmh 29.59 in1002.0 mb 0.00 in0.0 mm 0.00 in0.0 mm 0.00 in0.0 mm
01:27 AM 33.0°F0.6°C 29.8°F-1.2°C 88% 10.3 mph SE16.6 kmh SE 17.0 mph27.4 kmh 29.59 in1002.0 mb 0.00 in0.0 mm 0.00 in0.0 mm 0.00 in0.0 mm
01:28 AM 33.0°F0.6°C 29.8°F-1.2°C 88% 10.9 mph SE17.5 kmh SE 15.0 mph24.1 kmh 29.59 in1002.0 mb 0.00 in0.0 mm 0.00 in0.0 mm 0.00 in0.0 mm
01:29 AM 33.0°F0.6°C 29.8°F-1.2°C 88% 12.7 mph SE20.4 kmh SE 16.0 mph25.7 kmh 29.59 in1002.0 mb 0.00 in0.0 mm 0.00 in0.0 mm 0.00 in0.0 mm
01:30 AM 33.1°F0.6°C 29.9°F-1.2°C 88% 13.4 mph SE21.6 kmh SE 19.0 mph30.6 kmh 29.59 in1002.0 mb 0.00 in0.0 mm 0.00 in0.0 mm 0.00 in0.0 mm
01:31 AM 33.0°F0.6°C 29.8°F-1.2°C 88% 14.5 mph SE23.3 kmh SE 19.0 mph30.6 kmh 29.59 in1002.0 mb 0.00 in0.0 mm 0.00 in0.0 mm 0.00 in0.0 mm
01:32 AM 33.1°F0.6°C 29.9°F-1.2°C 88% 11.6 mph SE18.7 kmh SE 18.0 mph29.0 kmh 29.59 in1002.0 mb 0.00 in0.0 mm 0.00 in0.0 mm 0.00 in0.0 mm
01:33 AM 33.0°F0.6°C 29.8°F-1.2°C 88% 9.4 mph SE15.1 kmh SE 14.0 mph22.5 kmh 29.59 in1002.0 mb 0.00 in0.0 mm 0.00 in0.0 mm 0.00 in0.0 mm
01:34 AM 33.1°F0.6°C 29.9°F-1.2°C 88% 13.1 mph SE21.1 kmh SE 18.0 mph29.0 kmh 29.59 in1002.0 mb 0.00 in0.0 mm 0.00 in0.0 mm 0.00 in0.0 mm
01:35 AM 33.0°F0.6°C 29.8°F-1.2°C 88% 11.5 mph SE18.5 kmh SE 18.0 mph29.0 kmh 29.59 in1002.0 mb 0.00 in0.0 mm 0.00 in0.0 mm 0.00 in0.0 mm
01:36 AM 33.0°F0.6°C 29.8°F-1.2°C 88% 10.5 mph SE16.9 kmh SE 17.0 mph27.4 kmh 29.59 in1002.0 mb 0.00 in0.0 mm 0.00 in0.0 mm 0.00 in0.0 mm
01:37 AM 33.0°F0.6°C 29.8°F-1.2°C 88% 11.5 mph SE18.5 kmh SE 15.0 mph24.1 kmh 29.59 in1002.0 mb 0.00 in0.0 mm 0.00 in0.0 mm 0.00 in0.0 mm
01:38 AM 33.0°F0.6°C 29.8°F-1.2°C 88% 12.2 mph SE19.6 kmh SE 18.0 mph29.0 kmh 29.59 in1002.0 mb 0.00 in0.0 mm 0.00 in0.0 mm 0.00 in0.0 mm
01:39 AM 33.0°F0.6°C 29.8°F-1.2°C 88% 11.5 mph SE18.5 kmh SE 18.0 mph29.0 kmh 29.59 in1002.0 mb 0.00 in0.0 mm 0.00 in0.0 mm 0.00 in0.0 mm
01:40 AM 33.0°F0.6°C 29.8°F-1.2°C 88% 12.9 mph SE20.8 kmh SE 18.0 mph29.0 kmh 29.59 in1002.0 mb 0.00 in0.0 mm 0.00 in0.0 mm 0.00 in0.0 mm
01:41 AM 33.0°F0.6°C 29.8°F-1.2°C 88% 11.1 mph SE17.9 kmh SE 16.0 mph25.7 kmh 29.59 in1002.0 mb 0.00 in0.0 mm 0.00 in0.0 mm 0.00 in0.0 mm
01:42 AM 33.0°F0.6°C 29.8°F-1.2°C 88% 11.2 mph SE18.0 kmh SE 17.0 mph27.4 kmh 29.59 in1002.0 mb 0.00 in0.0 mm 0.00 in0.0 mm 0.00 in0.0 mm
01:43 AM 33.1°F0.6°C 29.9°F-1.2°C 88% 12.2 mph SE19.6 kmh SE 17.0 mph27.4 kmh 29.59 in1002.0 mb 0.00 in0.0 mm 0.00 in0.0 mm 0.00 in0.0 mm
01:44 AM 33.0°F0.6°C 29.8°F-1.2°C 88% 12.0 mph SE19.3 kmh SE 16.0 mph25.7 kmh 29.59 in1002.0 mb 0.00 in0.0 mm 0.00 in0.0 mm 0.00 in0.0 mm
01:45 AM 33.1°F0.6°C 29.9°F-1.2°C 88% 12.3 mph SE19.8 kmh SE 16.0 mph25.7 kmh 29.59 in1002.0 mb 0.00 in0.0 mm 0.00 in0.0 mm 0.00 in0.0 mm
01:46 AM 33.0°F0.6°C 29.8°F-1.2°C 88% 12.6 mph SE20.3 kmh SE 18.0 mph29.0 kmh 29.59 in1002.0 mb 0.00 in0.0 mm 0.00 in0.0 mm 0.00 in0.0 mm
01:47 AM 33.1°F0.6°C 29.9°F-1.2°C 88% 13.1 mph SE21.1 kmh SE 18.0 mph29.0 kmh 29.59 in1002.0 mb 0.00 in0.0 mm 0.00 in0.0 mm 0.00 in0.0 mm
01:48 AM 33.0°F0.6°C 29.8°F-1.2°C 88% 10.5 mph SE16.9 kmh SE 15.0 mph24.1 kmh 29.58 in1001.7 mb 0.00 in0.0 mm 0.00 in0.0 mm 0.00 in0.0 mm
01:49 AM 33.1°F0.6°C 29.9°F-1.2°C 88% 12.1 mph SE19.5 kmh SE 17.0 mph27.4 kmh 29.58 in1001.7 mb 0.00 in0.0 mm 0.00 in0.0 mm 0.00 in0.0 mm
01:50 AM 33.0°F0.6°C 29.8°F-1.2°C 88% 14.5 mph SE23.3 kmh SE 18.0 mph29.0 kmh 29.58 in1001.7 mb 0.00 in0.0 mm 0.00 in0.0 mm 0.00 in0.0 mm
01:51 AM 33.0°F0.6°C 29.8°F-1.2°C 88% 12.8 mph SE20.6 kmh SE 18.0 mph29.0 kmh 29.58 in1001.7 mb 0.00 in0.0 mm 0.00 in0.0 mm 0.00 in0.0 mm
01:52 AM 33.0°F0.6°C 29.8°F-1.2°C 88% 13.5 mph SE21.7 kmh SE 17.0 mph27.4 kmh 29.58 in1001.7 mb 0.00 in0.0 mm 0.00 in0.0 mm 0.00 in0.0 mm
01:53 AM 33.0°F0.6°C 29.8°F-1.2°C 88% 12.9 mph SE20.8 kmh SE 17.0 mph27.4 kmh 29.58 in1001.7 mb 0.00 in0.0 mm 0.00 in0.0 mm 0.00 in0.0 mm
01:54 AM 33.0°F0.6°C 29.8°F-1.2°C 88% 11.9 mph SE19.2 kmh SE 17.0 mph27.4 kmh 29.58 in1001.7 mb 0.00 in0.0 mm 0.00 in0.0 mm 0.00 in0.0 mm
01:55 AM 33.0°F0.6°C 29.8°F-1.2°C 88% 9.6 mph SE15.4 kmh SE 16.0 mph25.7 kmh 29.58 in1001.7 mb 0.00 in0.0 mm 0.00 in0.0 mm 0.00 in0.0 mm
01:56 AM 33.0°F0.6°C 29.8°F-1.2°C 88% 11.6 mph SE18.7 kmh SE 15.0 mph24.1 kmh 29.58 in1001.7 mb 0.00 in0.0 mm 0.00 in0.0 mm 0.00 in0.0 mm
01:57 AM 33.0°F0.6°C 29.8°F-1.2°C 88% 10.5 mph SE16.9 kmh SE 16.0 mph25.7 kmh 29.58 in1001.7 mb 0.00 in0.0 mm 0.00 in0.0 mm 0.00 in0.0 mm
01:58 AM 33.0°F0.6°C 29.8°F-1.2°C 88% 14.1 mph SE22.7 kmh SE 17.0 mph27.4 kmh 29.58 in1001.7 mb 0.00 in0.0 mm 0.00 in0.0 mm 0.00 in0.0 mm
01:59 AM 33.0°F0.6°C 29.8°F-1.2°C 88% 12.3 mph SE19.8 kmh SE 17.0 mph27.4 kmh 29.58 in1001.7 mb 0.00 in0.0 mm 0.00 in0.0 mm 0.00 in0.0 mm
02:00 AM 33.0°F0.6°C 29.8°F-1.2°C 88% 12.7 mph SE20.4 kmh SE 18.0 mph29.0 kmh 29.58 in1001.7 mb 0.00 in0.0 mm 0.00 in0.0 mm 0.00 in0.0 mm
02:01 AM 33.0°F0.6°C 29.8°F-1.2°C 88% 11.3 mph SE18.2 kmh SE 18.0 mph29.0 kmh 29.58 in1001.7 mb 0.00 in0.0 mm 0.00 in0.0 mm 0.00 in0.0 mm
02:02 AM 33.0°F0.6°C 29.8°F-1.2°C 88% 9.8 mph SE15.8 kmh SE 15.0 mph24.1 kmh 29.57 in1001.4 mb 0.00 in0.0 mm 0.00 in0.0 mm 0.00 in0.0 mm
02:03 AM 33.0°F0.6°C 29.8°F-1.2°C 88% 14.5 mph SE23.3 kmh SE 19.0 mph30.6 kmh 29.57 in1001.4 mb 0.00 in0.0 mm 0.00 in0.0 mm 0.00 in0.0 mm
02:04 AM 33.0°F0.6°C 29.8°F-1.2°C 88% 9.6 mph SE15.4 kmh SE 19.0 mph30.6 kmh 29.57 in1001.4 mb 0.00 in0.0 mm 0.00 in0.0 mm 0.00 in0.0 mm
02:05 AM 33.0°F0.6°C 29.8°F-1.2°C 88% 11.2 mph SE18.0 kmh SE 14.0 mph22.5 kmh 29.57 in1001.4 mb 0.00 in0.0 mm 0.00 in0.0 mm 0.00 in0.0 mm
02:06 AM 33.0°F0.6°C 29.8°F-1.2°C 88% 12.4 mph SE20.0 kmh SE 17.0 mph27.4 kmh 29.57 in1001.4 mb 0.00 in0.0 mm 0.00 in0.0 mm 0.00 in0.0 mm
02:07 AM 33.0°F0.6°C 29.8°F-1.2°C 88% 10.7 mph SE17.2 kmh SE 17.0 mph27.4 kmh 29.57 in1001.4 mb 0.00 in0.0 mm 0.00 in0.0 mm 0.00 in0.0 mm
02:08 AM 33.0°F0.6°C 29.8°F-1.2°C 88% 13.6 mph SE21.9 kmh SE 18.0 mph29.0 kmh 29.57 in1001.4 mb 0.00 in0.0 mm 0.00 in0.0 mm 0.00 in0.0 mm
02:09 AM 33.0°F0.6°C 29.8°F-1.2°C 88% 11.7 mph SE18.8 kmh SE 18.0 mph29.0 kmh 29.57 in1001.4 mb 0.00 in0.0 mm 0.00 in0.0 mm 0.00 in0.0 mm
02:10 AM 33.0°F0.6°C 29.8°F-1.2°C 88% 10.6 mph SE17.1 kmh SE 16.0 mph25.7 kmh 29.57 in1001.4 mb 0.00 in0.0 mm 0.00 in0.0 mm 0.00 in0.0 mm
02:11 AM 33.0°F0.6°C 29.8°F-1.2°C 88% 12.6 mph SE20.3 kmh SE 16.0 mph25.7 kmh 29.57 in1001.4 mb 0.00 in0.0 mm 0.00 in0.0 mm 0.00 in0.0 mm
02:12 AM 33.1°F0.6°C 29.9°F-1.2°C 88% 14.2 mph SE22.9 kmh SE 18.0 mph29.0 kmh 29.57 in1001.4 mb 0.00 in0.0 mm 0.00 in0.0 mm 0.00 in0.0 mm
02:13 AM 33.0°F0.6°C 29.8°F-1.2°C 88% 15.6 mph SE25.1 kmh SE 20.0 mph32.2 kmh 29.57 in1001.4 mb 0.00 in0.0 mm 0.00 in0.0 mm 0.00 in0.0 mm
02:14 AM 33.1°F0.6°C 29.9°F-1.2°C 88% 13.3 mph SE21.4 kmh SE 20.0 mph32.2 kmh 29.57 in1001.4 mb 0.00 in0.0 mm 0.00 in0.0 mm 0.00 in0.0 mm
02:15 AM 33.1°F0.6°C 30.2°F-1.0°C 89% 13.3 mph SE21.4 kmh SE 19.0 mph30.6 kmh 29.57 in1001.4 mb 0.00 in0.0 mm 0.00 in0.0 mm 0.00 in0.0 mm
02:16 AM 33.1°F0.6°C 29.9°F-1.2°C 88% 12.2 mph SE19.6 kmh SE 19.0 mph30.6 kmh 29.57 in1001.4 mb 0.00 in0.0 mm 0.00 in0.0 mm 0.00 in0.0 mm
02:17 AM 33.1°F0.6°C 29.9°F-1.2°C 88% 12.2 mph SE19.6 kmh SE 20.0 mph32.2 kmh 29.57 in1001.4 mb 0.00 in0.0 mm 0.00 in0.0 mm 0.00 in0.0 mm
02:18 AM 33.0°F0.6°C 30.1°F-1.1°C 89% 14.3 mph SE23.0 kmh SE 20.0 mph32.2 kmh 29.57 in1001.4 mb 0.00 in0.0 mm 0.00 in0.0 mm 0.00 in0.0 mm
02:19 AM 33.1°F0.6°C 29.9°F-1.2°C 88% 12.5 mph SE20.1 kmh SE 18.0 mph29.0 kmh 29.57 in1001.4 mb 0.00 in0.0 mm 0.00 in0.0 mm 0.00 in0.0 mm
02:20 AM 33.1°F0.6°C 29.9°F-1.2°C 88% 14.4 mph SE23.2 kmh SE 19.0 mph30.6 kmh 29.57 in1001.4 mb 0.00 in0.0 mm 0.00 in0.0 mm 0.00 in0.0 mm
02:21 AM 33.1°F0.6°C 29.9°F-1.2°C 88% 13.5 mph SE21.7 kmh SE 19.0 mph30.6 kmh 29.57 in1001.4 mb 0.00 in0.0 mm 0.00 in0.0 mm 0.00 in0.0 mm
02:22 AM 33.1°F0.6°C 29.9°F-1.2°C 88% 12.6 mph SE20.3 kmh SE 19.0 mph30.6 kmh 29.57 in1001.4 mb 0.00 in0.0 mm 0.00 in0.0 mm 0.00 in0.0 mm
02:23 AM 33.1°F0.6°C 29.9°F-1.2°C 88% 11.3 mph SE18.2 kmh SE 19.0 mph30.6 kmh 29.57 in1001.4 mb 0.00 in0.0 mm 0.00 in0.0 mm 0.00 in0.0 mm
02:24 AM 33.1°F0.6°C 29.9°F-1.2°C 88% 12.1 mph SE19.5 kmh SE 20.0 mph32.2 kmh 29.57 in1001.4 mb 0.00 in0.0 mm 0.00 in0.0 mm 0.00 in0.0 mm
02:25 AM 33.2°F0.7°C 30.3°F-0.9°C 89% 12.9 mph SE20.8 kmh SE 20.0 mph32.2 kmh 29.57 in1001.4 mb 0.00 in0.0 mm 0.00 in0.0 mm 0.00 in0.0 mm
02:26 AM 33.1°F0.6°C 29.9°F-1.2°C 88% 12.6 mph SE20.3 kmh SE 18.0 mph29.0 kmh 29.57 in1001.4 mb 0.00 in0.0 mm 0.00 in0.0 mm 0.00 in0.0 mm
02:27 AM 33.2°F0.7°C 30.0°F-1.1°C 88% 13.8 mph SE22.2 kmh SE 18.0 mph29.0 kmh 29.57 in1001.4 mb 0.00 in0.0 mm 0.00 in0.0 mm 0.00 in0.0 mm
02:28 AM 33.2°F0.7°C 30.0°F-1.1°C 88% 14.3 mph SE23.0 kmh SE 22.0 mph35.4 kmh 29.56 in1001.0 mb 0.00 in0.0 mm 0.00 in0.0 mm 0.00 in0.0 mm
02:29 AM 33.1°F0.6°C 29.9°F-1.2°C 88% 16.7 mph SE26.9 kmh SE 22.0 mph35.4 kmh 29.56 in1001.0 mb 0.00 in0.0 mm 0.00 in0.0 mm 0.00 in0.0 mm
02:30 AM 33.2°F0.7°C 30.0°F-1.1°C 88% 14.7 mph SE23.7 kmh SE 20.0 mph32.2 kmh 29.56 in1001.0 mb 0.00 in0.0 mm 0.00 in0.0 mm 0.00 in0.0 mm
02:31 AM 33.2°F0.7°C 30.3°F-0.9°C 89% 12.4 mph SE20.0 kmh SE 20.0 mph32.2 kmh 29.56 in1001.0 mb 0.00 in0.0 mm 0.00 in0.0 mm 0.00 in0.0 mm
02:32 AM 33.2°F0.7°C 30.3°F-0.9°C 89% 15.2 mph SE24.5 kmh SE 24.0 mph38.6 kmh 29.56 in1001.0 mb 0.00 in0.0 mm 0.00 in0.0 mm 0.00 in0.0 mm
02:33 AM 33.2°F0.7°C 30.3°F-0.9°C 89% 18.1 mph SE29.1 kmh SE 24.0 mph38.6 kmh 29.56 in1001.0 mb 0.00 in0.0 mm 0.00 in0.0 mm 0.00 in0.0 mm
02:34 AM 33.2°F0.7°C 30.3°F-0.9°C 89% 14.9 mph SE24.0 kmh SE 22.0 mph35.4 kmh 29.56 in1001.0 mb 0.00 in0.0 mm 0.00 in0.0 mm 0.00 in0.0 mm
02:35 AM 33.3°F0.7°C 30.1°F-1.1°C 88% 14.3 mph SE23.0 kmh SE 20.0 mph32.2 kmh 29.56 in1001.0 mb 0.00 in0.0 mm 0.00 in0.0 mm 0.00 in0.0 mm
02:36 AM 33.2°F0.7°C 30.0°F-1.1°C 88% 12.4 mph SE20.0 kmh SE 18.0 mph29.0 kmh 29.56 in1001.0 mb 0.00 in0.0 mm 0.00 in0.0 mm 0.00 in0.0 mm
02:37 AM 33.2°F0.7°C 30.0°F-1.1°C 88% 14.0 mph SE22.5 kmh SE 19.0 mph30.6 kmh 29.56 in1001.0 mb 0.00 in0.0 mm 0.00 in0.0 mm 0.00 in0.0 mm
02:38 AM 33.2°F0.7°C 30.3°F-0.9°C 89% 14.0 mph SE22.5 kmh SE 20.0 mph32.2 kmh 29.56 in1001.0 mb 0.00 in0.0 mm 0.00 in0.0 mm 0.00 in0.0 mm
02:39 AM 33.2°F0.7°C 30.3°F-0.9°C 89% 14.5 mph SE23.3 kmh SE 20.0 mph32.2 kmh 29.56 in1001.0 mb 0.00 in0.0 mm 0.00 in0.0 mm 0.00 in0.0 mm
02:40 AM 33.3°F0.7°C 30.4°F-0.9°C 89% 15.0 mph SE24.1 kmh SE 20.0 mph32.2 kmh 29.55 in1000.7 mb 0.00 in0.0 mm 0.00 in0.0 mm 0.00 in0.0 mm
02:41 AM 33.3°F0.7°C 30.4°F-0.9°C 89% 12.0 mph SE19.3 kmh SE 20.0 mph32.2 kmh 29.55 in1000.7 mb 0.00 in0.0 mm 0.00 in0.0 mm 0.00 in0.0 mm
02:42 AM 33.3°F0.7°C 30.1°F-1.1°C 88% 15.2 mph SE24.5 kmh SE 21.0 mph33.8 kmh 29.55 in1000.7 mb 0.00 in0.0 mm 0.00 in0.0 mm 0.00 in0.0 mm
02:43 AM 33.3°F0.7°C 30.1°F-1.1°C 88% 13.3 mph SE21.4 kmh SE 21.0 mph33.8 kmh 29.55 in1000.7 mb 0.00 in0.0 mm 0.00 in0.0 mm 0.00 in0.0 mm
02:44 AM 33.3°F0.7°C 30.1°F-1.1°C 88% 12.0 mph SE19.3 kmh SE 17.0 mph27.4 kmh 29.55 in1000.7 mb 0.00 in0.0 mm 0.00 in0.0 mm 0.00 in0.0 mm
02:45 AM 33.3°F0.7°C 30.1°F-1.1°C 88% 11.1 mph SE17.9 kmh SE 17.0 mph27.4 kmh 29.55 in1000.7 mb 0.00 in0.0 mm 0.00 in0.0 mm 0.00 in0.0 mm
02:46 AM 33.3°F0.7°C 30.1°F-1.1°C 88% 10.9 mph SE17.5 kmh SE 17.0 mph27.4 kmh 29.55 in1000.7 mb 0.00 in0.0 mm 0.00 in0.0 mm 0.00 in0.0 mm
02:47 AM 33.3°F0.7°C 30.1°F-1.1°C 88% 14.9 mph SE24.0 kmh SE 21.0 mph33.8 kmh 29.55 in1000.7 mb 0.00 in0.0 mm 0.00 in0.0 mm 0.00 in0.0 mm
02:48 AM 33.3°F0.7°C 30.4°F-0.9°C 89% 13.2 mph SE21.2 kmh SE 21.0 mph33.8 kmh 29.55 in1000.7 mb 0.00 in0.0 mm 0.00 in0.0 mm 0.00 in0.0 mm
02:49 AM 33.3°F0.7°C 30.4°F-0.9°C 89% 15.5 mph SE24.9 kmh SE 21.0 mph33.8 kmh 29.55 in1000.7 mb 0.00 in0.0 mm 0.00 in0.0 mm 0.00 in0.0 mm
02:50 AM 33.3°F0.7°C 30.1°F-1.1°C 88% 14.1 mph SE22.7 kmh SE 21.0 mph33.8 kmh 29.55 in1000.7 mb 0.00 in0.0 mm 0.00 in0.0 mm 0.00 in0.0 mm
02:51 AM 33.3°F0.7°C 30.1°F-1.1°C 88% 13.2 mph SE21.2 kmh SE 19.0 mph30.6 kmh 29.55 in1000.7 mb 0.00 in0.0 mm 0.00 in0.0 mm 0.00 in0.0 mm
02:52 AM 33.3°F0.7°C 30.1°F-1.1°C 88% 14.5 mph SE23.3 kmh SE 20.0 mph32.2 kmh 29.55 in1000.7 mb 0.00 in0.0 mm 0.00 in0.0 mm 0.00 in0.0 mm
02:53 AM 33.3°F0.7°C 30.1°F-1.1°C 88% 13.7 mph SE22.0 kmh SE 20.0 mph32.2 kmh 29.55 in1000.7 mb 0.00 in0.0 mm 0.00 in0.0 mm 0.00 in0.0 mm
02:54 AM 33.3°F0.7°C 30.1°F-1.1°C 88% 12.2 mph SE19.6 kmh SE 17.0 mph27.4 kmh 29.55 in1000.7 mb 0.00 in0.0 mm 0.00 in0.0 mm 0.00 in0.0 mm
02:55 AM 33.3°F0.7°C 30.1°F-1.1°C 88% 11.2 mph SE18.0 kmh SE 17.0 mph27.4 kmh 29.55 in1000.7 mb 0.00 in0.0 mm 0.00 in0.0 mm 0.00 in0.0 mm
02:56 AM 33.3°F0.7°C 30.1°F-1.1°C 88% 10.8 mph SE17.4 kmh SE 16.0 mph25.7 kmh 29.55 in1000.7 mb 0.00 in0.0 mm 0.00 in0.0 mm 0.00 in0.0 mm
02:57 AM 33.3°F0.7°C 30.1°F-1.1°C 88% 11.2 mph SE18.0 kmh SE 16.0 mph25.7 kmh 29.55 in1000.7 mb 0.00 in0.0 mm 0.00 in0.0 mm 0.00 in0.0 mm
02:58 AM 33.3°F0.7°C 30.1°F-1.1°C 88% 11.4 mph SE18.3 kmh SE 19.0 mph30.6 kmh 29.55 in1000.7 mb 0.00 in0.0 mm 0.00 in0.0 mm 0.00 in0.0 mm
02:59 AM 33.3°F0.7°C 30.1°F-1.1°C 88% 13.6 mph SE21.9 kmh SE 19.0 mph30.6 kmh 29.55 in1000.7 mb 0.00 in0.0 mm 0.00 in0.0 mm 0.00 in0.0 mm
03:00 AM 33.3°F0.7°C 30.1°F-1.1°C 88% 14.3 mph SE23.0 kmh SE 19.0 mph30.6 kmh 29.55 in1000.7 mb 0.00 in0.0 mm 0.00 in0.0 mm 0.00 in0.0 mm
03:01 AM 33.3°F0.7°C 30.1°F-1.1°C 88% 14.2 mph SE22.9 kmh SE 19.0 mph30.6 kmh 29.55 in1000.7 mb 0.00 in0.0 mm 0.00 in0.0 mm 0.00 in0.0 mm
03:02 AM 33.3°F0.7°C 30.1°F-1.1°C 88% 13.1 mph SE21.1 kmh SE 17.0 mph27.4 kmh 29.55 in1000.7 mb 0.00 in0.0 mm 0.00 in0.0 mm 0.00 in0.0 mm
03:03 AM 33.3°F0.7°C 30.1°F-1.1°C 88% 12.7 mph SE20.4 kmh SE 18.0 mph29.0 kmh 29.55 in1000.7 mb 0.00 in0.0 mm 0.00 in0.0 mm 0.00 in0.0 mm
03:04 AM 33.3°F0.7°C 30.1°F-1.1°C 88% 13.7 mph SE22.0 kmh SE 18.0 mph29.0 kmh 29.55 in1000.7 mb 0.00 in0.0 mm 0.00 in0.0 mm 0.00 in0.0 mm
03:05 AM 33.3°F0.7°C 30.1°F-1.1°C 88% 10.3 mph SE16.6 kmh SE 18.0 mph29.0 kmh 29.54 in1000.3 mb 0.00 in0.0 mm 0.00 in0.0 mm 0.00 in0.0 mm
03:06 AM 33.3°F0.7°C 30.1°F-1.1°C 88% 12.1 mph SE19.5 kmh SE 16.0 mph25.7 kmh 29.54 in1000.3 mb 0.00 in0.0 mm 0.00 in0.0 mm 0.00 in0.0 mm
03:07 AM 33.3°F0.7°C 30.1°F-1.1°C 88% 9.5 mph SE15.3 kmh SE 16.0 mph25.7 kmh 29.54 in1000.3 mb 0.00 in0.0 mm 0.00 in0.0 mm 0.00 in0.0 mm
03:08 AM 33.3°F0.7°C 30.1°F-1.1°C 88% 11.1 mph SE17.9 kmh SE 14.0 mph22.5 kmh 29.54 in1000.3 mb 0.00 in0.0 mm 0.00 in0.0 mm 0.00 in0.0 mm
03:09 AM 33.3°F0.7°C 30.1°F-1.1°C 88% 13.0 mph SE20.9 kmh SE 17.0 mph27.4 kmh 29.54 in1000.3 mb 0.00 in0.0 mm 0.00 in0.0 mm 0.00 in0.0 mm
03:10 AM 33.3°F0.7°C 30.1°F-1.1°C 88% 13.2 mph SE21.2 kmh SE 19.0 mph30.6 kmh 29.54 in1000.3 mb 0.00 in0.0 mm 0.00 in0.0 mm 0.00 in0.0 mm
03:11 AM 33.3°F0.7°C 30.1°F-1.1°C 88% 11.9 mph SE19.2 kmh SE 19.0 mph30.6 kmh 29.54 in1000.3 mb 0.00 in0.0 mm 0.00 in0.0 mm 0.00 in0.0 mm
03:12 AM 33.3°F0.7°C 30.1°F-1.1°C 88% 12.1 mph SE19.5 kmh SE 17.0 mph27.4 kmh 29.54 in1000.3 mb 0.00 in0.0 mm 0.00 in0.0 mm 0.00 in0.0 mm
03:13 AM 33.3°F0.7°C 30.1°F-1.1°C 88% 12.2 mph SE19.6 kmh SE 16.0 mph25.7 kmh 29.54 in1000.3 mb 0.00 in0.0 mm 0.00 in0.0 mm 0.00 in0.0 mm
03:14 AM 33.3°F0.7°C 30.1°F-1.1°C 88% 14.1 mph SE22.7 kmh SE 20.0 mph32.2 kmh 29.54 in1000.3 mb 0.00 in0.0 mm 0.00 in0.0 mm 0.00 in0.0 mm
03:15 AM 33.4°F0.8°C 30.2°F-1.0°C 88% 10.9 mph SE17.5 kmh SE 20.0 mph32.2 kmh 29.54 in1000.3 mb 0.00 in0.0 mm 0.00 in0.0 mm 0.00 in0.0 mm
03:16 AM 33.3°F0.7°C 30.1°F-1.1°C 88% 11.9 mph SE19.2 kmh SE 17.0 mph27.4 kmh 29.54 in1000.3 mb 0.00 in0.0 mm 0.00 in0.0 mm 0.00 in0.0 mm
03:17 AM 33.3°F0.7°C 30.1°F-1.1°C 88% 14.2 mph SE22.9 kmh SE 18.0 mph29.0 kmh 29.54 in1000.3 mb 0.00 in0.0 mm 0.00 in0.0 mm 0.00 in0.0 mm
03:18 AM 33.4°F0.8°C 30.2°F-1.0°C 88% 12.6 mph SE20.3 kmh SE 18.0 mph29.0 kmh 29.54 in1000.3 mb 0.00 in0.0 mm 0.00 in0.0 mm 0.00 in0.0 mm
03:19 AM 33.4°F0.8°C 30.2°F-1.0°C 88% 13.4 mph SE21.6 kmh SE 18.0 mph29.0 kmh 29.54 in1000.3 mb 0.00 in0.0 mm 0.00 in0.0 mm 0.00 in0.0 mm
03:20 AM 33.4°F0.8°C 30.2°F-1.0°C 88% 11.9 mph SE19.2 kmh SE 18.0 mph29.0 kmh 29.54 in1000.3 mb 0.00 in0.0 mm 0.00 in0.0 mm 0.00 in0.0 mm
03:21 AM 33.4°F0.8°C 30.2°F-1.0°C 88% 14.3 mph SE23.0 kmh SE 19.0 mph30.6 kmh 29.54 in1000.3 mb 0.00 in0.0 mm 0.00 in0.0 mm 0.00 in0.0 mm
03:22 AM 33.3°F0.7°C 30.1°F-1.1°C 88% 14.7 mph SE23.7 kmh SE 19.0 mph30.6 kmh 29.53 in1000.0 mb 0.00 in0.0 mm 0.00 in0.0 mm 0.00 in0.0 mm
03:23 AM 33.4°F0.8°C 30.2°F-1.0°C 88% 11.9 mph SE19.2 kmh SE 19.0 mph30.6 kmh 29.54 in1000.3 mb 0.00 in0.0 mm 0.00 in0.0 mm 0.00 in0.0 mm
03:24 AM 33.4°F0.8°C 30.2°F-1.0°C 88% 9.1 mph SE14.6 kmh SE 17.0 mph27.4 kmh 29.53 in1000.0 mb 0.00 in0.0 mm 0.00 in0.0 mm 0.00 in0.0 mm
03:25 AM 33.4°F0.8°C 30.2°F-1.0°C 88% 12.8 mph SE20.6 kmh SE 19.0 mph30.6 kmh 29.53 in1000.0 mb 0.00 in0.0 mm 0.00 in0.0 mm 0.00 in0.0 mm
03:26 AM 33.4°F0.8°C 30.2°F-1.0°C 88% 11.8 mph SE19.0 kmh SE 19.0 mph30.6 kmh 29.53 in1000.0 mb 0.00 in0.0 mm 0.00 in0.0 mm 0.00 in0.0 mm
03:27 AM 33.4°F0.8°C 30.2°F-1.0°C 88% 11.0 mph SE17.7 kmh SE 16.0 mph25.7 kmh 29.53 in1000.0 mb 0.00 in0.0 mm 0.00 in0.0 mm 0.00 in0.0 mm
03:28 AM 33.4°F0.8°C 30.2°F-1.0°C 88% 12.4 mph SE20.0 kmh SE 16.0 mph25.7 kmh 29.53 in1000.0 mb 0.00 in0.0 mm 0.00 in0.0 mm 0.00 in0.0 mm
03:29 AM 33.4°F0.8°C 30.2°F-1.0°C 88% 8.2 mph SE13.2 kmh SE 16.0 mph25.7 kmh 29.53 in1000.0 mb 0.00 in0.0 mm 0.00 in0.0 mm 0.00 in0.0 mm
03:30 AM 33.4°F0.8°C 30.2°F-1.0°C 88% 11.6 mph SE18.7 kmh SE 16.0 mph25.7 kmh 29.53 in1000.0 mb 0.00 in0.0 mm 0.00 in0.0 mm 0.00 in0.0 mm
03:31 AM 33.4°F0.8°C 30.2°F-1.0°C 88% 10.6 mph SE17.1 kmh SE 16.0 mph25.7 kmh 29.53 in1000.0 mb 0.00 in0.0 mm 0.00 in0.0 mm 0.00 in0.0 mm
03:32 AM 33.4°F0.8°C 30.2°F-1.0°C 88% 10.9 mph SE17.5 kmh SE 16.0 mph25.7 kmh 29.53 in1000.0 mb 0.00 in0.0 mm 0.00 in0.0 mm 0.00 in0.0 mm
03:33 AM 33.4°F0.8°C 30.2°F-1.0°C 88% 13.8 mph SE22.2 kmh SE 19.0 mph30.6 kmh 29.53 in1000.0 mb 0.00 in0.0 mm 0.00 in0.0 mm 0.00 in0.0 mm
03:34 AM 33.4°F0.8°C 30.2°F-1.0°C 88% 13.1 mph SE21.1 kmh SE 20.0 mph32.2 kmh 29.53 in1000.0 mb 0.00 in0.0 mm 0.00 in0.0 mm 0.00 in0.0 mm
03:35 AM 33.4°F0.8°C 30.2°F-1.0°C 88% 11.1 mph SE17.9 kmh SE 20.0 mph32.2 kmh 29.53 in1000.0 mb 0.00 in0.0 mm 0.00 in0.0 mm 0.00 in0.0 mm
03:36 AM 33.4°F0.8°C 30.2°F-1.0°C 88% 11.3 mph SE18.2 kmh SE 17.0 mph27.4 kmh 29.53 in1000.0 mb 0.00 in0.0 mm 0.00 in0.0 mm 0.00 in0.0 mm
03:37 AM 33.4°F0.8°C 30.2°F-1.0°C 88% 9.8 mph SE15.8 kmh SE 17.0 mph27.4 kmh 29.53 in1000.0 mb 0.00 in0.0 mm 0.00 in0.0 mm 0.00 in0.0 mm
03:38 AM 33.4°F0.8°C 30.2°F-1.0°C 88% 11.1 mph SE17.9 kmh SE 15.0 mph24.1 kmh 29.52 in999.7 mb 0.00 in0.0 mm 0.00 in0.0 mm 0.00 in0.0 mm
03:39 AM 33.4°F0.8°C 30.2°F-1.0°C 88% 11.4 mph SE18.3 kmh SE 17.0 mph27.4 kmh 29.53 in1000.0 mb 0.00 in0.0 mm 0.00 in0.0 mm 0.00 in0.0 mm
03:40 AM 33.4°F0.8°C 30.2°F-1.0°C 88% 12.5 mph SE20.1 kmh SE 17.0 mph27.4 kmh 29.52 in999.7 mb 0.00 in0.0 mm 0.00 in0.0 mm 0.00 in0.0 mm
03:41 AM 33.4°F0.8°C 30.2°F-1.0°C 88% 11.4 mph SE18.3 kmh SE 17.0 mph27.4 kmh 29.52 in999.7 mb 0.00 in0.0 mm 0.00 in0.0 mm 0.00 in0.0 mm
03:42 AM 33.4°F0.8°C 30.2°F-1.0°C 88% 14.0 mph SE22.5 kmh SE 19.0 mph30.6 kmh 29.53 in1000.0 mb 0.00 in0.0 mm 0.00 in0.0 mm 0.00 in0.0 mm
03:43 AM 33.4°F0.8°C 30.2°F-1.0°C 88% 9.4 mph SE15.1 kmh SE 19.0 mph30.6 kmh 29.52 in999.7 mb 0.00 in0.0 mm 0.00 in0.0 mm 0.00 in0.0 mm
03:44 AM 33.4°F0.8°C 30.2°F-1.0°C 88% 10.9 mph SE17.5 kmh SE 15.0 mph24.1 kmh 29.52 in999.7 mb 0.00 in0.0 mm 0.00 in0.0 mm 0.00 in0.0 mm
03:45 AM 33.4°F0.8°C 30.2°F-1.0°C 88% 12.8 mph SE20.6 kmh SE 17.0 mph27.4 kmh 29.52 in999.7 mb 0.00 in0.0 mm 0.00 in0.0 mm 0.00 in0.0 mm
03:46 AM 33.4°F0.8°C 30.2°F-1.0°C 88% 8.5 mph SE13.7 kmh SE 17.0 mph27.4 kmh 29.52 in999.7 mb 0.00 in0.0 mm 0.00 in0.0 mm 0.00 in0.0 mm
03:47 AM 33.4°F0.8°C 30.2°F-1.0°C 88% 10.8 mph SE17.4 kmh SE 14.0 mph22.5 kmh 29.52 in999.7 mb 0.00 in0.0 mm 0.00 in0.0 mm 0.00 in0.0 mm
03:48 AM 33.5°F0.8°C 30.3°F-0.9°C 88% 13.8 mph SE22.2 kmh SE 19.0 mph30.6 kmh 29.52 in999.7 mb 0.00 in0.0 mm 0.00 in0.0 mm 0.00 in0.0 mm
03:49 AM 33.4°F0.8°C 30.2°F-1.0°C 88% 12.5 mph SE20.1 kmh SE 19.0 mph30.6 kmh 29.52 in999.7 mb 0.00 in0.0 mm 0.00 in0.0 mm 0.00 in0.0 mm
03:50 AM 33.5°F0.8°C 30.3°F-0.9°C 88% 12.7 mph SE20.4 kmh SE 16.0 mph25.7 kmh 29.52 in999.7 mb 0.00 in0.0 mm 0.00 in0.0 mm 0.00 in0.0 mm
03:51 AM 33.5°F0.8°C 30.3°F-0.9°C 88% 10.5 mph SE16.9 kmh SE 16.0 mph25.7 kmh 29.52 in999.7 mb 0.00 in0.0 mm 0.00 in0.0 mm 0.00 in0.0 mm
03:52 AM 33.4°F0.8°C 30.2°F-1.0°C 88% 11.9 mph SE19.2 kmh SE 15.0 mph24.1 kmh 29.52 in999.7 mb 0.00 in0.0 mm 0.00 in0.0 mm 0.00 in0.0 mm
03:53 AM 33.4°F0.8°C 30.2°F-1.0°C 88% 12.3 mph SE19.8 kmh SE 20.0 mph32.2 kmh 29.52 in999.7 mb 0.00 in0.0 mm 0.00 in0.0 mm 0.00 in0.0 mm
03:54 AM 33.5°F0.8°C 30.3°F-0.9°C 88% 12.0 mph SE19.3 kmh SE 20.0 mph32.2 kmh 29.52 in999.7 mb 0.00 in0.0 mm 0.00 in0.0 mm 0.00 in0.0 mm
03:55 AM 33.5°F0.8°C 30.3°F-0.9°C 88% 12.1 mph SE19.5 kmh SE 16.0 mph25.7 kmh 29.52 in999.7 mb 0.00 in0.0 mm 0.00 in0.0 mm 0.00 in0.0 mm
03:56 AM 33.5°F0.8°C 30.3°F-0.9°C 88% 11.8 mph SE19.0 kmh SE 16.0 mph25.7 kmh 29.52 in999.7 mb 0.00 in0.0 mm 0.00 in0.0 mm 0.00 in0.0 mm
03:57 AM 33.5°F0.8°C 30.3°F-0.9°C 88% 9.5 mph SE15.3 kmh SE 16.0 mph25.7 kmh 29.52 in999.7 mb 0.00 in0.0 mm 0.00 in0.0 mm 0.00 in0.0 mm
03:58 AM 33.5°F0.8°C 30.3°F-0.9°C 88% 12.4 mph SE20.0 kmh SE 17.0 mph27.4 kmh 29.51 in999.3 mb 0.00 in0.0 mm 0.00 in0.0 mm 0.00 in0.0 mm
03:59 AM 33.5°F0.8°C 30.3°F-0.9°C 88% 10.4 mph SE16.7 kmh SE 17.0 mph27.4 kmh 29.51 in999.3 mb 0.00 in0.0 mm 0.00 in0.0 mm 0.00 in0.0 mm
04:00 AM 33.5°F0.8°C 30.3°F-0.9°C 88% 11.8 mph SE19.0 kmh SE 18.0 mph29.0 kmh 29.52 in999.7 mb 0.00 in0.0 mm 0.00 in0.0 mm 0.00 in0.0 mm
04:01 AM 33.5°F0.8°C 30.3°F-0.9°C 88% 12.0 mph SE19.3 kmh SE 18.0 mph29.0 kmh 29.51 in999.3 mb 0.00 in0.0 mm 0.00 in0.0 mm 0.00 in0.0 mm
04:02 AM 33.5°F0.8°C 30.3°F-0.9°C 88% 9.9 mph SE15.9 kmh SE 16.0 mph25.7 kmh 29.51 in999.3 mb 0.00 in0.0 mm 0.00 in0.0 mm 0.00 in0.0 mm
04:03 AM 33.5°F0.8°C 30.3°F-0.9°C 88% 10.5 mph SE16.9 kmh SE 14.0 mph22.5 kmh 29.51 in999.3 mb 0.00 in0.0 mm 0.00 in0.0 mm 0.00 in0.0 mm
04:04 AM 33.5°F0.8°C 30.3°F-0.9°C 88% 9.0 mph SE14.5 kmh SE 13.0 mph20.9 kmh 29.51 in999.3 mb 0.00 in0.0 mm 0.00 in0.0 mm 0.00 in0.0 mm
04:05 AM 33.5°F0.8°C 30.3°F-0.9°C 88% 10.7 mph SE17.2 kmh SE 16.0 mph25.7 kmh 29.51 in999.3 mb 0.00 in0.0 mm 0.00 in0.0 mm 0.00 in0.0 mm
04:06 AM 33.5°F0.8°C 30.3°F-0.9°C 88% 11.1 mph SE17.9 kmh SE 16.0 mph25.7 kmh 29.51 in999.3 mb 0.00 in0.0 mm 0.00 in0.0 mm 0.00 in0.0 mm
04:07 AM 33.5°F0.8°C 30.3°F-0.9°C 88% 11.5 mph SE18.5 kmh SE 16.0 mph25.7 kmh 29.51 in999.3 mb 0.00 in0.0 mm 0.00 in0.0 mm 0.00 in0.0 mm
04:08 AM 33.5°F0.8°C 30.3°F-0.9°C 88% 9.9 mph SE15.9 kmh SE 16.0 mph25.7 kmh 29.51 in999.3 mb 0.00 in0.0 mm 0.00 in0.0 mm 0.00 in0.0 mm
04:09 AM 33.5°F0.8°C 30.3°F-0.9°C 88% 10.8 mph SE17.4 kmh SE 16.0 mph25.7 kmh 29.51 in999.3 mb 0.00 in0.0 mm 0.00 in0.0 mm 0.00 in0.0 mm
04:10 AM 33.5°F0.8°C 30.3°F-0.9°C 88% 10.7 mph SE17.2 kmh SE 15.0 mph24.1 kmh 29.51 in999.3 mb 0.00 in0.0 mm 0.00 in0.0 mm 0.00 in0.0 mm
04:11 AM 33.5°F0.8°C 30.3°F-0.9°C 88% 12.0 mph SE19.3 kmh SE 17.0 mph27.4 kmh 29.51 in999.3 mb 0.00 in0.0 mm 0.00 in0.0 mm 0.00 in0.0 mm
04:12 AM 33.5°F0.8°C 30.3°F-0.9°C 88% 9.5 mph SE15.3 kmh SE 17.0 mph27.4 kmh 29.50 in999.0 mb 0.00 in0.0 mm 0.00 in0.0 mm 0.00 in0.0 mm
04:13 AM 33.5°F0.8°C 30.3°F-0.9°C 88% 10.5 mph SE16.9 kmh SE 16.0 mph25.7 kmh 29.50 in999.0 mb 0.00 in0.0 mm 0.00 in0.0 mm 0.00 in0.0 mm
04:14 AM 33.5°F0.8°C 30.3°F-0.9°C 88% 9.8 mph SE15.8 kmh SE 16.0 mph25.7 kmh 29.50 in999.0 mb 0.00 in0.0 mm 0.00 in0.0 mm 0.00 in0.0 mm
04:15 AM 33.5°F0.8°C 30.3°F-0.9°C 88% 13.6 mph SE21.9 kmh SE 20.0 mph32.2 kmh 29.50 in999.0 mb 0.00 in0.0 mm 0.00 in0.0 mm 0.00 in0.0 mm
04:16 AM 33.6°F0.9°C 30.4°F-0.9°C 88% 13.8 mph SE22.2 kmh SE 20.0 mph32.2 kmh 29.50 in999.0 mb 0.00 in0.0 mm 0.00 in0.0 mm 0.00 in0.0 mm
04:17 AM 33.6°F0.9°C 30.4°F-0.9°C 88% 11.1 mph SE17.9 kmh SE 18.0 mph29.0 kmh 29.50 in999.0 mb 0.00 in0.0 mm 0.00 in0.0 mm 0.00 in0.0 mm
04:18 AM 33.6°F0.9°C 30.4°F-0.9°C 88% 13.7 mph SE22.0 kmh SE 17.0 mph27.4 kmh 29.50 in999.0 mb 0.00 in0.0 mm 0.00 in0.0 mm 0.00 in0.0 mm
04:19 AM 33.6°F0.9°C 30.4°F-0.9°C 88% 11.0 mph SE17.7 kmh SE 17.0 mph27.4 kmh 29.50 in999.0 mb 0.00 in0.0 mm 0.00 in0.0 mm 0.00 in0.0 mm
04:20 AM 33.6°F0.9°C 30.4°F-0.9°C 88% 15.1 mph SE24.3 kmh SE 20.0 mph32.2 kmh 29.50 in999.0 mb 0.00 in0.0 mm 0.00 in0.0 mm 0.00 in0.0 mm
04:21 AM 33.6°F0.9°C 30.4°F-0.9°C 88% 14.4 mph SE23.2 kmh SE 20.0 mph32.2 kmh 29.50 in999.0 mb 0.00 in0.0 mm 0.00 in0.0 mm 0.00 in0.0 mm
04:22 AM 33.6°F0.9°C 30.4°F-0.9°C 88% 13.8 mph SE22.2 kmh SE 19.0 mph30.6 kmh 29.50 in999.0 mb 0.00 in0.0 mm 0.00 in0.0 mm 0.00 in0.0 mm
04:23 AM 33.6°F0.9°C 30.4°F-0.9°C 88% 12.9 mph SE20.8 kmh SE 21.0 mph33.8 kmh 29.49 in998.6 mb 0.00 in0.0 mm 0.00 in0.0 mm 0.00 in0.0 mm
04:24 AM 33.6°F0.9°C 30.4°F-0.9°C 88% 12.7 mph SE20.4 kmh SE 21.0 mph33.8 kmh 29.49 in998.6 mb 0.00 in0.0 mm 0.00 in0.0 mm 0.00 in0.0 mm
04:25 AM 33.6°F0.9°C 30.4°F-0.9°C 88% 12.2 mph SE19.6 kmh SE 18.0 mph29.0 kmh 29.49 in998.6 mb 0.00 in0.0 mm 0.00 in0.0 mm 0.00 in0.0 mm
04:26 AM 33.6°F0.9°C 30.4°F-0.9°C 88% 13.5 mph SE21.7 kmh SE 18.0 mph29.0 kmh 29.49 in998.6 mb 0.00 in0.0 mm 0.00 in0.0 mm 0.00 in0.0 mm
04:27 AM 33.6°F0.9°C 30.4°F-0.9°C 88% 17.1 mph SE27.5 kmh SE 23.0 mph37.0 kmh 29.49 in998.6 mb 0.00 in0.0 mm 0.00 in0.0 mm 0.00 in0.0 mm
04:28 AM 33.6°F0.9°C 30.4°F-0.9°C 88% 14.8 mph SE23.8 kmh SE 23.0 mph37.0 kmh 29.49 in998.6 mb 0.00 in0.0 mm 0.00 in0.0 mm 0.00 in0.0 mm
04:29 AM 33.6°F0.9°C 30.4°F-0.9°C 88% 12.9 mph SE20.8 kmh SE 21.0 mph33.8 kmh 29.49 in998.6 mb 0.00 in0.0 mm 0.00 in0.0 mm 0.00 in0.0 mm
04:30 AM 33.5°F0.8°C 30.3°F-0.9°C 88% 11.2 mph SE18.0 kmh SE 21.0 mph33.8 kmh 29.49 in998.6 mb 0.00 in0.0 mm 0.00 in0.0 mm 0.00 in0.0 mm
04:31 AM 33.6°F0.9°C 30.4°F-0.9°C 88% 12.5 mph SE20.1 kmh SE 17.0 mph27.4 kmh 29.48 in998.3 mb 0.00 in0.0 mm 0.00 in0.0 mm 0.00 in0.0 mm
04:32 AM 33.6°F0.9°C 30.4°F-0.9°C 88% 14.7 mph SE23.7 kmh SE 19.0 mph30.6 kmh 29.48 in998.3 mb 0.00 in0.0 mm 0.00 in0.0 mm 0.00 in0.0 mm
04:33 AM 33.6°F0.9°C 30.4°F-0.9°C 88% 13.6 mph SE21.9 kmh SE 21.0 mph33.8 kmh 29.48 in998.3 mb 0.00 in0.0 mm 0.00 in0.0 mm 0.00 in0.0 mm
04:34 AM 33.6°F0.9°C 30.4°F-0.9°C 88% 13.2 mph SE21.2 kmh SE 21.0 mph33.8 kmh 29.48 in998.3 mb 0.00 in0.0 mm 0.00 in0.0 mm 0.00 in0.0 mm
04:35 AM 33.6°F0.9°C 30.4°F-0.9°C 88% 15.4 mph SE24.8 kmh SE 22.0 mph35.4 kmh 29.48 in998.3 mb 0.00 in0.0 mm 0.00 in0.0 mm 0.00 in0.0 mm
04:36 AM 33.6°F0.9°C 30.4°F-0.9°C 88% 14.3 mph SE23.0 kmh SE 22.0 mph35.4 kmh 29.48 in998.3 mb 0.00 in0.0 mm 0.00 in0.0 mm 0.00 in0.0 mm
04:37 AM 33.6°F0.9°C 30.4°F-0.9°C 88% 14.3 mph SE23.0 kmh SE 19.0 mph30.6 kmh 29.48 in998.3 mb 0.00 in0.0 mm 0.00 in0.0 mm 0.00 in0.0 mm
04:38 AM 33.6°F0.9°C 30.4°F-0.9°C 88% 12.6 mph SE20.3 kmh SE 19.0 mph30.6 kmh 29.48 in998.3 mb 0.00 in0.0 mm 0.00 in0.0 mm 0.00 in0.0 mm
04:39 AM 33.6°F0.9°C 30.4°F-0.9°C 88% 16.3 mph SE26.2 kmh SE 19.0 mph30.6 kmh 29.48 in998.3 mb 0.00 in0.0 mm 0.00 in0.0 mm 0.00 in0.0 mm
04:40 AM 33.6°F0.9°C 30.4°F-0.9°C 88% 10.5 mph SE16.9 kmh SE 19.0 mph30.6 kmh 29.48 in998.3 mb 0.00 in0.0 mm 0.00 in0.0 mm 0.00 in0.0 mm
04:41 AM 33.6°F0.9°C 30.4°F-0.9°C 88% 14.2 mph SE22.9 kmh SE 19.0 mph30.6 kmh 29.48 in998.3 mb 0.00 in0.0 mm 0.00 in0.0 mm 0.00 in0.0 mm
04:42 AM 33.6°F0.9°C 30.4°F-0.9°C 88% 11.6 mph SE18.7 kmh SE 19.0 mph30.6 kmh 29.48 in998.3 mb 0.00 in0.0 mm 0.00 in0.0 mm 0.00 in0.0 mm
04:43 AM 33.6°F0.9°C 30.4°F-0.9°C 88% 12.4 mph SE20.0 kmh SE 21.0 mph33.8 kmh 29.48 in998.3 mb 0.00 in0.0 mm 0.00 in0.0 mm 0.00 in0.0 mm
04:44 AM 33.6°F0.9°C 30.4°F-0.9°C 88% 14.2 mph SE22.9 kmh SE 22.0 mph35.4 kmh 29.48 in998.3 mb 0.00 in0.0 mm 0.00 in0.0 mm 0.00 in0.0 mm
04:45 AM 33.6°F0.9°C 30.4°F-0.9°C 88% 14.1 mph SE22.7 kmh SE 22.0 mph35.4 kmh 29.48 in998.3 mb 0.00 in0.0 mm 0.00 in0.0 mm 0.00 in0.0 mm
04:46 AM 33.5°F0.8°C 30.3°F-0.9°C 88% 12.4 mph SE20.0 kmh SE 18.0 mph29.0 kmh 29.48 in998.3 mb 0.00 in0.0 mm 0.00 in0.0 mm 0.00 in0.0 mm
04:47 AM 33.6°F0.9°C 30.4°F-0.9°C 88% 10.5 mph SE16.9 kmh SE 17.0 mph27.4 kmh 29.48 in998.3 mb 0.00 in0.0 mm 0.00 in0.0 mm 0.00 in0.0 mm
04:48 AM 33.6°F0.9°C 30.4°F-0.9°C 88% 11.6 mph SE18.7 kmh SE 17.0 mph27.4 kmh 29.48 in998.3 mb 0.00 in0.0 mm 0.00 in0.0 mm 0.00 in0.0 mm
04:49 AM 33.6°F0.9°C 30.4°F-0.9°C 88% 11.4 mph SE18.3 kmh SE 17.0 mph27.4 kmh 29.48 in998.3 mb 0.00 in0.0 mm 0.00 in0.0 mm 0.00 in0.0 mm
04:50 AM 33.6°F0.9°C 30.4°F-0.9°C 88% 13.1 mph SE21.1 kmh SE 21.0 mph33.8 kmh 29.48 in998.3 mb 0.00 in0.0 mm 0.00 in0.0 mm 0.00 in0.0 mm
04:51 AM 33.6°F0.9°C 30.4°F-0.9°C 88% 10.8 mph SE17.4 kmh SE 21.0 mph33.8 kmh 29.48 in998.3 mb 0.00 in0.0 mm 0.00 in0.0 mm 0.00 in0.0 mm
04:52 AM 33.6°F0.9°C 30.4°F-0.9°C 88% 15.1 mph SE24.3 kmh SE 21.0 mph33.8 kmh 29.48 in998.3 mb 0.00 in0.0 mm 0.00 in0.0 mm 0.00 in0.0 mm
04:53 AM 33.6°F0.9°C 30.4°F-0.9°C 88% 9.7 mph SE15.6 kmh SE 21.0 mph33.8 kmh 29.48 in998.3 mb 0.00 in0.0 mm 0.00 in0.0 mm 0.00 in0.0 mm
04:54 AM 33.6°F0.9°C 30.4°F-0.9°C 88% 11.5 mph SE18.5 kmh SE 14.0 mph22.5 kmh 29.48 in998.3 mb 0.00 in0.0 mm 0.00 in0.0 mm 0.00 in0.0 mm
04:55 AM 33.6°F0.9°C 30.4°F-0.9°C 88% 12.1 mph SE19.5 kmh SE 18.0 mph29.0 kmh 29.48 in998.3 mb 0.00 in0.0 mm 0.00 in0.0 mm 0.00 in0.0 mm
04:56 AM 33.5°F0.8°C 30.3°F-0.9°C 88% 11.8 mph SE19.0 kmh SE 18.0 mph29.0 kmh 29.48 in998.3 mb 0.00 in0.0 mm 0.00 in0.0 mm 0.00 in0.0 mm
04:57 AM 33.6°F0.9°C 30.4°F-0.9°C 88% 15.5 mph SE24.9 kmh SE 20.0 mph32.2 kmh 29.48 in998.3 mb 0.00 in0.0 mm 0.00 in0.0 mm 0.00 in0.0 mm
04:58 AM 33.6°F0.9°C 30.4°F-0.9°C 88% 12.5 mph SE20.1 kmh SE 20.0 mph32.2 kmh 29.48 in998.3 mb 0.00 in0.0 mm 0.00 in0.0 mm 0.00 in0.0 mm
04:59 AM 33.6°F0.9°C 30.4°F-0.9°C 88% 13.3 mph SE21.4 kmh SE 18.0 mph29.0 kmh 29.48 in998.3 mb 0.00 in0.0 mm 0.00 in0.0 mm 0.00 in0.0 mm
05:00 AM 33.6°F0.9°C 30.4°F-0.9°C 88% 12.8 mph SE20.6 kmh SE 18.0 mph29.0 kmh 29.48 in998.3 mb 0.00 in0.0 mm 0.00 in0.0 mm 0.00 in0.0 mm
05:01 AM 33.6°F0.9°C 30.4°F-0.9°C 88% 12.5 mph SE20.1 kmh SE 17.0 mph27.4 kmh 29.48 in998.3 mb 0.00 in0.0 mm 0.00 in0.0 mm 0.00 in0.0 mm
05:02 AM 33.6°F0.9°C 30.4°F-0.9°C 88% 14.5 mph SE23.3 kmh SE 18.0 mph29.0 kmh 29.48 in998.3 mb 0.00 in0.0 mm 0.00 in0.0 mm 0.00 in0.0 mm
05:03 AM 33.6°F0.9°C 30.4°F-0.9°C 88% 12.7 mph SE20.4 kmh SE 18.0 mph29.0 kmh 29.48 in998.3 mb 0.00 in0.0 mm 0.00 in0.0 mm 0.00 in0.0 mm
05:04 AM 33.6°F0.9°C 30.4°F-0.9°C 88% 13.2 mph SE21.2 kmh SE 19.0 mph30.6 kmh 29.48 in998.3 mb 0.00 in0.0 mm 0.00 in0.0 mm 0.00 in0.0 mm
05:05 AM 33.6°F0.9°C 30.4°F-0.9°C 88% 13.3 mph SE21.4 kmh SE 19.0 mph30.6 kmh 29.48 in998.3 mb 0.00 in0.0 mm 0.00 in0.0 mm 0.00 in0.0 mm
05:06 AM 33.6°F0.9°C 30.4°F-0.9°C 88% 14.3 mph SE23.0 kmh SE 17.0 mph27.4 kmh 29.47 in998.0 mb 0.00 in0.0 mm 0.00 in0.0 mm 0.00 in0.0 mm
05:07 AM 33.6°F0.9°C 30.4°F-0.9°C 88% 13.4 mph SE21.6 kmh SE 19.0 mph30.6 kmh 29.47 in998.0 mb 0.00 in0.0 mm 0.00 in0.0 mm 0.00 in0.0 mm
05:08 AM 33.7°F0.9°C 30.5°F-0.8°C 88% 15.8 mph SE25.4 kmh SE 22.0 mph35.4 kmh 29.47 in998.0 mb 0.00 in0.0 mm 0.00 in0.0 mm 0.00 in0.0 mm
05:09 AM 33.7°F0.9°C 30.5°F-0.8°C 88% 16.4 mph SE26.4 kmh SE 22.0 mph35.4 kmh 29.47 in998.0 mb 0.00 in0.0 mm 0.00 in0.0 mm 0.00 in0.0 mm
05:10 AM 33.7°F0.9°C 30.5°F-0.8°C 88% 12.4 mph SE20.0 kmh SE 20.0 mph32.2 kmh 29.47 in998.0 mb 0.00 in0.0 mm 0.00 in0.0 mm 0.00 in0.0 mm
05:11 AM 33.7°F0.9°C 30.5°F-0.8°C 88% 13.9 mph SE22.4 kmh SE 23.0 mph37.0 kmh 29.47 in998.0 mb 0.00 in0.0 mm 0.00 in0.0 mm 0.00 in0.0 mm
05:12 AM 33.7°F0.9°C 30.5°F-0.8°C 88% 12.3 mph SE19.8 kmh SE 23.0 mph37.0 kmh 29.47 in998.0 mb 0.00 in0.0 mm 0.00 in0.0 mm 0.00 in0.0 mm
05:13 AM 33.7°F0.9°C 30.5°F-0.8°C 88% 11.1 mph SE17.9 kmh SE 18.0 mph29.0 kmh 29.47 in998.0 mb 0.00 in0.0 mm 0.00 in0.0 mm 0.00 in0.0 mm
05:14 AM 33.7°F0.9°C 30.5°F-0.8°C 88% 14.3 mph SE23.0 kmh SE 20.0 mph32.2 kmh 29.47 in998.0 mb 0.00 in0.0 mm 0.00 in0.0 mm 0.00 in0.0 mm
05:15 AM 33.7°F0.9°C 30.5°F-0.8°C 88% 13.1 mph SE21.1 kmh SE 20.0 mph32.2 kmh 29.46 in997.6 mb 0.00 in0.0 mm 0.00 in0.0 mm 0.00 in0.0 mm
05:16 AM 33.7°F0.9°C 30.5°F-0.8°C 88% 12.1 mph SE19.5 kmh SE 17.0 mph27.4 kmh 29.46 in997.6 mb 0.00 in0.0 mm 0.00 in0.0 mm 0.00 in0.0 mm
05:17 AM 33.6°F0.9°C 30.4°F-0.9°C 88% 11.0 mph SE17.7 kmh SE 17.0 mph27.4 kmh 29.46 in997.6 mb 0.00 in0.0 mm 0.00 in0.0 mm 0.00 in0.0 mm
05:18 AM 33.6°F0.9°C 30.4°F-0.9°C 88% 10.2 mph SE16.4 kmh SE 15.0 mph24.1 kmh 29.46 in997.6 mb 0.00 in0.0 mm 0.00 in0.0 mm 0.00 in0.0 mm
05:19 AM 33.7°F0.9°C 30.5°F-0.8°C 88% 12.2 mph SE19.6 kmh SE 17.0 mph27.4 kmh 29.46 in997.6 mb 0.00 in0.0 mm 0.00 in0.0 mm 0.00 in0.0 mm
05:20 AM 33.6°F0.9°C 30.4°F-0.9°C 88% 11.0 mph SE17.7 kmh SE 17.0 mph27.4 kmh 29.46 in997.6 mb 0.00 in0.0 mm 0.00 in0.0 mm 0.00 in0.0 mm
05:21 AM 33.6°F0.9°C 30.4°F-0.9°C 88% 15.4 mph SE24.8 kmh SE 19.0 mph30.6 kmh 29.46 in997.6 mb 0.00 in0.0 mm 0.00 in0.0 mm 0.00 in0.0 mm
05:22 AM 33.6°F0.9°C 30.4°F-0.9°C 88% 14.0 mph SE22.5 kmh SE 19.0 mph30.6 kmh 29.46 in997.6 mb 0.00 in0.0 mm 0.00 in0.0 mm 0.00 in0.0 mm
05:23 AM 33.6°F0.9°C 30.4°F-0.9°C 88% 12.3 mph SE19.8 kmh SE 19.0 mph30.6 kmh 29.46 in997.6 mb 0.00 in0.0 mm 0.00 in0.0 mm 0.00 in0.0 mm
05:24 AM 33.6°F0.9°C 30.4°F-0.9°C 88% 11.5 mph SE18.5 kmh SE 18.0 mph29.0 kmh 29.46 in997.6 mb 0.00 in0.0 mm 0.00 in0.0 mm 0.00 in0.0 mm
05:25 AM 33.7°F0.9°C 30.5°F-0.8°C 88% 12.7 mph SE20.4 kmh SE 17.0 mph27.4 kmh 29.46 in997.6 mb 0.00 in0.0 mm 0.00 in0.0 mm 0.00 in0.0 mm
05:26 AM 33.6°F0.9°C 30.4°F-0.9°C 88% 13.4 mph SE21.6 kmh SE 22.0 mph35.4 kmh 29.46 in997.6 mb 0.00 in0.0 mm 0.00 in0.0 mm 0.00 in0.0 mm
05:27 AM 33.7°F0.9°C 30.5°F-0.8°C 88% 11.8 mph SE19.0 kmh SE 22.0 mph35.4 kmh 29.45 in997.3 mb 0.00 in0.0 mm 0.00 in0.0 mm 0.00 in0.0 mm
05:28 AM 33.7°F0.9°C 30.5°F-0.8°C 88% 15.5 mph SE24.9 kmh SE 20.0 mph32.2 kmh 29.45 in997.3 mb 0.00 in0.0 mm 0.00 in0.0 mm 0.00 in0.0 mm
05:29 AM 33.7°F0.9°C 30.5°F-0.8°C 88% 12.3 mph SE19.8 kmh SE 20.0 mph32.2 kmh 29.45 in997.3 mb 0.00 in0.0 mm 0.00 in0.0 mm 0.00 in0.0 mm
05:30 AM 33.6°F0.9°C 30.4°F-0.9°C 88% 12.7 mph SE20.4 kmh SE 21.0 mph33.8 kmh 29.45 in997.3 mb 0.00 in0.0 mm 0.00 in0.0 mm 0.00 in0.0 mm
05:31 AM 33.6°F0.9°C 30.4°F-0.9°C 88% 12.6 mph SE20.3 kmh SE 21.0 mph33.8 kmh 29.45 in997.3 mb 0.00 in0.0 mm 0.00 in0.0 mm 0.00 in0.0 mm
05:32 AM 33.7°F0.9°C 30.5°F-0.8°C 88% 11.7 mph SE18.8 kmh SE 17.0 mph27.4 kmh 29.45 in997.3 mb 0.00 in0.0 mm 0.00 in0.0 mm 0.00 in0.0 mm
05:33 AM 33.7°F0.9°C 30.5°F-0.8°C 88% 11.7 mph SE18.8 kmh SE 16.0 mph25.7 kmh 29.45 in997.3 mb 0.00 in0.0 mm 0.00 in0.0 mm 0.00 in0.0 mm
05:34 AM 33.7°F0.9°C 30.5°F-0.8°C 88% 12.5 mph SE20.1 kmh SE 17.0 mph27.4 kmh 29.45 in997.3 mb 0.00 in0.0 mm 0.00 in0.0 mm 0.00 in0.0 mm
05:35 AM 33.7°F0.9°C 30.5°F-0.8°C 88% 13.4 mph SE21.6 kmh SE 17.0 mph27.4 kmh 29.45 in997.3 mb 0.00 in0.0 mm 0.00 in0.0 mm 0.00 in0.0 mm
05:36 AM 33.6°F0.9°C 30.4°F-0.9°C 88% 14.1 mph SE22.7 kmh SE 20.0 mph32.2 kmh 29.45 in997.3 mb 0.00 in0.0 mm 0.00 in0.0 mm 0.00 in0.0 mm
05:37 AM 33.7°F0.9°C 30.5°F-0.8°C 88% 14.2 mph SE22.9 kmh SE 20.0 mph32.2 kmh 29.45 in997.3 mb 0.00 in0.0 mm 0.00 in0.0 mm 0.00 in0.0 mm
05:38 AM 33.6°F0.9°C 30.4°F-0.9°C 88% 16.1 mph SE25.9 kmh SE 20.0 mph32.2 kmh 29.45 in997.3 mb 0.00 in0.0 mm 0.00 in0.0 mm 0.00 in0.0 mm
05:39 AM 33.6°F0.9°C 30.4°F-0.9°C 88% 14.4 mph SE23.2 kmh SE 20.0 mph32.2 kmh 29.45 in997.3 mb 0.00 in0.0 mm 0.00 in0.0 mm 0.00 in0.0 mm
05:40 AM 33.6°F0.9°C 30.4°F-0.9°C 88% 13.4 mph SE21.6 kmh SE 19.0 mph30.6 kmh 29.44 in997.0 mb 0.00 in0.0 mm 0.00 in0.0 mm 0.00 in0.0 mm
05:41 AM 33.6°F0.9°C 30.4°F-0.9°C 88% 14.8 mph SE23.8 kmh SE 19.0 mph30.6 kmh 29.44 in997.0 mb 0.00 in0.0 mm 0.00 in0.0 mm 0.00 in0.0 mm
05:42 AM 33.6°F0.9°C 30.4°F-0.9°C 88% 16.3 mph SE26.2 kmh SE 22.0 mph35.4 kmh 29.44 in997.0 mb 0.00 in0.0 mm 0.00 in0.0 mm 0.00 in0.0 mm
05:43 AM 33.7°F0.9°C 30.5°F-0.8°C 88% 16.5 mph SE26.6 kmh SE 22.0 mph35.4 kmh 29.44 in997.0 mb 0.00 in0.0 mm 0.00 in0.0 mm 0.00 in0.0 mm
05:44 AM 33.7°F0.9°C 30.5°F-0.8°C 88% 15.6 mph SE25.1 kmh SE 21.0 mph33.8 kmh 29.44 in997.0 mb 0.00 in0.0 mm 0.00 in0.0 mm 0.00 in0.0 mm
05:45 AM 33.6°F0.9°C 30.4°F-0.9°C 88% 15.7 mph SE25.3 kmh SE 20.0 mph32.2 kmh 29.44 in997.0 mb 0.00 in0.0 mm 0.00 in0.0 mm 0.00 in0.0 mm
05:46 AM 33.7°F0.9°C 30.5°F-0.8°C 88% 14.4 mph SE23.2 kmh SE 21.0 mph33.8 kmh 29.43 in996.6 mb 0.00 in0.0 mm 0.00 in0.0 mm 0.00 in0.0 mm
05:47 AM 33.6°F0.9°C 30.4°F-0.9°C 88% 15.7 mph SE25.3 kmh SE 26.0 mph41.8 kmh 29.43 in996.6 mb 0.00 in0.0 mm 0.00 in0.0 mm 0.00 in0.0 mm
05:48 AM 33.7°F0.9°C 30.5°F-0.8°C 88% 15.3 mph SE24.6 kmh SE 26.0 mph41.8 kmh 29.43 in996.6 mb 0.00 in0.0 mm 0.00 in0.0 mm 0.00 in0.0 mm
05:49 AM 33.6°F0.9°C 30.4°F-0.9°C 88% 16.0 mph SE25.7 kmh SE 22.0 mph35.4 kmh 29.43 in996.6 mb 0.00 in0.0 mm 0.00 in0.0 mm 0.00 in0.0 mm
05:50 AM 33.6°F0.9°C 30.4°F-0.9°C 88% 15.4 mph SE24.8 kmh SE 24.0 mph38.6 kmh 29.43 in996.6 mb 0.00 in0.0 mm 0.00 in0.0 mm 0.00 in0.0 mm
05:51 AM 33.6°F0.9°C 30.4°F-0.9°C 88% 17.5 mph SE28.2 kmh SE 24.0 mph38.6 kmh 29.43 in996.6 mb 0.00 in0.0 mm 0.00 in0.0 mm 0.00 in0.0 mm
05:52 AM 33.6°F0.9°C 30.4°F-0.9°C 88% 15.6 mph SE25.1 kmh SE 22.0 mph35.4 kmh 29.42 in996.3 mb 0.00 in0.0 mm 0.00 in0.0 mm 0.00 in0.0 mm
05:53 AM 33.6°F0.9°C 30.4°F-0.9°C 88% 14.5 mph SE23.3 kmh SE 23.0 mph37.0 kmh 29.43 in996.6 mb 0.00 in0.0 mm 0.00 in0.0 mm 0.00 in0.0 mm
05:54 AM 33.6°F0.9°C 30.4°F-0.9°C 88% 17.7 mph SE28.5 kmh SE 25.0 mph40.2 kmh 29.42 in996.3 mb 0.00 in0.0 mm 0.00 in0.0 mm 0.00 in0.0 mm
05:55 AM 33.6°F0.9°C 30.4°F-0.9°C 88% 21.2 mph SE34.1 kmh SE 28.0 mph45.1 kmh 29.42 in996.3 mb 0.00 in0.0 mm 0.00 in0.0 mm 0.00 in0.0 mm
05:56 AM 33.6°F0.9°C 30.4°F-0.9°C 88% 17.6 mph SE28.3 kmh SE 28.0 mph45.1 kmh 29.42 in996.3 mb 0.00 in0.0 mm 0.00 in0.0 mm 0.00 in0.0 mm
05:57 AM 33.6°F0.9°C 30.4°F-0.9°C 88% 13.5 mph SE21.7 kmh SE 23.0 mph37.0 kmh 29.42 in996.3 mb 0.00 in0.0 mm 0.00 in0.0 mm 0.00 in0.0 mm
05:58 AM 33.6°F0.9°C 30.4°F-0.9°C 88% 18.1 mph SE29.1 kmh SE 22.0 mph35.4 kmh 29.42 in996.3 mb 0.00 in0.0 mm 0.00 in0.0 mm 0.00 in0.0 mm
05:59 AM 33.6°F0.9°C 30.4°F-0.9°C 88% 15.3 mph ESE24.6 kmh ESE 22.0 mph35.4 kmh 29.42 in996.3 mb 0.00 in0.0 mm 0.00 in0.0 mm 0.00 in0.0 mm
06:00 AM 33.6°F0.9°C 30.4°F-0.9°C 88% 18.0 mph SE29.0 kmh SE 27.0 mph43.5 kmh 29.42 in996.3 mb 0.00 in0.0 mm 0.00 in0.0 mm 0.00 in0.0 mm
06:01 AM 33.6°F0.9°C 30.4°F-0.9°C 88% 18.8 mph SE30.3 kmh SE 27.0 mph43.5 kmh 29.41 in995.9 mb 0.00 in0.0 mm 0.00 in0.0 mm 0.00 in0.0 mm
06:02 AM 33.6°F0.9°C 30.4°F-0.9°C 88% 16.5 mph SE26.6 kmh SE 25.0 mph40.2 kmh 29.41 in995.9 mb 0.00 in0.0 mm 0.00 in0.0 mm 0.00 in0.0 mm
06:03 AM 33.6°F0.9°C 30.4°F-0.9°C 88% 16.9 mph SE27.2 kmh SE 28.0 mph45.1 kmh 29.41 in995.9 mb 0.00 in0.0 mm 0.00 in0.0 mm 0.00 in0.0 mm
06:04 AM 33.6°F0.9°C 30.4°F-0.9°C 88% 13.5 mph SE21.7 kmh SE 25.0 mph40.2 kmh 29.41 in995.9 mb 0.00 in0.0 mm 0.00 in0.0 mm 0.00 in0.0 mm
06:05 AM 33.6°F0.9°C 30.4°F-0.9°C 88% 15.7 mph SE25.3 kmh SE 24.0 mph38.6 kmh 29.41 in995.9 mb 0.00 in0.0 mm 0.00 in0.0 mm 0.00 in0.0 mm
06:06 AM 33.6°F0.9°C 30.4°F-0.9°C 88% 19.0 mph SE30.6 kmh SE 24.0 mph38.6 kmh 29.41 in995.9 mb 0.00 in0.0 mm 0.00 in0.0 mm 0.00 in0.0 mm
06:07 AM 33.6°F0.9°C 30.4°F-0.9°C 88% 16.8 mph SE27.0 kmh SE 23.0 mph37.0 kmh 29.41 in995.9 mb 0.00 in0.0 mm 0.00 in0.0 mm 0.00 in0.0 mm
06:08 AM 33.6°F0.9°C 30.4°F-0.9°C 88% 14.0 mph SE22.5 kmh SE 23.0 mph37.0 kmh 29.41 in995.9 mb 0.00 in0.0 mm 0.00 in0.0 mm 0.00 in0.0 mm
06:09 AM 33.6°F0.9°C 30.4°F-0.9°C 88% 17.2 mph SE27.7 kmh SE 22.0 mph35.4 kmh 29.41 in995.9 mb 0.00 in0.0 mm 0.00 in0.0 mm 0.00 in0.0 mm
06:10 AM 33.6°F0.9°C 30.4°F-0.9°C 88% 17.3 mph SE27.8 kmh SE 23.0 mph37.0 kmh 29.41 in995.9 mb 0.00 in0.0 mm 0.00 in0.0 mm 0.00 in0.0 mm
06:11 AM 33.6°F0.9°C 30.4°F-0.9°C 88% 18.8 mph SE30.3 kmh SE 23.0 mph37.0 kmh 29.40 in995.6 mb 0.00 in0.0 mm 0.00 in0.0 mm 0.00 in0.0 mm
06:12 AM 33.6°F0.9°C 30.4°F-0.9°C 88% 17.2 mph SE27.7 kmh SE 26.0 mph41.8 kmh 29.40 in995.6 mb 0.00 in0.0 mm 0.00 in0.0 mm 0.00 in0.0 mm
06:13 AM 33.6°F0.9°C 30.4°F-0.9°C 88% 16.4 mph SE26.4 kmh SE 26.0 mph41.8 kmh 29.40 in995.6 mb 0.00 in0.0 mm 0.00 in0.0 mm 0.00 in0.0 mm
06:14 AM 33.6°F0.9°C 30.4°F-0.9°C 88% 15.4 mph SE24.8 kmh SE 26.0 mph41.8 kmh 29.40 in995.6 mb 0.00 in0.0 mm 0.00 in0.0 mm 0.00 in0.0 mm
06:15 AM 33.6°F0.9°C 30.4°F-0.9°C 88% 11.2 mph SE18.0 kmh SE 22.0 mph35.4 kmh 29.40 in995.6 mb 0.00 in0.0 mm 0.00 in0.0 mm 0.00 in0.0 mm
06:16 AM 33.6°F0.9°C 30.4°F-0.9°C 88% 14.3 mph SE23.0 kmh SE 19.0 mph30.6 kmh 29.40 in995.6 mb 0.00 in0.0 mm 0.00 in0.0 mm 0.00 in0.0 mm
06:17 AM 33.6°F0.9°C 30.4°F-0.9°C 88% 19.6 mph SE31.5 kmh SE 27.0 mph43.5 kmh 29.40 in995.6 mb 0.00 in0.0 mm 0.00 in0.0 mm 0.00 in0.0 mm
06:18 AM 33.6°F0.9°C 30.4°F-0.9°C 88% 18.5 mph SE29.8 kmh SE 27.0 mph43.5 kmh 29.40 in995.6 mb 0.00 in0.0 mm 0.00 in0.0 mm 0.00 in0.0 mm
06:19 AM 33.6°F0.9°C 30.4°F-0.9°C 88% 16.8 mph SE27.0 kmh SE 27.0 mph43.5 kmh 29.40 in995.6 mb 0.00 in0.0 mm 0.00 in0.0 mm 0.00 in0.0 mm
06:20 AM 33.6°F0.9°C 30.4°F-0.9°C 88% 14.2 mph SE22.9 kmh SE 23.0 mph37.0 kmh 29.40 in995.6 mb 0.00 in0.0 mm 0.00 in0.0 mm 0.00 in0.0 mm
06:21 AM 33.7°F0.9°C 30.5°F-0.8°C 88% 17.8 mph SE28.6 kmh SE 24.0 mph38.6 kmh 29.40 in995.6 mb 0.00 in0.0 mm 0.00 in0.0 mm 0.00 in0.0 mm
06:22 AM 33.6°F0.9°C 30.4°F-0.9°C 88% 16.4 mph SE26.4 kmh SE 24.0 mph38.6 kmh 29.40 in995.6 mb 0.00 in0.0 mm 0.00 in0.0 mm 0.00 in0.0 mm
06:23 AM 33.7°F0.9°C 30.3°F-0.9°C 87% 17.3 mph SE27.8 kmh SE 26.0 mph41.8 kmh 29.40 in995.6 mb 0.00 in0.0 mm 0.00 in0.0 mm 0.00 in0.0 mm
06:24 AM 33.7°F0.9°C 30.3°F-0.9°C 87% 15.5 mph SE24.9 kmh SE 26.0 mph41.8 kmh 29.39 in995.3 mb 0.00 in0.0 mm 0.00 in0.0 mm 0.00 in0.0 mm
06:25 AM 33.7°F0.9°C 30.3°F-0.9°C 87% 16.2 mph SE26.1 kmh SE 22.0 mph35.4 kmh 29.40 in995.6 mb 0.00 in0.0 mm 0.00 in0.0 mm 0.00 in0.0 mm
06:26 AM 33.6°F0.9°C 30.2°F-1.0°C 87% 16.9 mph SE27.2 kmh SE 23.0 mph37.0 kmh 29.40 in995.6 mb 0.00 in0.0 mm 0.00 in0.0 mm 0.00 in0.0 mm
06:27 AM 33.7°F0.9°C 30.3°F-0.9°C 87% 16.7 mph SE26.9 kmh SE 23.0 mph37.0 kmh 29.39 in995.3 mb 0.00 in0.0 mm 0.00 in0.0 mm 0.00 in0.0 mm
06:28 AM 33.7°F0.9°C 30.3°F-0.9°C 87% 14.8 mph SE23.8 kmh SE 23.0 mph37.0 kmh 29.39 in995.3 mb 0.00 in0.0 mm 0.00 in0.0 mm 0.00 in0.0 mm
06:29 AM 33.7°F0.9°C 30.3°F-0.9°C 87% 18.1 mph SE29.1 kmh SE 27.0 mph43.5 kmh 29.39 in995.3 mb 0.00 in0.0 mm 0.00 in0.0 mm 0.00 in0.0 mm
06:30 AM 33.7°F0.9°C 30.3°F-0.9°C 87% 18.5 mph SE29.8 kmh SE 27.0 mph43.5 kmh 29.39 in995.3 mb 0.00 in0.0 mm 0.00 in0.0 mm 0.00 in0.0 mm
06:31 AM 33.7°F0.9°C 30.3°F-0.9°C 87% 18.6 mph SE29.9 kmh SE 27.0 mph43.5 kmh 29.39 in995.3 mb 0.00 in0.0 mm 0.00 in0.0 mm 0.00 in0.0 mm
06:32 AM 33.7°F0.9°C 30.3°F-0.9°C 87% 17.1 mph SE27.5 kmh SE 27.0 mph43.5 kmh 29.39 in995.3 mb 0.00 in0.0 mm 0.00 in0.0 mm 0.00 in0.0 mm
06:33 AM 33.7°F0.9°C 30.3°F-0.9°C 87% 18.5 mph SE29.8 kmh SE 25.0 mph40.2 kmh 29.39 in995.3 mb 0.00 in0.0 mm 0.00 in0.0 mm 0.00 in0.0 mm
06:34 AM 33.7°F0.9°C 30.3°F-0.9°C 87% 15.5 mph SE24.9 kmh SE 25.0 mph40.2 kmh 29.39 in995.3 mb 0.00 in0.0 mm 0.00 in0.0 mm 0.00 in0.0 mm
06:35 AM 33.7°F0.9°C 30.3°F-0.9°C 87% 15.9 mph SE25.6 kmh SE 23.0 mph37.0 kmh 29.39 in995.3 mb 0.00 in0.0 mm 0.00 in0.0 mm 0.00 in0.0 mm
06:36 AM 33.7°F0.9°C 30.3°F-0.9°C 87% 18.6 mph SE29.9 kmh SE 21.0 mph33.8 kmh 29.39 in995.3 mb 0.00 in0.0 mm 0.00 in0.0 mm 0.00 in0.0 mm
06:37 AM 33.7°F0.9°C 30.3°F-0.9°C 87% 15.5 mph SE24.9 kmh SE 26.0 mph41.8 kmh 29.39 in995.3 mb 0.00 in0.0 mm 0.00 in0.0 mm 0.00 in0.0 mm
06:38 AM 33.7°F0.9°C 30.3°F-0.9°C 87% 14.8 mph SE23.8 kmh SE 26.0 mph41.8 kmh 29.38 in994.9 mb 0.00 in0.0 mm 0.00 in0.0 mm 0.00 in0.0 mm
06:39 AM 33.7°F0.9°C 30.3°F-0.9°C 87% 14.2 mph SE22.9 kmh SE 22.0 mph35.4 kmh 29.38 in994.9 mb 0.00 in0.0 mm 0.00 in0.0 mm 0.00 in0.0 mm
06:40 AM 33.7°F0.9°C 30.3°F-0.9°C 87% 17.3 mph SE27.8 kmh SE 23.0 mph37.0 kmh 29.38 in994.9 mb 0.00 in0.0 mm 0.00 in0.0 mm 0.00 in0.0 mm
06:41 AM 33.7°F0.9°C 30.3°F-0.9°C 87% 18.2 mph SE29.3 kmh SE 26.0 mph41.8 kmh 29.38 in994.9 mb 0.00 in0.0 mm 0.00 in0.0 mm 0.00 in0.0 mm
06:42 AM 33.7°F0.9°C 30.3°F-0.9°C 87% 15.0 mph SE24.1 kmh SE 26.0 mph41.8 kmh 29.38 in994.9 mb 0.00 in0.0 mm 0.00 in0.0 mm 0.00 in0.0 mm
06:43 AM 33.7°F0.9°C 30.3°F-0.9°C 87% 20.0 mph SE32.2 kmh SE 27.0 mph43.5 kmh 29.38 in994.9 mb 0.00 in0.0 mm 0.00 in0.0 mm 0.00 in0.0 mm
06:44 AM 33.7°F0.9°C 30.3°F-0.9°C 87% 14.3 mph SE23.0 kmh SE 27.0 mph43.5 kmh 29.37 in994.6 mb 0.00 in0.0 mm 0.00 in0.0 mm 0.00 in0.0 mm
06:45 AM 33.7°F0.9°C 30.3°F-0.9°C 87% 12.9 mph SE20.8 kmh SE 24.0 mph38.6 kmh 29.37 in994.6 mb 0.00 in0.0 mm 0.00 in0.0 mm 0.00 in0.0 mm
06:46 AM 33.7°F0.9°C 30.3°F-0.9°C 87% 20.9 mph SE33.6 kmh SE 29.0 mph46.7 kmh 29.37 in994.6 mb 0.00 in0.0 mm 0.00 in0.0 mm 0.00 in0.0 mm
06:47 AM 33.7°F0.9°C 30.3°F-0.9°C 87% 19.6 mph SE31.5 kmh SE 29.0 mph46.7 kmh 29.37 in994.6 mb 0.00 in0.0 mm 0.00 in0.0 mm 0.00 in0.0 mm
06:48 AM 33.7°F0.9°C 30.3°F-0.9°C 87% 16.8 mph SE27.0 kmh SE 24.0 mph38.6 kmh 29.37 in994.6 mb 0.00 in0.0 mm 0.00 in0.0 mm 0.00 in0.0 mm
06:49 AM 33.7°F0.9°C 30.3°F-0.9°C 87% 16.5 mph SE26.6 kmh SE 24.0 mph38.6 kmh 29.37 in994.6 mb 0.00 in0.0 mm 0.00 in0.0 mm 0.00 in0.0 mm
06:50 AM 33.7°F0.9°C 30.3°F-0.9°C 87% 16.9 mph SE27.2 kmh SE 24.0 mph38.6 kmh 29.37 in994.6 mb 0.00 in0.0 mm 0.00 in0.0 mm 0.00 in0.0 mm
06:51 AM 33.7°F0.9°C 30.3°F-0.9°C 87% 15.1 mph SE24.3 kmh SE 23.0 mph37.0 kmh 29.37 in994.6 mb 0.00 in0.0 mm 0.00 in0.0 mm 0.00 in0.0 mm
06:52 AM 33.6°F0.9°C 30.2°F-1.0°C 87% 14.2 mph SE22.9 kmh SE 25.0 mph40.2 kmh 29.37 in994.6 mb 0.00 in0.0 mm 0.00 in0.0 mm 0.00 in0.0 mm
06:53 AM 33.7°F0.9°C 30.3°F-0.9°C 87% 17.6 mph SE28.3 kmh SE 27.0 mph43.5 kmh 29.37 in994.6 mb 0.00 in0.0 mm 0.00 in0.0 mm 0.00 in0.0 mm
06:54 AM 33.6°F0.9°C 30.2°F-1.0°C 87% 19.3 mph SE31.1 kmh SE 30.0 mph48.3 kmh 29.37 in994.6 mb 0.00 in0.0 mm 0.00 in0.0 mm 0.00 in0.0 mm
06:55 AM 33.6°F0.9°C 30.2°F-1.0°C 87% 22.1 mph SE35.6 kmh SE 33.0 mph53.1 kmh 29.37 in994.6 mb 0.00 in0.0 mm 0.00 in0.0 mm 0.00 in0.0 mm
06:56 AM 33.7°F0.9°C 30.3°F-0.9°C 87% 16.8 mph SE27.0 kmh SE 33.0 mph53.1 kmh 29.37 in994.6 mb 0.00 in0.0 mm 0.00 in0.0 mm 0.00 in0.0 mm
06:57 AM 33.7°F0.9°C 30.3°F-0.9°C 87% 14.9 mph SE24.0 kmh SE 21.0 mph33.8 kmh 29.37 in994.6 mb 0.00 in0.0 mm 0.00 in0.0 mm 0.00 in0.0 mm
06:58 AM 33.7°F0.9°C 30.3°F-0.9°C 87% 18.0 mph SE29.0 kmh SE 26.0 mph41.8 kmh 29.36 in994.2 mb 0.00 in0.0 mm 0.00 in0.0 mm 0.00 in0.0 mm
06:59 AM 33.7°F0.9°C 30.3°F-0.9°C 87% 17.0 mph SE27.4 kmh SE 26.0 mph41.8 kmh 29.36 in994.2 mb 0.00 in0.0 mm 0.00 in0.0 mm 0.00 in0.0 mm
07:00 AM 33.7°F0.9°C 30.3°F-0.9°C 87% 20.7 mph SE33.3 kmh SE 28.0 mph45.1 kmh 29.36 in994.2 mb 0.00 in0.0 mm 0.00 in0.0 mm 0.00 in0.0 mm
07:01 AM 33.7°F0.9°C 30.3°F-0.9°C 87% 15.4 mph SE24.8 kmh SE 28.0 mph45.1 kmh 29.36 in994.2 mb 0.00 in0.0 mm 0.00 in0.0 mm 0.00 in0.0 mm
07:02 AM 33.7°F0.9°C 30.3°F-0.9°C 87% 18.5 mph SE29.8 kmh SE 27.0 mph43.5 kmh 29.36 in994.2 mb 0.00 in0.0 mm 0.00 in0.0 mm 0.00 in0.0 mm
07:03 AM 33.7°F0.9°C 30.3°F-0.9°C 87% 19.6 mph SE31.5 kmh SE 28.0 mph45.1 kmh 29.36 in994.2 mb 0.00 in0.0 mm 0.00 in0.0 mm 0.00 in0.0 mm
07:04 AM 33.7°F0.9°C 30.3°F-0.9°C 87% 13.3 mph SE21.4 kmh SE 28.0 mph45.1 kmh 29.36 in994.2 mb 0.00 in0.0 mm 0.00 in0.0 mm 0.00 in0.0 mm
07:05 AM 33.7°F0.9°C 30.3°F-0.9°C 87% 16.5 mph SE26.6 kmh SE 26.0 mph41.8 kmh 29.36 in994.2 mb 0.00 in0.0 mm 0.00 in0.0 mm 0.00 in0.0 mm
07:06 AM 33.7°F0.9°C 30.3°F-0.9°C 87% 16.1 mph SE25.9 kmh SE 26.0 mph41.8 kmh 29.36 in994.2 mb 0.00 in0.0 mm 0.00 in0.0 mm 0.00 in0.0 mm
07:07 AM 33.7°F0.9°C 30.3°F-0.9°C 87% 14.6 mph SE23.5 kmh SE 21.0 mph33.8 kmh 29.36 in994.2 mb 0.00 in0.0 mm 0.00 in0.0 mm 0.00 in0.0 mm
07:08 AM 33.7°F0.9°C 30.3°F-0.9°C 87% 15.8 mph SE25.4 kmh SE 21.0 mph33.8 kmh 29.36 in994.2 mb 0.00 in0.0 mm 0.00 in0.0 mm 0.00 in0.0 mm
07:09 AM 33.7°F0.9°C 30.3°F-0.9°C 87% 20.8 mph SE33.5 kmh SE 30.0 mph48.3 kmh 29.36 in994.2 mb 0.00 in0.0 mm 0.00 in0.0 mm 0.00 in0.0 mm
07:10 AM 33.7°F0.9°C 30.3°F-0.9°C 87% 15.7 mph SE25.3 kmh SE 30.0 mph48.3 kmh 29.36 in994.2 mb 0.00 in0.0 mm 0.00 in0.0 mm 0.00 in0.0 mm
07:11 AM 33.7°F0.9°C 30.3°F-0.9°C 87% 18.1 mph SE29.1 kmh SE 27.0 mph43.5 kmh 29.36 in994.2 mb 0.00 in0.0 mm 0.00 in0.0 mm 0.00 in0.0 mm
07:12 AM 33.8°F1.0°C 30.3°F-0.9°C 87% 15.3 mph SE24.6 kmh SE 27.0 mph43.5 kmh 29.36 in994.2 mb 0.00 in0.0 mm 0.00 in0.0 mm 0.00 in0.0 mm
07:13 AM 33.7°F0.9°C 30.3°F-0.9°C 87% 13.6 mph SE21.9 kmh SE 20.0 mph32.2 kmh 29.35 in993.9 mb 0.00 in0.0 mm 0.00 in0.0 mm 0.00 in0.0 mm
07:14 AM 33.7°F0.9°C 30.3°F-0.9°C 87% 16.7 mph SE26.9 kmh SE 25.0 mph40.2 kmh 29.36 in994.2 mb 0.00 in0.0 mm 0.00 in0.0 mm 0.00 in0.0 mm
07:15 AM 33.8°F1.0°C 30.3°F-0.9°C 87% 19.6 mph SE31.5 kmh SE 25.0 mph40.2 kmh 29.36 in994.2 mb 0.00 in0.0 mm 0.00 in0.0 mm 0.00 in0.0 mm
07:16 AM 33.8°F1.0°C 30.3°F-0.9°C 87% 16.5 mph SE26.6 kmh SE 25.0 mph40.2 kmh 29.35 in993.9 mb 0.00 in0.0 mm 0.00 in0.0 mm 0.00 in0.0 mm
07:17 AM 33.7°F0.9°C 30.3°F-0.9°C 87% 19.8 mph SE31.9 kmh SE 28.0 mph45.1 kmh 29.35 in993.9 mb 0.00 in0.0 mm 0.00 in0.0 mm 0.00 in0.0 mm
07:18 AM 33.8°F1.0°C 30.3°F-0.9°C 87% 14.6 mph SE23.5 kmh SE 28.0 mph45.1 kmh 29.35 in993.9 mb 0.00 in0.0 mm 0.00 in0.0 mm 0.00 in0.0 mm
07:19 AM 33.8°F1.0°C 30.3°F-0.9°C 87% 16.2 mph SE26.1 kmh SE 25.0 mph40.2 kmh 29.35 in993.9 mb 0.00 in0.0 mm 0.00 in0.0 mm 0.00 in0.0 mm
07:20 AM 33.8°F1.0°C 30.3°F-0.9°C 87% 14.7 mph SE23.7 kmh SE 22.0 mph35.4 kmh 29.35 in993.9 mb 0.00 in0.0 mm 0.00 in0.0 mm 0.00 in0.0 mm
07:21 AM 33.8°F1.0°C 30.3°F-0.9°C 87% 16.1 mph SE25.9 kmh SE 22.0 mph35.4 kmh 29.35 in993.9 mb 0.00 in0.0 mm 0.00 in0.0 mm 0.00 in0.0 mm
07:22 AM 33.8°F1.0°C 30.3°F-0.9°C 87% 15.2 mph SE24.5 kmh SE 22.0 mph35.4 kmh 29.35 in993.9 mb 0.00 in0.0 mm 0.00 in0.0 mm 0.00 in0.0 mm
07:23 AM 33.8°F1.0°C 30.3°F-0.9°C 87% 16.2 mph SE26.1 kmh SE 23.0 mph37.0 kmh 29.35 in993.9 mb 0.00 in0.0 mm 0.00 in0.0 mm 0.00 in0.0 mm
07:24 AM 33.8°F1.0°C 30.3°F-0.9°C 87% 16.6 mph SE26.7 kmh SE 23.0 mph37.0 kmh 29.35 in993.9 mb 0.00 in0.0 mm 0.00 in0.0 mm 0.00 in0.0 mm
07:25 AM 33.8°F1.0°C 30.3°F-0.9°C 87% 17.3 mph SE27.8 kmh SE 26.0 mph41.8 kmh 29.35 in993.9 mb 0.00 in0.0 mm 0.00 in0.0 mm 0.00 in0.0 mm
07:26 AM 33.8°F1.0°C 30.3°F-0.9°C 87% 15.0 mph SE24.1 kmh SE 26.0 mph41.8 kmh 29.35 in993.9 mb 0.00 in0.0 mm 0.00 in0.0 mm 0.00 in0.0 mm
07:27 AM 33.9°F1.1°C 30.4°F-0.9°C 87% 15.2 mph SE24.5 kmh SE 21.0 mph33.8 kmh 29.35 in993.9 mb 0.00 in0.0 mm 0.00 in0.0 mm 0.00 in0.0 mm
07:28 AM 33.9°F1.1°C 30.4°F-0.9°C 87% 16.1 mph SE25.9 kmh SE 21.0 mph33.8 kmh 29.35 in993.9 mb 0.00 in0.0 mm 0.00 in0.0 mm 0.00 in0.0 mm
07:29 AM 33.9°F1.1°C 30.4°F-0.9°C 87% 15.8 mph SE25.4 kmh SE 21.0 mph33.8 kmh 29.35 in993.9 mb 0.00 in0.0 mm 0.00 in0.0 mm 0.00 in0.0 mm
07:30 AM 33.9°F1.1°C 30.4°F-0.9°C 87% 18.8 mph SE30.3 kmh SE 25.0 mph40.2 kmh 29.35 in993.9 mb 0.00 in0.0 mm 0.00 in0.0 mm 0.00 in0.0 mm
07:31 AM 33.9°F1.1°C 30.4°F-0.9°C 87% 19.5 mph SE31.4 kmh SE 26.0 mph41.8 kmh 29.35 in993.9 mb 0.00 in0.0 mm 0.00 in0.0 mm 0.00 in0.0 mm
07:32 AM 33.9°F1.1°C 30.4°F-0.9°C 87% 15.5 mph SE24.9 kmh SE 26.0 mph41.8 kmh 29.35 in993.9 mb 0.00 in0.0 mm 0.00 in0.0 mm 0.00 in0.0 mm
07:33 AM 33.9°F1.1°C 30.4°F-0.9°C 87% 15.1 mph SE24.3 kmh SE 22.0 mph35.4 kmh 29.35 in993.9 mb 0.00 in0.0 mm 0.00 in0.0 mm 0.00 in0.0 mm
07:34 AM 33.9°F1.1°C 30.4°F-0.9°C 87% 17.3 mph SE27.8 kmh SE 22.0 mph35.4 kmh 29.35 in993.9 mb 0.00 in0.0 mm 0.00 in0.0 mm 0.00 in0.0 mm
07:35 AM 33.9°F1.1°C 30.4°F-0.9°C 87% 14.1 mph SE22.7 kmh SE 22.0 mph35.4 kmh 29.35 in993.9 mb 0.00 in0.0 mm 0.00 in0.0 mm 0.00 in0.0 mm
07:36 AM 33.9°F1.1°C 30.4°F-0.9°C 87% 12.3 mph SE19.8 kmh SE 20.0 mph32.2 kmh 29.35 in993.9 mb 0.00 in0.0 mm 0.00 in0.0 mm 0.00 in0.0 mm
07:37 AM 33.9°F1.1°C 30.4°F-0.9°C 87% 13.3 mph SE21.4 kmh SE 21.0 mph33.8 kmh 29.35 in993.9 mb 0.00 in0.0 mm 0.00 in0.0 mm 0.00 in0.0 mm
07:38 AM 33.9°F1.1°C 30.4°F-0.9°C 87% 15.1 mph SE24.3 kmh SE 21.0 mph33.8 kmh 29.35 in993.9 mb 0.00 in0.0 mm 0.00 in0.0 mm 0.00 in0.0 mm
07:39 AM 33.9°F1.1°C 30.4°F-0.9°C 87% 15.8 mph SE25.4 kmh SE 23.0 mph37.0 kmh 29.34 in993.6 mb 0.00 in0.0 mm 0.00 in0.0 mm 0.00 in0.0 mm
07:40 AM 33.9°F1.1°C 30.4°F-0.9°C 87% 13.3 mph SE21.4 kmh SE 23.0 mph37.0 kmh 29.34 in993.6 mb 0.00 in0.0 mm 0.00 in0.0 mm 0.00 in0.0 mm
07:41 AM 33.9°F1.1°C 30.4°F-0.9°C 87% 15.2 mph SE24.5 kmh SE 19.0 mph30.6 kmh 29.34 in993.6 mb 0.00 in0.0 mm 0.00 in0.0 mm 0.00 in0.0 mm
07:42 AM 33.9°F1.1°C 30.4°F-0.9°C 87% 17.6 mph SE28.3 kmh SE 27.0 mph43.5 kmh 29.34 in993.6 mb 0.00 in0.0 mm 0.00 in0.0 mm 0.00 in0.0 mm
07:43 AM 33.9°F1.1°C 30.4°F-0.9°C 87% 15.5 mph SE24.9 kmh SE 27.0 mph43.5 kmh 29.34 in993.6 mb 0.00 in0.0 mm 0.00 in0.0 mm 0.00 in0.0 mm
07:44 AM 33.9°F1.1°C 30.2°F-1.0°C 86% 17.8 mph SE28.6 kmh SE 24.0 mph38.6 kmh 29.34 in993.6 mb 0.00 in0.0 mm 0.00 in0.0 mm 0.00 in0.0 mm
07:45 AM 34.0°F1.1°C 30.5°F-0.8°C 87% 14.7 mph SE23.7 kmh SE 24.0 mph38.6 kmh 29.34 in993.6 mb 0.00 in0.0 mm 0.00 in0.0 mm 0.00 in0.0 mm
07:46 AM 34.0°F1.1°C 30.5°F-0.8°C 87% 16.8 mph SE27.0 kmh SE 27.0 mph43.5 kmh 29.34 in993.6 mb 0.00 in0.0 mm 0.00 in0.0 mm 0.00 in0.0 mm
07:47 AM 34.0°F1.1°C 30.3°F-0.9°C 86% 16.4 mph SE26.4 kmh SE 27.0 mph43.5 kmh 29.34 in993.6 mb 0.00 in0.0 mm 0.00 in0.0 mm 0.00 in0.0 mm
07:48 AM 34.0°F1.1°C 30.3°F-0.9°C 86% 15.6 mph SE25.1 kmh SE 26.0 mph41.8 kmh 29.34 in993.6 mb 0.00 in0.0 mm 0.00 in0.0 mm 0.00 in0.0 mm
07:49 AM 34.0°F1.1°C 30.3°F-0.9°C 86% 17.0 mph SE27.4 kmh SE 23.0 mph37.0 kmh 29.34 in993.6 mb 0.00 in0.0 mm 0.00 in0.0 mm 0.00 in0.0 mm
07:50 AM 34.0°F1.1°C 30.3°F-0.9°C 86% 14.7 mph SE23.7 kmh SE 23.0 mph37.0 kmh 29.34 in993.6 mb 0.00 in0.0 mm 0.00 in0.0 mm 0.00 in0.0 mm
07:51 AM 34.0°F1.1°C 30.3°F-0.9°C 86% 17.4 mph SE28.0 kmh SE 25.0 mph40.2 kmh 29.34 in993.6 mb 0.00 in0.0 mm 0.00 in0.0 mm 0.00 in0.0 mm
07:52 AM 34.0°F1.1°C 30.3°F-0.9°C 86% 18.3 mph SE29.5 kmh SE 25.0 mph40.2 kmh 29.34 in993.6 mb 0.00 in0.0 mm 0.00 in0.0 mm 0.00 in0.0 mm
07:53 AM 34.1°F1.2°C 30.4°F-0.9°C 86% 19.4 mph SE31.2 kmh SE 27.0 mph43.5 kmh 29.33 in993.2 mb 0.00 in0.0 mm 0.00 in0.0 mm 0.00 in0.0 mm
07:54 AM 34.1°F1.2°C 30.4°F-0.9°C 86% 18.8 mph SE30.3 kmh SE 27.0 mph43.5 kmh 29.34 in993.6 mb 0.00 in0.0 mm 0.00 in0.0 mm 0.00 in0.0 mm
07:55 AM 34.1°F1.2°C 30.4°F-0.9°C 86% 15.4 mph SE24.8 kmh SE 23.0 mph37.0 kmh 29.33 in993.2 mb 0.00 in0.0 mm 0.00 in0.0 mm 0.00 in0.0 mm
07:56 AM 34.1°F1.2°C 30.4°F-0.9°C 86% 15.8 mph SE25.4 kmh SE 23.0 mph37.0 kmh 29.33 in993.2 mb 0.00 in0.0 mm 0.00 in0.0 mm 0.00 in0.0 mm
07:57 AM 34.1°F1.2°C 30.4°F-0.9°C 86% 14.6 mph SE23.5 kmh SE 22.0 mph35.4 kmh 29.33 in993.2 mb 0.00 in0.0 mm 0.00 in0.0 mm 0.00 in0.0 mm
07:58 AM 34.1°F1.2°C 30.4°F-0.9°C 86% 18.4 mph SE29.6 kmh SE 24.0 mph38.6 kmh 29.33 in993.2 mb 0.00 in0.0 mm 0.00 in0.0 mm 0.00 in0.0 mm
07:59 AM 34.2°F1.2°C 30.5°F-0.8°C 86% 21.6 mph SE34.8 kmh SE 29.0 mph46.7 kmh 29.33 in993.2 mb 0.01 in0.3 mm 0.60 in15.2 mm 0.01 in0.3 mm
08:00 AM 34.2°F1.2°C 30.5°F-0.8°C 86% 15.5 mph SE24.9 kmh SE 29.0 mph46.7 kmh 29.33 in993.2 mb 0.01 in0.3 mm 0.00 in0.0 mm 0.01 in0.3 mm
08:01 AM 34.1°F1.2°C 30.4°F-0.9°C 86% 16.4 mph SE26.4 kmh SE 28.0 mph45.1 kmh 29.33 in993.2 mb 0.01 in0.3 mm 0.00 in0.0 mm 0.01 in0.3 mm
08:02 AM 34.2°F1.2°C 30.5°F-0.8°C 86% 15.2 mph SE24.5 kmh SE 28.0 mph45.1 kmh 29.33 in993.2 mb 0.01 in0.3 mm 0.00 in0.0 mm 0.01 in0.3 mm
08:03 AM 34.2°F1.2°C 30.5°F-0.8°C 86% 15.9 mph SE25.6 kmh SE 22.0 mph35.4 kmh 29.33 in993.2 mb 0.01 in0.3 mm 0.00 in0.0 mm 0.01 in0.3 mm
08:04 AM 34.2°F1.2°C 30.5°F-0.8°C 86% 15.2 mph SE24.5 kmh SE 23.0 mph37.0 kmh 29.33 in993.2 mb 0.01 in0.3 mm 0.00 in0.0 mm 0.01 in0.3 mm
08:05 AM 34.2°F1.2°C 30.5°F-0.8°C 86% 18.1 mph SE29.1 kmh SE 26.0 mph41.8 kmh 29.33 in993.2 mb 0.01 in0.3 mm 0.00 in0.0 mm 0.01 in0.3 mm
08:06 AM 34.2°F1.2°C 30.5°F-0.8°C 86% 17.5 mph SE28.2 kmh SE 26.0 mph41.8 kmh 29.33 in993.2 mb 0.01 in0.3 mm 0.00 in0.0 mm 0.01 in0.3 mm
08:07 AM 34.2°F1.2°C 30.5°F-0.8°C 86% 20.7 mph SE33.3 kmh SE 26.0 mph41.8 kmh 29.33 in993.2 mb 0.01 in0.3 mm 0.00 in0.0 mm 0.01 in0.3 mm
08:08 AM 34.2°F1.2°C 30.5°F-0.8°C 86% 16.9 mph SE27.2 kmh SE 26.0 mph41.8 kmh 29.33 in993.2 mb 0.01 in0.3 mm 0.00 in0.0 mm 0.01 in0.3 mm
08:09 AM 34.2°F1.2°C 30.5°F-0.8°C 86% 17.7 mph SE28.5 kmh SE 23.0 mph37.0 kmh 29.33 in993.2 mb 0.01 in0.3 mm 0.00 in0.0 mm 0.01 in0.3 mm
08:10 AM 34.2°F1.2°C 30.5°F-0.8°C 86% 17.7 mph SE28.5 kmh SE 26.0 mph41.8 kmh 29.33 in993.2 mb 0.01 in0.3 mm 0.00 in0.0 mm 0.01 in0.3 mm
08:11 AM 34.3°F1.3°C 30.6°F-0.8°C 86% 15.4 mph SE24.8 kmh SE 26.0 mph41.8 kmh 29.33 in993.2 mb 0.01 in0.3 mm 0.00 in0.0 mm 0.01 in0.3 mm
08:12 AM 34.2°F1.2°C 30.5°F-0.8°C 86% 15.2 mph SE24.5 kmh SE 22.0 mph35.4 kmh 29.33 in993.2 mb 0.01 in0.3 mm 0.00 in0.0 mm 0.01 in0.3 mm
08:13 AM 34.3°F1.3°C 30.6°F-0.8°C 86% 16.7 mph SE26.9 kmh SE 23.0 mph37.0 kmh 29.33 in993.2 mb 0.01 in0.3 mm 0.00 in0.0 mm 0.01 in0.3 mm
08:14 AM 34.2°F1.2°C 30.5°F-0.8°C 86% 17.9 mph SE28.8 kmh SE 28.0 mph45.1 kmh 29.33 in993.2 mb 0.01 in0.3 mm 0.00 in0.0 mm 0.01 in0.3 mm
08:15 AM 34.3°F1.3°C 30.6°F-0.8°C 86% 13.7 mph SE22.0 kmh SE 28.0 mph45.1 kmh 29.32 in992.9 mb 0.01 in0.3 mm 0.00 in0.0 mm 0.01 in0.3 mm
08:16 AM 34.2°F1.2°C 30.5°F-0.8°C 86% 17.5 mph SE28.2 kmh SE 25.0 mph40.2 kmh 29.33 in993.2 mb 0.01 in0.3 mm 0.00 in0.0 mm 0.01 in0.3 mm
08:17 AM 34.2°F1.2°C 30.5°F-0.8°C 86% 14.5 mph SE23.3 kmh SE 25.0 mph40.2 kmh 29.33 in993.2 mb 0.01 in0.3 mm 0.00 in0.0 mm 0.01 in0.3 mm
08:18 AM 34.2°F1.2°C 30.5°F-0.8°C 86% 19.5 mph SE31.4 kmh SE 28.0 mph45.1 kmh 29.32 in992.9 mb 0.01 in0.3 mm 0.00 in0.0 mm 0.01 in0.3 mm
08:19 AM 34.3°F1.3°C 30.6°F-0.8°C 86% 17.8 mph SE28.6 kmh SE 28.0 mph45.1 kmh 29.32 in992.9 mb 0.01 in0.3 mm 0.00 in0.0 mm 0.01 in0.3 mm
08:20 AM 34.3°F1.3°C 30.3°F-0.9°C 85% 12.5 mph SE20.1 kmh SE 25.0 mph40.2 kmh 29.32 in992.9 mb 0.01 in0.3 mm 0.00 in0.0 mm 0.01 in0.3 mm
08:21 AM 34.3°F1.3°C 30.3°F-0.9°C 85% 19.3 mph SE31.1 kmh SE 25.0 mph40.2 kmh 29.32 in992.9 mb 0.01 in0.3 mm 0.00 in0.0 mm 0.01 in0.3 mm
08:22 AM 34.3°F1.3°C 30.3°F-0.9°C 85% 16.5 mph SE26.6 kmh SE 25.0 mph40.2 kmh 29.32 in992.9 mb 0.01 in0.3 mm 0.00 in0.0 mm 0.01 in0.3 mm
08:23 AM 34.3°F1.3°C 30.3°F-0.9°C 85% 14.7 mph SE23.7 kmh SE 23.0 mph37.0 kmh 29.32 in992.9 mb 0.01 in0.3 mm 0.00 in0.0 mm 0.01 in0.3 mm
08:24 AM 34.3°F1.3°C 30.3°F-0.9°C 85% 14.3 mph SE23.0 kmh SE 23.0 mph37.0 kmh 29.32 in992.9 mb 0.01 in0.3 mm 0.00 in0.0 mm 0.01 in0.3 mm
08:25 AM 34.3°F1.3°C 30.3°F-0.9°C 85% 18.1 mph SE29.1 kmh SE 27.0 mph43.5 kmh 29.32 in992.9 mb 0.01 in0.3 mm 0.00 in0.0 mm 0.01 in0.3 mm
08:26 AM 34.3°F1.3°C 30.3°F-0.9°C 85% 15.8 mph SE25.4 kmh SE 27.0 mph43.5 kmh 29.32 in992.9 mb 0.01 in0.3 mm 0.00 in0.0 mm 0.01 in0.3 mm
08:27 AM 34.3°F1.3°C 30.3°F-0.9°C 85% 16.2 mph SE26.1 kmh SE 22.0 mph35.4 kmh 29.32 in992.9 mb 0.01 in0.3 mm 0.00 in0.0 mm 0.01 in0.3 mm
08:28 AM 34.3°F1.3°C 30.3°F-0.9°C 85% 14.3 mph SE23.0 kmh SE 22.0 mph35.4 kmh 29.32 in992.9 mb 0.01 in0.3 mm 0.00 in0.0 mm 0.01 in0.3 mm
08:29 AM 34.3°F1.3°C 30.3°F-0.9°C 85% 14.6 mph SE23.5 kmh SE 20.0 mph32.2 kmh 29.32 in992.9 mb 0.01 in0.3 mm 0.00 in0.0 mm 0.01 in0.3 mm
08:30 AM 34.3°F1.3°C 30.3°F-0.9°C 85% 18.9 mph SE30.4 kmh SE 29.0 mph46.7 kmh 29.32 in992.9 mb 0.01 in0.3 mm 0.00 in0.0 mm 0.01 in0.3 mm
08:31 AM 34.3°F1.3°C 30.3°F-0.9°C 85% 12.9 mph SE20.8 kmh SE 29.0 mph46.7 kmh 29.32 in992.9 mb 0.01 in0.3 mm 0.00 in0.0 mm 0.01 in0.3 mm
08:32 AM 34.3°F1.3°C 30.3°F-0.9°C 85% 18.1 mph SE29.1 kmh SE 29.0 mph46.7 kmh 29.32 in992.9 mb 0.01 in0.3 mm 0.00 in0.0 mm 0.01 in0.3 mm
08:33 AM 34.3°F1.3°C 30.3°F-0.9°C 85% 14.0 mph SE22.5 kmh SE 29.0 mph46.7 kmh 29.32 in992.9 mb 0.01 in0.3 mm 0.00 in0.0 mm 0.01 in0.3 mm
08:34 AM 34.3°F1.3°C 30.3°F-0.9°C 85% 14.4 mph SE23.2 kmh SE 21.0 mph33.8 kmh 29.32 in992.9 mb 0.01 in0.3 mm 0.00 in0.0 mm 0.01 in0.3 mm
08:35 AM 34.3°F1.3°C 30.3°F-0.9°C 85% 17.4 mph SE28.0 kmh SE 24.0 mph38.6 kmh 29.32 in992.9 mb 0.01 in0.3 mm 0.00 in0.0 mm 0.01 in0.3 mm
08:36 AM 34.3°F1.3°C 30.3°F-0.9°C 85% 19.5 mph SE31.4 kmh SE 24.0 mph38.6 kmh 29.32 in992.9 mb 0.01 in0.3 mm 0.00 in0.0 mm 0.01 in0.3 mm
08:37 AM 34.3°F1.3°C 30.3°F-0.9°C 85% 18.6 mph SE29.9 kmh SE 26.0 mph41.8 kmh 29.32 in992.9 mb 0.01 in0.3 mm 0.00 in0.0 mm 0.01 in0.3 mm
08:38 AM 34.3°F1.3°C 30.3°F-0.9°C 85% 16.0 mph SE25.7 kmh SE 26.0 mph41.8 kmh 29.32 in992.9 mb 0.01 in0.3 mm 0.00 in0.0 mm 0.01 in0.3 mm
08:39 AM 34.3°F1.3°C 30.3°F-0.9°C 85% 16.7 mph SE26.9 kmh SE 22.0 mph35.4 kmh 29.32 in992.9 mb 0.01 in0.3 mm 0.00 in0.0 mm 0.01 in0.3 mm
08:40 AM 34.3°F1.3°C 30.3°F-0.9°C 85% 18.8 mph SE30.3 kmh SE 26.0 mph41.8 kmh 29.32 in992.9 mb 0.01 in0.3 mm 0.00 in0.0 mm 0.01 in0.3 mm
08:41 AM 34.3°F1.3°C 30.3°F-0.9°C 85% 15.2 mph SE24.5 kmh SE 26.0 mph41.8 kmh 29.32 in992.9 mb 0.01 in0.3 mm 0.00 in0.0 mm 0.01 in0.3 mm
08:42 AM 34.3°F1.3°C 30.3°F-0.9°C 85% 16.0 mph SE25.7 kmh SE 22.0 mph35.4 kmh 29.32 in992.9 mb 0.01 in0.3 mm 0.00 in0.0 mm 0.01 in0.3 mm
08:43 AM 34.3°F1.3°C 30.3°F-0.9°C 85% 15.4 mph SE24.8 kmh SE 25.0 mph40.2 kmh 29.32 in992.9 mb 0.01 in0.3 mm 0.00 in0.0 mm 0.01 in0.3 mm
08:44 AM 34.2°F1.2°C 30.2°F-1.0°C 85% 16.5 mph SE26.6 kmh SE 27.0 mph43.5 kmh 29.32 in992.9 mb 0.01 in0.3 mm 0.00 in0.0 mm 0.01 in0.3 mm
08:45 AM 34.3°F1.3°C 30.3°F-0.9°C 85% 14.8 mph SE23.8 kmh SE 25.0 mph40.2 kmh 29.32 in992.9 mb 0.01 in0.3 mm 0.00 in0.0 mm 0.01 in0.3 mm
08:46 AM 34.2°F1.2°C 30.2°F-1.0°C 85% 14.9 mph SE24.0 kmh SE 20.0 mph32.2 kmh 29.32 in992.9 mb 0.01 in0.3 mm 0.00 in0.0 mm 0.01 in0.3 mm
08:47 AM 34.2°F1.2°C 30.2°F-1.0°C 85% 16.4 mph SE26.4 kmh SE 21.0 mph33.8 kmh 29.31 in992.6 mb 0.01 in0.3 mm 0.00 in0.0 mm 0.01 in0.3 mm
08:48 AM 34.2°F1.2°C 30.5°F-0.8°C 86% 15.3 mph SE24.6 kmh SE 24.0 mph38.6 kmh 29.31 in992.6 mb 0.01 in0.3 mm 0.00 in0.0 mm 0.01 in0.3 mm
08:49 AM 34.2°F1.2°C 30.5°F-0.8°C 86% 17.1 mph SE27.5 kmh SE 24.0 mph38.6 kmh 29.31 in992.6 mb 0.01 in0.3 mm 0.00 in0.0 mm 0.01 in0.3 mm
08:50 AM 34.2°F1.2°C 30.5°F-0.8°C 86% 16.1 mph SE25.9 kmh SE 21.0 mph33.8 kmh 29.31 in992.6 mb 0.01 in0.3 mm 0.00 in0.0 mm 0.01 in0.3 mm
08:51 AM 34.1°F1.2°C 30.4°F-0.9°C 86% 12.5 mph SE20.1 kmh SE 21.0 mph33.8 kmh 29.31 in992.6 mb 0.01 in0.3 mm 0.00 in0.0 mm 0.01 in0.3 mm
08:52 AM 34.1°F1.2°C 30.4°F-0.9°C 86% 16.3 mph SE26.2 kmh SE 23.0 mph37.0 kmh 29.31 in992.6 mb 0.01 in0.3 mm 0.00 in0.0 mm 0.01 in0.3 mm
08:53 AM 34.0°F1.1°C 30.3°F-0.9°C 86% 18.6 mph SE29.9 kmh SE 27.0 mph43.5 kmh 29.31 in992.6 mb 0.01 in0.3 mm 0.00 in0.0 mm 0.01 in0.3 mm
08:54 AM 34.0°F1.1°C 30.3°F-0.9°C 86% 16.0 mph SE25.7 kmh SE 27.0 mph43.5 kmh 29.31 in992.6 mb 0.01 in0.3 mm 0.00 in0.0 mm 0.01 in0.3 mm
08:55 AM 33.9°F1.1°C 30.2°F-1.0°C 86% 17.0 mph SE27.4 kmh SE 25.0 mph40.2 kmh 29.31 in992.6 mb 0.01 in0.3 mm 0.00 in0.0 mm 0.01 in0.3 mm
08:56 AM 33.9°F1.1°C 30.2°F-1.0°C 86% 15.1 mph SE24.3 kmh SE 25.0 mph40.2 kmh 29.31 in992.6 mb 0.01 in0.3 mm 0.00 in0.0 mm 0.01 in0.3 mm
08:57 AM 33.8°F1.0°C 30.3°F-0.9°C 87% 16.1 mph SE25.9 kmh SE 24.0 mph38.6 kmh 29.31 in992.6 mb 0.01 in0.3 mm 0.00 in0.0 mm 0.01 in0.3 mm
08:58 AM 33.8°F1.0°C 30.3°F-0.9°C 87% 18.4 mph SE29.6 kmh SE 25.0 mph40.2 kmh 29.31 in992.6 mb 0.01 in0.3 mm 0.00 in0.0 mm 0.01 in0.3 mm
08:59 AM 33.7°F0.9°C 30.5°F-0.8°C 88% 18.6 mph SE29.9 kmh SE 27.0 mph43.5 kmh 29.30 in992.2 mb 0.00 in0.0 mm 0.00 in0.0 mm 0.01 in0.3 mm
09:00 AM 33.6°F0.9°C 30.2°F-1.0°C 87% 18.9 mph ESE30.4 kmh ESE 27.0 mph43.5 kmh 29.31 in992.6 mb 0.00 in0.0 mm 0.00 in0.0 mm 0.01 in0.3 mm
09:01 AM 33.7°F0.9°C 30.5°F-0.8°C 88% 19.1 mph SE30.7 kmh SE 25.0 mph40.2 kmh 29.30 in992.2 mb 0.00 in0.0 mm 0.00 in0.0 mm 0.01 in0.3 mm
09:02 AM 33.6°F0.9°C 30.4°F-0.9°C 88% 11.7 mph ESE18.8 kmh ESE 25.0 mph40.2 kmh 29.30 in992.2 mb 0.00 in0.0 mm 0.00 in0.0 mm 0.01 in0.3 mm
09:03 AM 33.6°F0.9°C 30.4°F-0.9°C 88% 13.9 mph SE22.4 kmh SE 19.0 mph30.6 kmh 29.30 in992.2 mb 0.00 in0.0 mm 0.00 in0.0 mm 0.01 in0.3 mm
09:04 AM 33.6°F0.9°C 30.4°F-0.9°C 88% 15.0 mph SE24.1 kmh SE 21.0 mph33.8 kmh 29.30 in992.2 mb 0.00 in0.0 mm 0.00 in0.0 mm 0.01 in0.3 mm
09:05 AM 33.6°F0.9°C 30.4°F-0.9°C 88% 19.7 mph SE31.7 kmh SE 27.0 mph43.5 kmh 29.30 in992.2 mb 0.00 in0.0 mm 0.00 in0.0 mm 0.01 in0.3 mm
09:06 AM 33.6°F0.9°C 30.4°F-0.9°C 88% 17.5 mph SE28.2 kmh SE 27.0 mph43.5 kmh 29.30 in992.2 mb 0.00 in0.0 mm 0.00 in0.0 mm 0.01 in0.3 mm
09:07 AM 33.6°F0.9°C 30.4°F-0.9°C 88% 16.4 mph SE26.4 kmh SE 25.0 mph40.2 kmh 29.30 in992.2 mb 0.00 in0.0 mm 0.00 in0.0 mm 0.01 in0.3 mm
09:08 AM 33.6°F0.9°C 30.4°F-0.9°C 88% 18.5 mph SE29.8 kmh SE 25.0 mph40.2 kmh 29.30 in992.2 mb 0.00 in0.0 mm 0.00 in0.0 mm 0.01 in0.3 mm
09:09 AM 33.7°F0.9°C 30.5°F-0.8°C 88% 19.5 mph SE31.4 kmh SE 29.0 mph46.7 kmh 29.30 in992.2 mb 0.00 in0.0 mm 0.00 in0.0 mm 0.01 in0.3 mm
09:10 AM 33.7°F0.9°C 30.5°F-0.8°C 88% 16.3 mph SE26.2 kmh SE 29.0 mph46.7 kmh 29.30 in992.2 mb 0.00 in0.0 mm 0.00 in0.0 mm 0.01 in0.3 mm
09:11 AM 33.7°F0.9°C 30.5°F-0.8°C 88% 17.4 mph SE28.0 kmh SE 24.0 mph38.6 kmh 29.30 in992.2 mb 0.00 in0.0 mm 0.00 in0.0 mm 0.01 in0.3 mm
09:12 AM 33.7°F0.9°C 30.5°F-0.8°C 88% 11.5 mph SE18.5 kmh SE 24.0 mph38.6 kmh 29.30 in992.2 mb 0.00 in0.0 mm 0.00 in0.0 mm 0.01 in0.3 mm
09:13 AM 33.7°F0.9°C 30.5°F-0.8°C 88% 15.4 mph SE24.8 kmh SE 23.0 mph37.0 kmh 29.30 in992.2 mb 0.00 in0.0 mm 0.00 in0.0 mm 0.01 in0.3 mm
09:14 AM 33.6°F0.9°C 30.4°F-0.9°C 88% 16.3 mph SE26.2 kmh SE 23.0 mph37.0 kmh 29.30 in992.2 mb 0.00 in0.0 mm 0.00 in0.0 mm 0.01 in0.3 mm
09:15 AM 33.7°F0.9°C 30.5°F-0.8°C 88% 12.8 mph SE20.6 kmh SE 19.0 mph30.6 kmh 29.30 in992.2 mb 0.00 in0.0 mm 0.00 in0.0 mm 0.01 in0.3 mm
09:16 AM 33.6°F0.9°C 30.4°F-0.9°C 88% 13.9 mph SE22.4 kmh SE 21.0 mph33.8 kmh 29.30 in992.2 mb 0.00 in0.0 mm 0.00 in0.0 mm 0.01 in0.3 mm
09:17 AM 33.6°F0.9°C 30.4°F-0.9°C 88% 15.6 mph SE25.1 kmh SE 22.0 mph35.4 kmh 29.30 in992.2 mb 0.00 in0.0 mm 0.00 in0.0 mm 0.01 in0.3 mm
09:18 AM 33.6°F0.9°C 30.4°F-0.9°C 88% 14.7 mph SE23.7 kmh SE 22.0 mph35.4 kmh 29.30 in992.2 mb 0.00 in0.0 mm 0.00 in0.0 mm 0.01 in0.3 mm
09:19 AM 33.6°F0.9°C 30.4°F-0.9°C 88% 17.1 mph SE27.5 kmh SE 27.0 mph43.5 kmh 29.30 in992.2 mb 0.00 in0.0 mm 0.00 in0.0 mm 0.01 in0.3 mm
09:20 AM 33.6°F0.9°C 30.4°F-0.9°C 88% 16.7 mph SE26.9 kmh SE 27.0 mph43.5 kmh 29.30 in992.2 mb 0.00 in0.0 mm 0.00 in0.0 mm 0.01 in0.3 mm
09:21 AM 33.5°F0.8°C 30.6°F-0.8°C 89% 15.0 mph SE24.1 kmh SE 21.0 mph33.8 kmh 29.30 in992.2 mb 0.00 in0.0 mm 0.00 in0.0 mm 0.01 in0.3 mm
09:22 AM 33.5°F0.8°C 30.6°F-0.8°C 89% 13.5 mph SE21.7 kmh SE 21.0 mph33.8 kmh 29.30 in992.2 mb 0.00 in0.0 mm 0.00 in0.0 mm 0.01 in0.3 mm
09:23 AM 33.4°F0.8°C 30.5°F-0.8°C 89% 11.1 mph SE17.9 kmh SE 21.0 mph33.8 kmh 29.29 in991.9 mb 0.00 in0.0 mm 0.00 in0.0 mm 0.01 in0.3 mm
09:24 AM 33.4°F0.8°C 30.5°F-0.8°C 89% 10.5 mph SE16.9 kmh SE 17.0 mph27.4 kmh 29.30 in992.2 mb 0.00 in0.0 mm 0.00 in0.0 mm 0.01 in0.3 mm
09:25 AM 33.4°F0.8°C 30.5°F-0.8°C 89% 14.3 mph SE23.0 kmh SE 19.0 mph30.6 kmh 29.29 in991.9 mb 0.00 in0.0 mm 0.00 in0.0 mm 0.01 in0.3 mm
09:26 AM 33.4°F0.8°C 30.5°F-0.8°C 89% 17.6 mph SE28.3 kmh SE 23.0 mph37.0 kmh 29.29 in991.9 mb 0.00 in0.0 mm 0.00 in0.0 mm 0.01 in0.3 mm
09:27 AM 33.4°F0.8°C 30.5°F-0.8°C 89% 17.7 mph SE28.5 kmh SE 23.0 mph37.0 kmh 29.29 in991.9 mb 0.00 in0.0 mm 0.00 in0.0 mm 0.01 in0.3 mm
09:28 AM 33.4°F0.8°C 30.5°F-0.8°C 89% 13.4 mph SE21.6 kmh SE 21.0 mph33.8 kmh 29.29 in991.9 mb 0.00 in0.0 mm 0.00 in0.0 mm 0.01 in0.3 mm
09:29 AM 33.4°F0.8°C 30.5°F-0.8°C 89% 14.2 mph SE22.9 kmh SE 20.0 mph32.2 kmh 29.29 in991.9 mb 0.00 in0.0 mm 0.00 in0.0 mm 0.01 in0.3 mm
09:30 AM 33.4°F0.8°C 30.8°F-0.7°C 90% 13.3 mph SE21.4 kmh SE 18.0 mph29.0 kmh 29.29 in991.9 mb 0.00 in0.0 mm 0.00 in0.0 mm 0.01 in0.3 mm
09:31 AM 33.3°F0.7°C 30.7°F-0.7°C 90% 12.2 mph SE19.6 kmh SE 17.0 mph27.4 kmh 29.29 in991.9 mb 0.00 in0.0 mm 0.00 in0.0 mm 0.01 in0.3 mm
09:32 AM 33.3°F0.7°C 30.7°F-0.7°C 90% 13.3 mph SE21.4 kmh SE 19.0 mph30.6 kmh 29.29 in991.9 mb 0.00 in0.0 mm 0.00 in0.0 mm 0.01 in0.3 mm
09:33 AM 33.4°F0.8°C 30.8°F-0.7°C 90% 18.0 mph SE29.0 kmh SE 24.0 mph38.6 kmh 29.29 in991.9 mb 0.00 in0.0 mm 0.00 in0.0 mm 0.01 in0.3 mm
09:34 AM 33.4°F0.8°C 30.8°F-0.7°C 90% 15.5 mph SE24.9 kmh SE 24.0 mph38.6 kmh 29.29 in991.9 mb 0.00 in0.0 mm 0.00 in0.0 mm 0.01 in0.3 mm
09:35 AM 33.3°F0.7°C 30.7°F-0.7°C 90% 18.3 mph SE29.5 kmh SE 25.0 mph40.2 kmh 29.29 in991.9 mb 0.00 in0.0 mm 0.00 in0.0 mm 0.01 in0.3 mm
09:36 AM 33.4°F0.8°C 30.8°F-0.7°C 90% 15.4 mph SE24.8 kmh SE 25.0 mph40.2 kmh 29.28 in991.5 mb 0.00 in0.0 mm 0.00 in0.0 mm 0.01 in0.3 mm
09:37 AM 33.4°F0.8°C 30.8°F-0.7°C 90% 15.3 mph SE24.6 kmh SE 22.0 mph35.4 kmh 29.28 in991.5 mb 0.00 in0.0 mm 0.00 in0.0 mm 0.01 in0.3 mm
09:38 AM 33.4°F0.8°C 30.8°F-0.7°C 90% 16.7 mph SE26.9 kmh SE 23.0 mph37.0 kmh 29.28 in991.5 mb 0.00 in0.0 mm 0.00 in0.0 mm 0.01 in0.3 mm
09:39 AM 33.3°F0.7°C 30.7°F-0.7°C 90% 16.5 mph SE26.6 kmh SE 23.0 mph37.0 kmh 29.28 in991.5 mb 0.00 in0.0 mm 0.00 in0.0 mm 0.01 in0.3 mm
09:40 AM 33.4°F0.8°C 30.8°F-0.7°C 90% 15.0 mph SE24.1 kmh SE 21.0 mph33.8 kmh 29.28 in991.5 mb 0.00 in0.0 mm 0.00 in0.0 mm 0.01 in0.3 mm
09:41 AM 33.4°F0.8°C 30.8°F-0.7°C 90% 17.3 mph SE27.8 kmh SE 22.0 mph35.4 kmh 29.28 in991.5 mb 0.00 in0.0 mm 0.00 in0.0 mm 0.01 in0.3 mm
09:42 AM 33.4°F0.8°C 30.8°F-0.7°C 90% 14.7 mph SE23.7 kmh SE 22.0 mph35.4 kmh 29.28 in991.5 mb 0.00 in0.0 mm 0.00 in0.0 mm 0.01 in0.3 mm
09:43 AM 33.4°F0.8°C 30.8°F-0.7°C 90% 15.1 mph SE24.3 kmh SE 24.0 mph38.6 kmh 29.28 in991.5 mb 0.00 in0.0 mm 0.00 in0.0 mm 0.01 in0.3 mm
09:44 AM 33.4°F0.8°C 30.8°F-0.7°C 90% 13.6 mph ESE21.9 kmh ESE 24.0 mph38.6 kmh 29.28 in991.5 mb 0.00 in0.0 mm 0.00 in0.0 mm 0.01 in0.3 mm
09:45 AM 33.4°F0.8°C 30.8°F-0.7°C 90% 15.9 mph SE25.6 kmh SE 22.0 mph35.4 kmh 29.28 in991.5 mb 0.00 in0.0 mm 0.00 in0.0 mm 0.01 in0.3 mm
09:46 AM 33.4°F0.8°C 30.8°F-0.7°C 90% 14.3 mph ESE23.0 kmh ESE 24.0 mph38.6 kmh 29.28 in991.5 mb 0.00 in0.0 mm 0.00 in0.0 mm 0.01 in0.3 mm
09:47 AM 33.4°F0.8°C 30.8°F-0.7°C 90% 14.4 mph SE23.2 kmh SE 24.0 mph38.6 kmh 29.28 in991.5 mb 0.00 in0.0 mm 0.00 in0.0 mm 0.01 in0.3 mm
09:48 AM 33.4°F0.8°C 30.8°F-0.7°C 90% 15.1 mph SE24.3 kmh SE 22.0 mph35.4 kmh 29.27 in991.2 mb 0.00 in0.0 mm 0.00 in0.0 mm 0.01 in0.3 mm
09:49 AM 33.5°F0.8°C 30.9°F-0.6°C 90% 12.2 mph SE19.6 kmh SE 22.0 mph35.4 kmh 29.27 in991.2 mb 0.00 in0.0 mm 0.00 in0.0 mm 0.01 in0.3 mm
09:50 AM 33.4°F0.8°C 30.8°F-0.7°C 90% 13.6 mph SE21.9 kmh SE 19.0 mph30.6 kmh 29.27 in991.2 mb 0.00 in0.0 mm 0.00 in0.0 mm 0.01 in0.3 mm
09:51 AM 33.4°F0.8°C 30.8°F-0.7°C 90% 14.1 mph ESE22.7 kmh ESE 24.0 mph38.6 kmh 29.27 in991.2 mb 0.00 in0.0 mm 0.00 in0.0 mm 0.01 in0.3 mm
09:52 AM 33.4°F0.8°C 30.8°F-0.7°C 90% 13.9 mph SE22.4 kmh SE 24.0 mph38.6 kmh 29.27 in991.2 mb 0.00 in0.0 mm 0.00 in0.0 mm 0.01 in0.3 mm
09:53 AM 33.4°F0.8°C 30.8°F-0.7°C 90% 12.4 mph SE20.0 kmh SE 18.0 mph29.0 kmh 29.27 in991.2 mb 0.00 in0.0 mm 0.00 in0.0 mm 0.01 in0.3 mm
09:54 AM 33.5°F0.8°C 30.9°F-0.6°C 90% 12.9 mph ESE20.8 kmh ESE 22.0 mph35.4 kmh 29.27 in991.2 mb 0.00 in0.0 mm 0.00 in0.0 mm 0.01 in0.3 mm
09:55 AM 33.4°F0.8°C 30.8°F-0.7°C 90% 14.1 mph SE22.7 kmh SE 22.0 mph35.4 kmh 29.27 in991.2 mb 0.00 in0.0 mm 0.00 in0.0 mm 0.01 in0.3 mm
09:56 AM 33.4°F0.8°C 30.8°F-0.7°C 90% 15.5 mph SE24.9 kmh SE 20.0 mph32.2 kmh 29.27 in991.2 mb 0.00 in0.0 mm 0.00 in0.0 mm 0.01 in0.3 mm
09:57 AM 33.4°F0.8°C 30.8°F-0.7°C 90% 16.5 mph SE26.6 kmh SE 21.0 mph33.8 kmh 29.27 in991.2 mb 0.00 in0.0 mm 0.00 in0.0 mm 0.01 in0.3 mm
09:58 AM 33.5°F0.8°C 30.9°F-0.6°C 90% 14.4 mph ESE23.2 kmh ESE 24.0 mph38.6 kmh 29.27 in991.2 mb 0.00 in0.0 mm 0.00 in0.0 mm 0.01 in0.3 mm
09:59 AM 33.5°F0.8°C 30.9°F-0.6°C 90% 18.5 mph ESE29.8 kmh ESE 29.0 mph46.7 kmh 29.27 in991.2 mb 0.00 in0.0 mm 0.00 in0.0 mm 0.01 in0.3 mm
10:00 AM 33.5°F0.8°C 30.9°F-0.6°C 90% 15.3 mph SE24.6 kmh SE 29.0 mph46.7 kmh 29.27 in991.2 mb 0.00 in0.0 mm 0.00 in0.0 mm 0.01 in0.3 mm
10:01 AM 33.5°F0.8°C 31.2°F-0.4°C 91% 14.2 mph ESE22.9 kmh ESE 22.0 mph35.4 kmh 29.27 in991.2 mb 0.00 in0.0 mm 0.00 in0.0 mm 0.01 in0.3 mm
10:02 AM 33.6°F0.9°C 31.0°F-0.6°C 90% 18.8 mph SE30.3 kmh SE 25.0 mph40.2 kmh 29.26 in990.9 mb 0.00 in0.0 mm 0.00 in0.0 mm 0.01 in0.3 mm
10:03 AM 33.5°F0.8°C 31.2°F-0.4°C 91% 13.4 mph SE21.6 kmh SE 25.0 mph40.2 kmh 29.26 in990.9 mb 0.00 in0.0 mm 0.00 in0.0 mm 0.01 in0.3 mm
10:04 AM 33.6°F0.9°C 31.3°F-0.4°C 91% 18.3 mph SE29.5 kmh SE 24.0 mph38.6 kmh 29.26 in990.9 mb 0.00 in0.0 mm 0.00 in0.0 mm 0.01 in0.3 mm
10:05 AM 33.7°F0.9°C 31.4°F-0.3°C 91% 16.7 mph SE26.9 kmh SE 24.0 mph38.6 kmh 29.26 in990.9 mb 0.01 in0.3 mm 0.60 in15.2 mm 0.02 in0.5 mm
10:06 AM 33.6°F0.9°C 31.3°F-0.4°C 91% 19.5 mph SE31.4 kmh SE 24.0 mph38.6 kmh 29.26 in990.9 mb 0.01 in0.3 mm 0.00 in0.0 mm 0.02 in0.5 mm
10:07 AM 33.7°F0.9°C 31.1°F-0.5°C 90% 20.9 mph SE33.6 kmh SE 30.0 mph48.3 kmh 29.26 in990.9 mb 0.01 in0.3 mm 0.00 in0.0 mm 0.02 in0.5 mm
10:08 AM 33.7°F0.9°C 31.1°F-0.5°C 90% 17.9 mph SE28.8 kmh SE 30.0 mph48.3 kmh 29.26 in990.9 mb 0.01 in0.3 mm 0.00 in0.0 mm 0.02 in0.5 mm
10:09 AM 33.7°F0.9°C 31.1°F-0.5°C 90% 12.5 mph SE20.1 kmh SE 22.0 mph35.4 kmh 29.26 in990.9 mb 0.01 in0.3 mm 0.00 in0.0 mm 0.02 in0.5 mm
10:10 AM 33.8°F1.0°C 31.2°F-0.4°C 90% 14.4 mph SE23.2 kmh SE 19.0 mph30.6 kmh 29.26 in990.9 mb 0.01 in0.3 mm 0.00 in0.0 mm 0.02 in0.5 mm
10:11 AM 33.7°F0.9°C 31.1°F-0.5°C 90% 16.1 mph SE25.9 kmh SE 26.0 mph41.8 kmh 29.26 in990.9 mb 0.01 in0.3 mm 0.00 in0.0 mm 0.02 in0.5 mm
10:12 AM 33.8°F1.0°C 31.2°F-0.4°C 90% 18.0 mph SE29.0 kmh SE 26.0 mph41.8 kmh 29.26 in990.9 mb 0.01 in0.3 mm 0.00 in0.0 mm 0.02 in0.5 mm
10:13 AM 33.8°F1.0°C 31.2°F-0.4°C 90% 17.4 mph SE28.0 kmh SE 27.0 mph43.5 kmh 29.26 in990.9 mb 0.01 in0.3 mm 0.00 in0.0 mm 0.02 in0.5 mm
10:14 AM 33.7°F0.9°C 31.1°F-0.5°C 90% 14.5 mph SE23.3 kmh SE 27.0 mph43.5 kmh 29.26 in990.9 mb 0.01 in0.3 mm 0.00 in0.0 mm 0.02 in0.5 mm
10:15 AM 33.8°F1.0°C 31.2°F-0.4°C 90% 13.4 mph SE21.6 kmh SE 26.0 mph41.8 kmh 29.25 in990.5 mb 0.01 in0.3 mm 0.00 in0.0 mm 0.02 in0.5 mm
10:16 AM 33.8°F1.0°C 31.2°F-0.4°C 90% 14.0 mph SE22.5 kmh SE 26.0 mph41.8 kmh 29.25 in990.5 mb 0.01 in0.3 mm 0.00 in0.0 mm 0.02 in0.5 mm
10:17 AM 33.8°F1.0°C 31.2°F-0.4°C 90% 11.4 mph SE18.3 kmh SE 17.0 mph27.4 kmh 29.25 in990.5 mb 0.01 in0.3 mm 0.00 in0.0 mm 0.02 in0.5 mm
10:18 AM 33.7°F0.9°C 31.1°F-0.5°C 90% 14.5 mph SE23.3 kmh SE 19.0 mph30.6 kmh 29.25 in990.5 mb 0.01 in0.3 mm 0.00 in0.0 mm 0.02 in0.5 mm
10:19 AM 33.7°F0.9°C 31.1°F-0.5°C 90% 18.5 mph SE29.8 kmh SE 27.0 mph43.5 kmh 29.25 in990.5 mb 0.01 in0.3 mm 0.00 in0.0 mm 0.02 in0.5 mm
10:20 AM 33.7°F0.9°C 31.1°F-0.5°C 90% 14.9 mph SE24.0 kmh SE 27.0 mph43.5 kmh 29.25 in990.5 mb 0.01 in0.3 mm 0.00 in0.0 mm 0.02 in0.5 mm
10:21 AM 33.8°F1.0°C 31.2°F-0.4°C 90% 15.1 mph SE24.3 kmh SE 23.0 mph37.0 kmh 29.25 in990.5 mb 0.01 in0.3 mm 0.00 in0.0 mm 0.02 in0.5 mm
10:22 AM 33.7°F0.9°C 31.1°F-0.5°C 90% 16.5 mph SE26.6 kmh SE 21.0 mph33.8 kmh 29.25 in990.5 mb 0.01 in0.3 mm 0.00 in0.0 mm 0.02 in0.5 mm
10:23 AM 33.8°F1.0°C 31.2°F-0.4°C 90% 17.0 mph SE27.4 kmh SE 23.0 mph37.0 kmh 29.25 in990.5 mb 0.01 in0.3 mm 0.00 in0.0 mm 0.02 in0.5 mm
10:24 AM 33.8°F1.0°C 31.2°F-0.4°C 90% 14.0 mph SE22.5 kmh SE 23.0 mph37.0 kmh 29.25 in990.5 mb 0.01 in0.3 mm 0.00 in0.0 mm 0.02 in0.5 mm
10:25 AM 33.8°F1.0°C 31.2°F-0.4°C 90% 17.3 mph SE27.8 kmh SE 26.0 mph41.8 kmh 29.25 in990.5 mb 0.01 in0.3 mm 0.00 in0.0 mm 0.02 in0.5 mm
10:26 AM 33.8°F1.0°C 31.2°F-0.4°C 90% 14.8 mph SE23.8 kmh SE 26.0 mph41.8 kmh 29.25 in990.5 mb 0.01 in0.3 mm 0.00 in0.0 mm 0.02 in0.5 mm
10:27 AM 33.7°F0.9°C 31.1°F-0.5°C 90% 14.1 mph SE22.7 kmh SE 23.0 mph37.0 kmh 29.25 in990.5 mb 0.01 in0.3 mm 0.00 in0.0 mm 0.02 in0.5 mm
10:28 AM 33.8°F1.0°C 31.2°F-0.4°C 90% 15.3 mph SE24.6 kmh SE 20.0 mph32.2 kmh 29.25 in990.5 mb 0.01 in0.3 mm 0.00 in0.0 mm 0.02 in0.5 mm
10:29 AM 33.7°F0.9°C 31.1°F-0.5°C 90% 15.8 mph ESE25.4 kmh ESE 21.0 mph33.8 kmh 29.25 in990.5 mb 0.01 in0.3 mm 0.00 in0.0 mm 0.02 in0.5 mm
10:30 AM 33.8°F1.0°C 31.2°F-0.4°C 90% 17.9 mph ESE28.8 kmh ESE 25.0 mph40.2 kmh 29.24 in990.2 mb 0.01 in0.3 mm 0.00 in0.0 mm 0.02 in0.5 mm
10:31 AM 33.8°F1.0°C 31.2°F-0.4°C 90% 13.1 mph SE21.1 kmh SE 25.0 mph40.2 kmh 29.24 in990.2 mb 0.01 in0.3 mm 0.00 in0.0 mm 0.02 in0.5 mm
10:32 AM 33.8°F1.0°C 31.2°F-0.4°C 90% 13.8 mph SE22.2 kmh SE 21.0 mph33.8 kmh 29.24 in990.2 mb 0.01 in0.3 mm 0.00 in0.0 mm 0.02 in0.5 mm
10:33 AM 33.8°F1.0°C 31.2°F-0.4°C 90% 15.9 mph SE25.6 kmh SE 25.0 mph40.2 kmh 29.24 in990.2 mb 0.01 in0.3 mm 0.00 in0.0 mm 0.02 in0.5 mm
10:34 AM 33.9°F1.1°C 31.3°F-0.4°C 90% 17.1 mph SE27.5 kmh SE 25.0 mph40.2 kmh 29.24 in990.2 mb 0.01 in0.3 mm 0.00 in0.0 mm 0.02 in0.5 mm
10:35 AM 33.8°F1.0°C 31.2°F-0.4°C 90% 17.5 mph SE28.2 kmh SE 28.0 mph45.1 kmh 29.24 in990.2 mb 0.01 in0.3 mm 0.00 in0.0 mm 0.02 in0.5 mm
10:36 AM 33.9°F1.1°C 31.3°F-0.4°C 90% 13.8 mph SE22.2 kmh SE 29.0 mph46.7 kmh 29.24 in990.2 mb 0.01 in0.3 mm 0.00 in0.0 mm 0.02 in0.5 mm
10:37 AM 33.9°F1.1°C 31.3°F-0.4°C 90% 19.8 mph SE31.9 kmh SE 29.0 mph46.7 kmh 29.24 in990.2 mb 0.01 in0.3 mm 0.00 in0.0 mm 0.02 in0.5 mm
10:38 AM 33.9°F1.1°C 31.3°F-0.4°C 90% 17.8 mph SE28.6 kmh SE 25.0 mph40.2 kmh 29.24 in990.2 mb 0.01 in0.3 mm 0.00 in0.0 mm 0.02 in0.5 mm
10:39 AM 33.9°F1.1°C 31.3°F-0.4°C 90% 15.5 mph SE24.9 kmh SE 25.0 mph40.2 kmh 29.24 in990.2 mb 0.01 in0.3 mm 0.00 in0.0 mm 0.02 in0.5 mm
10:40 AM 33.9°F1.1°C 31.3°F-0.4°C 90% 16.2 mph SE26.1 kmh SE 25.0 mph40.2 kmh 29.24 in990.2 mb 0.01 in0.3 mm 0.00 in0.0 mm 0.02 in0.5 mm
10:41 AM 33.9°F1.1°C 31.3°F-0.4°C 90% 16.6 mph ESE26.7 kmh ESE 25.0 mph40.2 kmh 29.24 in990.2 mb 0.01 in0.3 mm 0.00 in0.0 mm 0.02 in0.5 mm
10:42 AM 33.9°F1.1°C 31.3°F-0.4°C 90% 17.6 mph SE28.3 kmh SE 24.0 mph38.6 kmh 29.24 in990.2 mb 0.01 in0.3 mm 0.00 in0.0 mm 0.02 in0.5 mm
10:43 AM 33.9°F1.1°C 31.3°F-0.4°C 90% 16.7 mph SE26.9 kmh SE 25.0 mph40.2 kmh 29.24 in990.2 mb 0.01 in0.3 mm 0.00 in0.0 mm 0.02 in0.5 mm
10:44 AM 33.9°F1.1°C 31.3°F-0.4°C 90% 14.8 mph SE23.8 kmh SE 25.0 mph40.2 kmh 29.24 in990.2 mb 0.01 in0.3 mm 0.00 in0.0 mm 0.02 in0.5 mm
10:45 AM 33.9°F1.1°C 31.3°F-0.4°C 90% 13.2 mph SE21.2 kmh SE 20.0 mph32.2 kmh 29.24 in990.2 mb 0.01 in0.3 mm 0.00 in0.0 mm 0.02 in0.5 mm
10:46 AM 33.8°F1.0°C 31.2°F-0.4°C 90% 18.0 mph SE29.0 kmh SE 24.0 mph38.6 kmh 29.23 in989.8 mb 0.01 in0.3 mm 0.00 in0.0 mm 0.02 in0.5 mm
10:47 AM 33.8°F1.0°C 31.2°F-0.4°C 90% 16.4 mph SE26.4 kmh SE 24.0 mph38.6 kmh 29.23 in989.8 mb 0.01 in0.3 mm 0.00 in0.0 mm 0.02 in0.5 mm
10:48 AM 33.8°F1.0°C 31.2°F-0.4°C 90% 19.9 mph SE32.0 kmh SE 26.0 mph41.8 kmh 29.23 in989.8 mb 0.01 in0.3 mm 0.00 in0.0 mm 0.02 in0.5 mm
10:49 AM 33.9°F1.1°C 31.3°F-0.4°C 90% 17.1 mph SE27.5 kmh SE 26.0 mph41.8 kmh 29.24 in990.2 mb 0.01 in0.3 mm 0.00 in0.0 mm 0.02 in0.5 mm
10:50 AM 33.9°F1.1°C 31.3°F-0.4°C 90% 15.9 mph SE25.6 kmh SE 23.0 mph37.0 kmh 29.23 in989.8 mb 0.01 in0.3 mm 0.00 in0.0 mm 0.02 in0.5 mm
10:51 AM 33.9°F1.1°C 31.3°F-0.4°C 90% 14.3 mph SE23.0 kmh SE 22.0 mph35.4 kmh 29.23 in989.8 mb 0.01 in0.3 mm 0.00 in0.0 mm 0.02 in0.5 mm
10:52 AM 33.9°F1.1°C 31.3°F-0.4°C 90% 16.0 mph SE25.7 kmh SE 26.0 mph41.8 kmh 29.23 in989.8 mb 0.01 in0.3 mm 0.00 in0.0 mm 0.02 in0.5 mm
10:53 AM 33.9°F1.1°C 31.3°F-0.4°C 90% 18.8 mph SE30.3 kmh SE 26.0 mph41.8 kmh 29.23 in989.8 mb 0.01 in0.3 mm 0.00 in0.0 mm 0.02 in0.5 mm
10:54 AM 33.9°F1.1°C 31.3°F-0.4°C 90% 15.3 mph SE24.6 kmh SE 25.0 mph40.2 kmh 29.23 in989.8 mb 0.01 in0.3 mm 0.00 in0.0 mm 0.02 in0.5 mm
10:55 AM 33.9°F1.1°C 31.3°F-0.4°C 90% 15.9 mph SE25.6 kmh SE 22.0 mph35.4 kmh 29.23 in989.8 mb 0.01 in0.3 mm 0.00 in0.0 mm 0.02 in0.5 mm
10:56 AM 33.9°F1.1°C 31.3°F-0.4°C 90% 21.9 mph SE35.2 kmh SE 26.0 mph41.8 kmh 29.23 in989.8 mb 0.01 in0.3 mm 0.00 in0.0 mm 0.02 in0.5 mm
10:57 AM 33.9°F1.1°C 31.3°F-0.4°C 90% 17.4 mph SE28.0 kmh SE 26.0 mph41.8 kmh 29.23 in989.8 mb 0.02 in0.5 mm 0.60 in15.2 mm 0.02 in0.5 mm
10:58 AM 33.9°F1.1°C 31.3°F-0.4°C 90% 13.6 mph SE21.9 kmh SE 24.0 mph38.6 kmh 29.23 in989.8 mb 0.02 in0.5 mm 0.00 in0.0 mm 0.02 in0.5 mm
10:59 AM 33.9°F1.1°C 31.3°F-0.4°C 90% 18.7 mph SE30.1 kmh SE 23.0 mph37.0 kmh 29.23 in989.8 mb 0.02 in0.5 mm 0.00 in0.0 mm 0.02 in0.5 mm
11:00 AM 33.9°F1.1°C 31.3°F-0.4°C 90% 15.9 mph ESE25.6 kmh ESE 24.0 mph38.6 kmh 29.22 in989.5 mb 0.02 in0.5 mm 0.00 in0.0 mm 0.02 in0.5 mm
11:01 AM 33.9°F1.1°C 31.3°F-0.4°C 90% 15.5 mph SE24.9 kmh SE 24.0 mph38.6 kmh 29.23 in989.8 mb 0.02 in0.5 mm 0.00 in0.0 mm 0.02 in0.5 mm
11:02 AM 33.9°F1.1°C 31.3°F-0.4°C 90% 14.9 mph SE24.0 kmh SE 20.0 mph32.2 kmh 29.22 in989.5 mb 0.02 in0.5 mm 0.00 in0.0 mm 0.02 in0.5 mm
11:03 AM 33.9°F1.1°C 31.3°F-0.4°C 90% 17.6 mph SE28.3 kmh SE 23.0 mph37.0 kmh 29.22 in989.5 mb 0.02 in0.5 mm 0.00 in0.0 mm 0.02 in0.5 mm
11:04 AM 33.9°F1.1°C 31.3°F-0.4°C 90% 17.2 mph SE27.7 kmh SE 25.0 mph40.2 kmh 29.22 in989.5 mb 0.02 in0.5 mm 0.00 in0.0 mm 0.02 in0.5 mm
11:05 AM 33.9°F1.1°C 31.3°F-0.4°C 90% 19.5 mph SE31.4 kmh SE 30.0 mph48.3 kmh 29.22 in989.5 mb 0.01 in0.3 mm 0.00 in0.0 mm 0.02 in0.5 mm
11:06 AM 33.9°F1.1°C 31.3°F-0.4°C 90% 21.5 mph SE34.6 kmh SE 30.0 mph48.3 kmh 29.22 in989.5 mb 0.01 in0.3 mm 0.00 in0.0 mm 0.02 in0.5 mm
11:07 AM 33.9°F1.1°C 31.3°F-0.4°C 90% 19.1 mph ESE30.7 kmh ESE 27.0 mph43.5 kmh 29.22 in989.5 mb 0.01 in0.3 mm 0.00 in0.0 mm 0.02 in0.5 mm
11:08 AM 33.9°F1.1°C 31.3°F-0.4°C 90% 18.3 mph ESE29.5 kmh ESE 28.0 mph45.1 kmh 29.22 in989.5 mb 0.01 in0.3 mm 0.00 in0.0 mm 0.02 in0.5 mm
11:09 AM 33.9°F1.1°C 31.3°F-0.4°C 90% 15.8 mph SE25.4 kmh SE 28.0 mph45.1 kmh 29.22 in989.5 mb 0.01 in0.3 mm 0.00 in0.0 mm 0.02 in0.5 mm
11:10 AM 33.9°F1.1°C 31.3°F-0.4°C 90% 19.1 mph SE30.7 kmh SE 25.0 mph40.2 kmh 29.22 in989.5 mb 0.01 in0.3 mm 0.00 in0.0 mm 0.02 in0.5 mm
11:11 AM 33.9°F1.1°C 31.3°F-0.4°C 90% 20.1 mph SE32.3 kmh SE 26.0 mph41.8 kmh 29.22 in989.5 mb 0.01 in0.3 mm 0.00 in0.0 mm 0.02 in0.5 mm
11:12 AM 34.0°F1.1°C 31.4°F-0.3°C 90% 17.8 mph SE28.6 kmh SE 26.0 mph41.8 kmh 29.22 in989.5 mb 0.01 in0.3 mm 0.00 in0.0 mm 0.02 in0.5 mm
11:13 AM 33.9°F1.1°C 31.3°F-0.4°C 90% 14.6 mph SE23.5 kmh SE 24.0 mph38.6 kmh 29.22 in989.5 mb 0.01 in0.3 mm 0.00 in0.0 mm 0.02 in0.5 mm
11:14 AM 34.0°F1.1°C 31.4°F-0.3°C 90% 18.6 mph SE29.9 kmh SE 27.0 mph43.5 kmh 29.22 in989.5 mb 0.01 in0.3 mm 0.00 in0.0 mm 0.02 in0.5 mm
11:15 AM 33.9°F1.1°C 31.3°F-0.4°C 90% 16.3 mph SE26.2 kmh SE 27.0 mph43.5 kmh 29.21 in989.2 mb 0.01 in0.3 mm 0.00 in0.0 mm 0.02 in0.5 mm
11:16 AM 33.9°F1.1°C 31.3°F-0.4°C 90% 16.1 mph SE25.9 kmh SE 22.0 mph35.4 kmh 29.22 in989.5 mb 0.01 in0.3 mm 0.00 in0.0 mm 0.02 in0.5 mm
11:17 AM 34.0°F1.1°C 31.4°F-0.3°C 90% 18.2 mph SE29.3 kmh SE 24.0 mph38.6 kmh 29.21 in989.2 mb 0.01 in0.3 mm 0.00 in0.0 mm 0.02 in0.5 mm
11:18 AM 34.0°F1.1°C 31.4°F-0.3°C 90% 17.0 mph SE27.4 kmh SE 27.0 mph43.5 kmh 29.21 in989.2 mb 0.01 in0.3 mm 0.00 in0.0 mm 0.02 in0.5 mm
11:19 AM 33.9°F1.1°C 31.3°F-0.4°C 90% 16.6 mph SE26.7 kmh SE 27.0 mph43.5 kmh 29.21 in989.2 mb 0.01 in0.3 mm 0.00 in0.0 mm 0.02 in0.5 mm
11:20 AM 34.0°F1.1°C 31.4°F-0.3°C 90% 15.8 mph SE25.4 kmh SE 23.0 mph37.0 kmh 29.21 in989.2 mb 0.01 in0.3 mm 0.00 in0.0 mm 0.02 in0.5 mm
11:21 AM 33.9°F1.1°C 31.3°F-0.4°C 90% 20.5 mph SE33.0 kmh SE 28.0 mph45.1 kmh 29.21 in989.2 mb 0.01 in0.3 mm 0.00 in0.0 mm 0.02 in0.5 mm
11:22 AM 33.9°F1.1°C 31.3°F-0.4°C 90% 15.7 mph SE25.3 kmh SE 28.0 mph45.1 kmh 29.21 in989.2 mb 0.01 in0.3 mm 0.00 in0.0 mm 0.02 in0.5 mm
11:23 AM 33.9°F1.1°C 31.3°F-0.4°C 90% 16.3 mph SE26.2 kmh SE 21.0 mph33.8 kmh 29.21 in989.2 mb 0.01 in0.3 mm 0.00 in0.0 mm 0.02 in0.5 mm
11:24 AM 33.9°F1.1°C 31.3°F-0.4°C 90% 16.2 mph ESE26.1 kmh ESE 21.0 mph33.8 kmh 29.21 in989.2 mb 0.01 in0.3 mm 0.00 in0.0 mm 0.02 in0.5 mm
11:25 AM 33.9°F1.1°C 31.3°F-0.4°C 90% 17.5 mph SE28.2 kmh SE 23.0 mph37.0 kmh 29.21 in989.2 mb 0.01 in0.3 mm 0.00 in0.0 mm 0.02 in0.5 mm
11:26 AM 33.9°F1.1°C 31.3°F-0.4°C 90% 17.8 mph SE28.6 kmh SE 31.0 mph49.9 kmh 29.21 in989.2 mb 0.01 in0.3 mm 0.00 in0.0 mm 0.02 in0.5 mm
11:27 AM 33.9°F1.1°C 31.3°F-0.4°C 90% 17.1 mph ESE27.5 kmh ESE 31.0 mph49.9 kmh 29.21 in989.2 mb 0.01 in0.3 mm 0.00 in0.0 mm 0.02 in0.5 mm
11:28 AM 33.9°F1.1°C 31.3°F-0.4°C 90% 12.9 mph SE20.8 kmh SE 24.0 mph38.6 kmh 29.21 in989.2 mb 0.01 in0.3 mm 0.00 in0.0 mm 0.02 in0.5 mm
11:29 AM 34.0°F1.1°C 31.4°F-0.3°C 90% 16.4 mph ESE26.4 kmh ESE 24.0 mph38.6 kmh 29.21 in989.2 mb 0.01 in0.3 mm 0.00 in0.0 mm 0.02 in0.5 mm
11:30 AM 33.9°F1.1°C 31.3°F-0.4°C 90% 13.0 mph SE20.9 kmh SE 24.0 mph38.6 kmh 29.21 in989.2 mb 0.01 in0.3 mm 0.00 in0.0 mm 0.02 in0.5 mm
11:31 AM 34.0°F1.1°C 31.4°F-0.3°C 90% 13.5 mph SE21.7 kmh SE 22.0 mph35.4 kmh 29.21 in989.2 mb 0.01 in0.3 mm 0.00 in0.0 mm 0.02 in0.5 mm
11:32 AM 33.9°F1.1°C 31.3°F-0.4°C 90% 19.0 mph SE30.6 kmh SE 24.0 mph38.6 kmh 29.21 in989.2 mb 0.01 in0.3 mm 0.00 in0.0 mm 0.02 in0.5 mm
11:33 AM 33.9°F1.1°C 31.3°F-0.4°C 90% 15.5 mph SE24.9 kmh SE 25.0 mph40.2 kmh 29.21 in989.2 mb 0.01 in0.3 mm 0.00 in0.0 mm 0.02 in0.5 mm
11:34 AM 33.9°F1.1°C 31.3°F-0.4°C 90% 18.2 mph SE29.3 kmh SE 24.0 mph38.6 kmh 29.21 in989.2 mb 0.01 in0.3 mm 0.00 in0.0 mm 0.02 in0.5 mm
11:35 AM 33.9°F1.1°C 31.3°F-0.4°C 90% 20.3 mph SE32.7 kmh SE 27.0 mph43.5 kmh 29.21 in989.2 mb 0.01 in0.3 mm 0.00 in0.0 mm 0.02 in0.5 mm
11:36 AM 33.9°F1.1°C 31.3°F-0.4°C 90% 18.0 mph SE29.0 kmh SE 27.0 mph43.5 kmh 29.21 in989.2 mb 0.01 in0.3 mm 0.00 in0.0 mm 0.02 in0.5 mm
11:37 AM 33.8°F1.0°C 31.2°F-0.4°C 90% 17.7 mph SE28.5 kmh SE 26.0 mph41.8 kmh 29.21 in989.2 mb 0.01 in0.3 mm 0.00 in0.0 mm 0.02 in0.5 mm
11:38 AM 33.8°F1.0°C 31.2°F-0.4°C 90% 17.9 mph SE28.8 kmh SE 28.0 mph45.1 kmh 29.20 in988.8 mb 0.01 in0.3 mm 0.00 in0.0 mm 0.02 in0.5 mm
11:39 AM 33.8°F1.0°C 31.2°F-0.4°C 90% 15.3 mph SE24.6 kmh SE 28.0 mph45.1 kmh 29.20 in988.8 mb 0.01 in0.3 mm 0.00 in0.0 mm 0.02 in0.5 mm
11:40 AM 33.7°F0.9°C 31.1°F-0.5°C 90% 16.9 mph SE27.2 kmh SE 24.0 mph38.6 kmh 29.20 in988.8 mb 0.01 in0.3 mm 0.00 in0.0 mm 0.02 in0.5 mm
11:41 AM 33.7°F0.9°C 31.1°F-0.5°C 90% 16.8 mph ESE27.0 kmh ESE 24.0 mph38.6 kmh 29.20 in988.8 mb 0.01 in0.3 mm 0.00 in0.0 mm 0.02 in0.5 mm
11:42 AM 33.7°F0.9°C 31.1°F-0.5°C 90% 18.3 mph SE29.5 kmh SE 28.0 mph45.1 kmh 29.20 in988.8 mb 0.01 in0.3 mm 0.00 in0.0 mm 0.02 in0.5 mm
11:43 AM 33.7°F0.9°C 31.1°F-0.5°C 90% 14.6 mph SE23.5 kmh SE 28.0 mph45.1 kmh 29.20 in988.8 mb 0.01 in0.3 mm 0.00 in0.0 mm 0.02 in0.5 mm
11:44 AM 33.7°F0.9°C 31.1°F-0.5°C 90% 14.8 mph SE23.8 kmh SE 24.0 mph38.6 kmh 29.20 in988.8 mb 0.01 in0.3 mm 0.00 in0.0 mm 0.02 in0.5 mm
11:45 AM 33.7°F0.9°C 31.1°F-0.5°C 90% 18.0 mph SE29.0 kmh SE 27.0 mph43.5 kmh 29.20 in988.8 mb 0.01 in0.3 mm 0.00 in0.0 mm 0.02 in0.5 mm
11:46 AM 33.7°F0.9°C 31.4°F-0.3°C 91% 17.6 mph SE28.3 kmh SE 27.0 mph43.5 kmh 29.20 in988.8 mb 0.01 in0.3 mm 0.00 in0.0 mm 0.02 in0.5 mm
11:47 AM 33.7°F0.9°C 31.4°F-0.3°C 91% 17.8 mph ESE28.6 kmh ESE 27.0 mph43.5 kmh 29.20 in988.8 mb 0.01 in0.3 mm 0.00 in0.0 mm 0.02 in0.5 mm
11:48 AM 33.7°F0.9°C 31.4°F-0.3°C 91% 13.2 mph SE21.2 kmh SE 23.0 mph37.0 kmh 29.19 in988.5 mb 0.01 in0.3 mm 0.00 in0.0 mm 0.02 in0.5 mm
11:49 AM 33.7°F0.9°C 31.4°F-0.3°C 91% 15.9 mph SE25.6 kmh SE 23.0 mph37.0 kmh 29.20 in988.8 mb 0.01 in0.3 mm 0.00 in0.0 mm 0.02 in0.5 mm
11:50 AM 33.7°F0.9°C 31.4°F-0.3°C 91% 15.2 mph SE24.5 kmh SE 23.0 mph37.0 kmh 29.19 in988.5 mb 0.01 in0.3 mm 0.00 in0.0 mm 0.02 in0.5 mm
11:51 AM 33.7°F0.9°C 31.1°F-0.5°C 90% 14.9 mph SE24.0 kmh SE 22.0 mph35.4 kmh 29.19 in988.5 mb 0.01 in0.3 mm 0.00 in0.0 mm 0.02 in0.5 mm
11:52 AM 33.7°F0.9°C 31.1°F-0.5°C 90% 12.0 mph SE19.3 kmh SE 19.0 mph30.6 kmh 29.19 in988.5 mb 0.01 in0.3 mm 0.00 in0.0 mm 0.02 in0.5 mm
11:53 AM 33.7°F0.9°C 31.1°F-0.5°C 90% 16.7 mph SE26.9 kmh SE 24.0 mph38.6 kmh 29.19 in988.5 mb 0.01 in0.3 mm 0.00 in0.0 mm 0.02 in0.5 mm
11:54 AM 33.7°F0.9°C 31.1°F-0.5°C 90% 17.4 mph ESE28.0 kmh ESE 24.0 mph38.6 kmh 29.19 in988.5 mb 0.01 in0.3 mm 0.00 in0.0 mm 0.02 in0.5 mm
11:55 AM 33.7°F0.9°C 31.1°F-0.5°C 90% 19.3 mph ESE31.1 kmh ESE 26.0 mph41.8 kmh 29.19 in988.5 mb 0.01 in0.3 mm 0.00 in0.0 mm 0.02 in0.5 mm
11:56 AM 33.7°F0.9°C 31.1°F-0.5°C 90% 16.0 mph SE25.7 kmh SE 26.0 mph41.8 kmh 29.19 in988.5 mb 0.01 in0.3 mm 0.00 in0.0 mm 0.02 in0.5 mm
11:57 AM 33.6°F0.9°C 31.0°F-0.6°C 90% 14.9 mph SE24.0 kmh SE 21.0 mph33.8 kmh 29.19 in988.5 mb 0.00 in0.0 mm 0.00 in0.0 mm 0.02 in0.5 mm
11:58 AM 33.7°F0.9°C 31.1°F-0.5°C 90% 17.4 mph SE28.0 kmh SE 25.0 mph40.2 kmh 29.19 in988.5 mb 0.00 in0.0 mm 0.00 in0.0 mm 0.02 in0.5 mm
11:59 AM 33.7°F0.9°C 31.4°F-0.3°C 91% 15.5 mph SE24.9 kmh SE 25.0 mph40.2 kmh 29.19 in988.5 mb 0.00 in0.0 mm 0.00 in0.0 mm 0.02 in0.5 mm
12:00 PM 33.7°F0.9°C 31.4°F-0.3°C 91% 16.6 mph SE26.7 kmh SE 23.0 mph37.0 kmh 29.19 in988.5 mb 0.00 in0.0 mm 0.00 in0.0 mm 0.02 in0.5 mm
12:01 PM 33.7°F0.9°C 31.4°F-0.3°C 91% 15.7 mph SE25.3 kmh SE 23.0 mph37.0 kmh 29.18 in988.1 mb 0.00 in0.0 mm 0.00 in0.0 mm 0.02 in0.5 mm
12:02 PM 33.7°F0.9°C 31.4°F-0.3°C 91% 18.8 mph SE30.3 kmh SE 32.0 mph51.5 kmh 29.18 in988.1 mb 0.00 in0.0 mm 0.00 in0.0 mm 0.02 in0.5 mm
12:03 PM 33.7°F0.9°C 31.4°F-0.3°C 91% 14.4 mph SE23.2 kmh SE 32.0 mph51.5 kmh 29.18 in988.1 mb 0.00 in0.0 mm 0.00 in0.0 mm 0.02 in0.5 mm
12:04 PM 33.8°F1.0°C 31.5°F-0.3°C 91% 16.4 mph ESE26.4 kmh ESE 23.0 mph37.0 kmh 29.18 in988.1 mb 0.00 in0.0 mm 0.00 in0.0 mm 0.02 in0.5 mm
12:05 PM 33.8°F1.0°C 31.5°F-0.3°C 91% 17.8 mph ESE28.6 kmh ESE 25.0 mph40.2 kmh 29.18 in988.1 mb 0.00 in0.0 mm 0.00 in0.0 mm 0.02 in0.5 mm
12:06 PM 33.8°F1.0°C 31.5°F-0.3°C 91% 14.6 mph SE23.5 kmh SE 25.0 mph40.2 kmh 29.18 in988.1 mb 0.00 in0.0 mm 0.00 in0.0 mm 0.02 in0.5 mm
12:07 PM 33.8°F1.0°C 31.5°F-0.3°C 91% 15.8 mph SE25.4 kmh SE 22.0 mph35.4 kmh 29.18 in988.1 mb 0.00 in0.0 mm 0.00 in0.0 mm 0.02 in0.5 mm
12:08 PM 33.8°F1.0°C 31.5°F-0.3°C 91% 15.9 mph SE25.6 kmh SE 22.0 mph35.4 kmh 29.18 in988.1 mb 0.00 in0.0 mm 0.00 in0.0 mm 0.02 in0.5 mm
12:09 PM 33.8°F1.0°C 31.5°F-0.3°C 91% 16.7 mph SE26.9 kmh SE 23.0 mph37.0 kmh 29.18 in988.1 mb 0.00 in0.0 mm 0.00 in0.0 mm 0.02 in0.5 mm
12:10 PM 33.8°F1.0°C 31.5°F-0.3°C 91% 19.3 mph SE31.1 kmh SE 24.0 mph38.6 kmh 29.18 in988.1 mb 0.00 in0.0 mm 0.00 in0.0 mm 0.02 in0.5 mm
12:11 PM 33.9°F1.1°C 31.6°F-0.2°C 91% 18.4 mph SE29.6 kmh SE 25.0 mph40.2 kmh 29.18 in988.1 mb 0.00 in0.0 mm 0.00 in0.0 mm 0.02 in0.5 mm
12:12 PM 33.9°F1.1°C 31.6°F-0.2°C 91% 19.1 mph SE30.7 kmh SE 28.0 mph45.1 kmh 29.18 in988.1 mb 0.00 in0.0 mm 0.00 in0.0 mm 0.02 in0.5 mm
12:13 PM 33.9°F1.1°C 31.6°F-0.2°C 91% 15.4 mph ESE24.8 kmh ESE 28.0 mph45.1 kmh 29.18 in988.1 mb 0.00 in0.0 mm 0.00 in0.0 mm 0.02 in0.5 mm
12:14 PM 33.9°F1.1°C 31.3°F-0.4°C 90% 16.1 mph SE25.9 kmh SE 22.0 mph35.4 kmh 29.18 in988.1 mb 0.00 in0.0 mm 0.00 in0.0 mm 0.02 in0.5 mm
12:15 PM 33.9°F1.1°C 31.3°F-0.4°C 90% 16.1 mph SE25.9 kmh SE 21.0 mph33.8 kmh 29.18 in988.1 mb 0.00 in0.0 mm 0.00 in0.0 mm 0.02 in0.5 mm
12:16 PM 33.9°F1.1°C 31.3°F-0.4°C 90% 17.5 mph SE28.2 kmh SE 25.0 mph40.2 kmh 29.18 in988.1 mb 0.00 in0.0 mm 0.00 in0.0 mm 0.02 in0.5 mm
12:17 PM 34.0°F1.1°C 31.4°F-0.3°C 90% 13.7 mph SE22.0 kmh SE 25.0 mph40.2 kmh 29.18 in988.1 mb 0.00 in0.0 mm 0.00 in0.0 mm 0.02 in0.5 mm
12:18 PM 33.9°F1.1°C 31.3°F-0.4°C 90% 16.4 mph SE26.4 kmh SE 21.0 mph33.8 kmh 29.18 in988.1 mb 0.00 in0.0 mm 0.00 in0.0 mm 0.02 in0.5 mm
12:19 PM 33.9°F1.1°C 31.3°F-0.4°C 90% 16.5 mph SE26.6 kmh SE 21.0 mph33.8 kmh 29.18 in988.1 mb 0.00 in0.0 mm 0.00 in0.0 mm 0.02 in0.5 mm
12:20 PM 33.9°F1.1°C 31.3°F-0.4°C 90% 16.3 mph SE26.2 kmh SE 23.0 mph37.0 kmh 29.18 in988.1 mb 0.00 in0.0 mm 0.00 in0.0 mm 0.02 in0.5 mm
12:21 PM 33.9°F1.1°C 31.3°F-0.4°C 90% 19.7 mph SE31.7 kmh SE 25.0 mph40.2 kmh 29.18 in988.1 mb 0.00 in0.0 mm 0.00 in0.0 mm 0.02 in0.5 mm
12:22 PM 33.9°F1.1°C 31.3°F-0.4°C 90% 16.6 mph SE26.7 kmh SE 27.0 mph43.5 kmh 29.18 in988.1 mb 0.00 in0.0 mm 0.00 in0.0 mm 0.02 in0.5 mm
12:23 PM 33.9°F1.1°C 31.3°F-0.4°C 90% 15.7 mph SE25.3 kmh SE 27.0 mph43.5 kmh 29.18 in988.1 mb 0.00 in0.0 mm 0.00 in0.0 mm 0.02 in0.5 mm
12:24 PM 33.9°F1.1°C 31.3°F-0.4°C 90% 16.0 mph SE25.7 kmh SE 25.0 mph40.2 kmh 29.17 in987.8 mb 0.00 in0.0 mm 0.00 in0.0 mm 0.02 in0.5 mm
12:25 PM 33.9°F1.1°C 31.3°F-0.4°C 90% 16.0 mph SE25.7 kmh SE 25.0 mph40.2 kmh 29.18 in988.1 mb 0.00 in0.0 mm 0.00 in0.0 mm 0.02 in0.5 mm
12:26 PM 33.9°F1.1°C 31.3°F-0.4°C 90% 15.9 mph SE25.6 kmh SE 23.0 mph37.0 kmh 29.18 in988.1 mb 0.00 in0.0 mm 0.00 in0.0 mm 0.02 in0.5 mm
12:27 PM 33.9°F1.1°C 31.3°F-0.4°C 90% 16.8 mph SE27.0 kmh SE 25.0 mph40.2 kmh 29.18 in988.1 mb 0.00 in0.0 mm 0.00 in0.0 mm 0.02 in0.5 mm
12:28 PM 33.8°F1.0°C 31.2°F-0.4°C 90% 12.9 mph SE20.8 kmh SE 25.0 mph40.2 kmh 29.17 in987.8 mb 0.00 in0.0 mm 0.00 in0.0 mm 0.02 in0.5 mm
12:29 PM 33.7°F0.9°C 31.1°F-0.5°C 90% 13.9 mph SE22.4 kmh SE 21.0 mph33.8 kmh 29.17 in987.8 mb 0.00 in0.0 mm 0.00 in0.0 mm 0.02 in0.5 mm
12:30 PM 33.7°F0.9°C 31.1°F-0.5°C 90% 11.8 mph SE19.0 kmh SE 22.0 mph35.4 kmh 29.17 in987.8 mb 0.00 in0.0 mm 0.00 in0.0 mm 0.02 in0.5 mm
12:31 PM 33.7°F0.9°C 31.1°F-0.5°C 90% 11.9 mph SE19.2 kmh SE 24.0 mph38.6 kmh 29.17 in987.8 mb 0.00 in0.0 mm 0.00 in0.0 mm 0.02 in0.5 mm
12:32 PM 33.7°F0.9°C 31.1°F-0.5°C 90% 13.7 mph SE22.0 kmh SE 24.0 mph38.6 kmh 29.17 in987.8 mb 0.00 in0.0 mm 0.00 in0.0 mm 0.02 in0.5 mm
12:33 PM 33.7°F0.9°C 31.1°F-0.5°C 90% 19.4 mph SE31.2 kmh SE 26.0 mph41.8 kmh 29.17 in987.8 mb 0.00 in0.0 mm 0.00 in0.0 mm 0.02 in0.5 mm
12:34 PM 33.6°F0.9°C 31.0°F-0.6°C 90% 13.4 mph SE21.6 kmh SE 26.0 mph41.8 kmh 29.17 in987.8 mb 0.00 in0.0 mm 0.00 in0.0 mm 0.02 in0.5 mm
12:35 PM 33.6°F0.9°C 31.0°F-0.6°C 90% 15.4 mph SE24.8 kmh SE 24.0 mph38.6 kmh 29.17 in987.8 mb 0.01 in0.3 mm 0.60 in15.2 mm 0.03 in0.8 mm
12:36 PM 33.6°F0.9°C 31.0°F-0.6°C 90% 14.1 mph SE22.7 kmh SE 22.0 mph35.4 kmh 29.17 in987.8 mb 0.01 in0.3 mm 0.00 in0.0 mm 0.03 in0.8 mm
12:37 PM 33.5°F0.8°C 30.9°F-0.6°C 90% 14.9 mph SE24.0 kmh SE 23.0 mph37.0 kmh 29.17 in987.8 mb 0.01 in0.3 mm 0.00 in0.0 mm 0.03 in0.8 mm
12:38 PM 33.5°F0.8°C 30.9°F-0.6°C 90% 15.2 mph SE24.5 kmh SE 23.0 mph37.0 kmh 29.17 in987.8 mb 0.01 in0.3 mm 0.00 in0.0 mm 0.03 in0.8 mm
12:39 PM 33.5°F0.8°C 30.9°F-0.6°C 90% 14.5 mph SE23.3 kmh SE 20.0 mph32.2 kmh 29.17 in987.8 mb 0.01 in0.3 mm 0.00 in0.0 mm 0.03 in0.8 mm
12:40 PM 33.5°F0.8°C 31.2°F-0.4°C 91% 19.4 mph SE31.2 kmh SE 26.0 mph41.8 kmh 29.17 in987.8 mb 0.01 in0.3 mm 0.00 in0.0 mm 0.03 in0.8 mm
12:41 PM 33.5°F0.8°C 31.2°F-0.4°C 91% 15.1 mph SE24.3 kmh SE 27.0 mph43.5 kmh 29.17 in987.8 mb 0.01 in0.3 mm 0.00 in0.0 mm 0.03 in0.8 mm
12:42 PM 33.5°F0.8°C 31.2°F-0.4°C 91% 19.4 mph SE31.2 kmh SE 27.0 mph43.5 kmh 29.16 in987.5 mb 0.01 in0.3 mm 0.00 in0.0 mm 0.03 in0.8 mm
12:43 PM 33.5°F0.8°C 31.2°F-0.4°C 91% 19.8 mph SE31.9 kmh SE 25.0 mph40.2 kmh 29.16 in987.5 mb 0.01 in0.3 mm 0.00 in0.0 mm 0.03 in0.8 mm
12:44 PM 33.5°F0.8°C 31.2°F-0.4°C 91% 14.5 mph SE23.3 kmh SE 25.0 mph40.2 kmh 29.16 in987.5 mb 0.01 in0.3 mm 0.00 in0.0 mm 0.03 in0.8 mm
12:45 PM 33.5°F0.8°C 31.2°F-0.4°C 91% 16.8 mph SE27.0 kmh SE 23.0 mph37.0 kmh 29.16 in987.5 mb 0.01 in0.3 mm 0.00 in0.0 mm 0.03 in0.8 mm
12:46 PM 33.5°F0.8°C 31.2°F-0.4°C 91% 16.5 mph SE26.6 kmh SE 23.0 mph37.0 kmh 29.16 in987.5 mb 0.01 in0.3 mm 0.00 in0.0 mm 0.03 in0.8 mm
12:47 PM 33.5°F0.8°C 31.2°F-0.4°C 91% 16.2 mph SE26.1 kmh SE 21.0 mph33.8 kmh 29.16 in987.5 mb 0.01 in0.3 mm 0.00 in0.0 mm 0.03 in0.8 mm
12:48 PM 33.5°F0.8°C 31.2°F-0.4°C 91% 14.1 mph SE22.7 kmh SE 21.0 mph33.8 kmh 29.16 in987.5 mb 0.01 in0.3 mm 0.00 in0.0 mm 0.03 in0.8 mm
12:49 PM 33.5°F0.8°C 31.2°F-0.4°C 91% 16.8 mph SE27.0 kmh SE 24.0 mph38.6 kmh 29.16 in987.5 mb 0.01 in0.3 mm 0.00 in0.0 mm 0.03 in0.8 mm
12:50 PM 33.5°F0.8°C 31.2°F-0.4°C 91% 15.5 mph SE24.9 kmh SE 24.0 mph38.6 kmh 29.16 in987.5 mb 0.01 in0.3 mm 0.00 in0.0 mm 0.03 in0.8 mm
12:51 PM 33.5°F0.8°C 31.2°F-0.4°C 91% 14.4 mph SE23.2 kmh SE 19.0 mph30.6 kmh 29.16 in987.5 mb 0.01 in0.3 mm 0.00 in0.0 mm 0.03 in0.8 mm
12:52 PM 33.5°F0.8°C 31.2°F-0.4°C 91% 14.9 mph SE24.0 kmh SE 20.0 mph32.2 kmh 29.16 in987.5 mb 0.01 in0.3 mm 0.00 in0.0 mm 0.03 in0.8 mm
12:53 PM 33.5°F0.8°C 31.2°F-0.4°C 91% 14.4 mph ESE23.2 kmh ESE 20.0 mph32.2 kmh 29.16 in987.5 mb 0.01 in0.3 mm 0.00 in0.0 mm 0.03 in0.8 mm
12:54 PM 33.5°F0.8°C 31.2°F-0.4°C 91% 15.8 mph SE25.4 kmh SE 28.0 mph45.1 kmh 29.16 in987.5 mb 0.01 in0.3 mm 0.00 in0.0 mm 0.03 in0.8 mm
12:55 PM 33.6°F0.9°C 31.3°F-0.4°C 91% 19.2 mph SE30.9 kmh SE 28.0 mph45.1 kmh 29.15 in987.1 mb 0.01 in0.3 mm 0.00 in0.0 mm 0.03 in0.8 mm
12:56 PM 33.5°F0.8°C 31.2°F-0.4°C 91% 17.4 mph SE28.0 kmh SE 29.0 mph46.7 kmh 29.15 in987.1 mb 0.01 in0.3 mm 0.00 in0.0 mm 0.03 in0.8 mm
12:57 PM 33.6°F0.9°C 31.3°F-0.4°C 91% 18.6 mph SE29.9 kmh SE 29.0 mph46.7 kmh 29.15 in987.1 mb 0.01 in0.3 mm 0.00 in0.0 mm 0.03 in0.8 mm
12:58 PM 33.6°F0.9°C 31.3°F-0.4°C 91% 19.4 mph SE31.2 kmh SE 29.0 mph46.7 kmh 29.15 in987.1 mb 0.01 in0.3 mm 0.00 in0.0 mm 0.03 in0.8 mm
12:59 PM 33.6°F0.9°C 31.3°F-0.4°C 91% 18.4 mph SE29.6 kmh SE 29.0 mph46.7 kmh 29.15 in987.1 mb 0.01 in0.3 mm 0.00 in0.0 mm 0.03 in0.8 mm
01:00 PM 33.6°F0.9°C 31.3°F-0.4°C 91% 18.5 mph SE29.8 kmh SE 24.0 mph38.6 kmh 29.15 in987.1 mb 0.01 in0.3 mm 0.00 in0.0 mm 0.03 in0.8 mm
01:01 PM 33.7°F0.9°C 31.4°F-0.3°C 91% 14.2 mph SE22.9 kmh SE 23.0 mph37.0 kmh 29.15 in987.1 mb 0.01 in0.3 mm 0.00 in0.0 mm 0.03 in0.8 mm
01:02 PM 33.7°F0.9°C 31.4°F-0.3°C 91% 18.7 mph SE30.1 kmh SE 23.0 mph37.0 kmh 29.15 in987.1 mb 0.02 in0.5 mm 0.60 in15.2 mm 0.04 in1.0 mm
01:03 PM 33.7°F0.9°C 31.4°F-0.3°C 91% 14.5 mph SE23.3 kmh SE 23.0 mph37.0 kmh 29.15 in987.1 mb 0.02 in0.5 mm 0.00 in0.0 mm 0.04 in1.0 mm
01:04 PM 33.7°F0.9°C 31.4°F-0.3°C 91% 13.3 mph SE21.4 kmh SE 22.0 mph35.4 kmh 29.15 in987.1 mb 0.02 in0.5 mm 0.00 in0.0 mm 0.04 in1.0 mm
01:05 PM 33.8°F1.0°C 31.5°F-0.3°C 91% 18.3 mph SE29.5 kmh SE 27.0 mph43.5 kmh 29.15 in987.1 mb 0.02 in0.5 mm 0.00 in0.0 mm 0.04 in1.0 mm
01:06 PM 33.8°F1.0°C 31.5°F-0.3°C 91% 14.1 mph SE22.7 kmh SE 27.0 mph43.5 kmh 29.15 in987.1 mb 0.02 in0.5 mm 0.00 in0.0 mm 0.04 in1.0 mm
01:07 PM 33.8°F1.0°C 31.5°F-0.3°C 91% 15.9 mph SE25.6 kmh SE 19.0 mph30.6 kmh 29.15 in987.1 mb 0.02 in0.5 mm 0.00 in0.0 mm 0.04 in1.0 mm
01:08 PM 33.9°F1.1°C 31.6°F-0.2°C 91% 14.7 mph SE23.7 kmh SE 24.0 mph38.6 kmh 29.15 in987.1 mb 0.02 in0.5 mm 0.00 in0.0 mm 0.04 in1.0 mm
01:09 PM 33.9°F1.1°C 31.3°F-0.4°C 90% 17.1 mph SE27.5 kmh SE 25.0 mph40.2 kmh 29.14 in986.8 mb 0.02 in0.5 mm 0.00 in0.0 mm 0.04 in1.0 mm
01:10 PM 33.9°F1.1°C 31.3°F-0.4°C 90% 15.7 mph SE25.3 kmh SE 25.0 mph40.2 kmh 29.14 in986.8 mb 0.02 in0.5 mm 0.00 in0.0 mm 0.04 in1.0 mm
01:11 PM 33.9°F1.1°C 31.3°F-0.4°C 90% 16.5 mph SE26.6 kmh SE 25.0 mph40.2 kmh 29.14 in986.8 mb 0.02 in0.5 mm 0.00 in0.0 mm 0.04 in1.0 mm
01:12 PM 33.9°F1.1°C 31.3°F-0.4°C 90% 19.9 mph SE32.0 kmh SE 28.0 mph45.1 kmh 29.14 in986.8 mb 0.02 in0.5 mm 0.00 in0.0 mm 0.04 in1.0 mm
01:13 PM 34.0°F1.1°C 31.4°F-0.3°C 90% 17.8 mph SE28.6 kmh SE 28.0 mph45.1 kmh 29.14 in986.8 mb 0.02 in0.5 mm 0.00 in0.0 mm 0.04 in1.0 mm
01:14 PM 34.0°F1.1°C 31.4°F-0.3°C 90% 16.6 mph SE26.7 kmh SE 23.0 mph37.0 kmh 29.14 in986.8 mb 0.02 in0.5 mm 0.00 in0.0 mm 0.04 in1.0 mm
01:15 PM 34.0°F1.1°C 31.4°F-0.3°C 90% 16.3 mph SE26.2 kmh SE 23.0 mph37.0 kmh 29.14 in986.8 mb 0.02 in0.5 mm 0.00 in0.0 mm 0.04 in1.0 mm
01:16 PM 34.0°F1.1°C 31.4°F-0.3°C 90% 13.9 mph SE22.4 kmh SE 21.0 mph33.8 kmh 29.14 in986.8 mb 0.02 in0.5 mm 0.00 in0.0 mm 0.04 in1.0 mm
01:17 PM 34.1°F1.2°C 31.5°F-0.3°C 90% 14.2 mph SE22.9 kmh SE 20.0 mph32.2 kmh 29.14 in986.8 mb 0.02 in0.5 mm 0.00 in0.0 mm 0.04 in1.0 mm
01:18 PM 34.0°F1.1°C 31.4°F-0.3°C 90% 16.6 mph SE26.7 kmh SE 24.0 mph38.6 kmh 29.14 in986.8 mb 0.02 in0.5 mm 0.00 in0.0 mm 0.04 in1.0 mm
01:19 PM 34.1°F1.2°C 31.5°F-0.3°C 90% 14.9 mph SE24.0 kmh SE 24.0 mph38.6 kmh 29.14 in986.8 mb 0.02 in0.5 mm 0.00 in0.0 mm 0.04 in1.0 mm
01:20 PM 34.1°F1.2°C 31.5°F-0.3°C 90% 16.0 mph SE25.7 kmh SE 24.0 mph38.6 kmh 29.14 in986.8 mb 0.02 in0.5 mm 0.00 in0.0 mm 0.04 in1.0 mm
01:21 PM 34.1°F1.2°C 31.5°F-0.3°C 90% 17.6 mph SE28.3 kmh SE 25.0 mph40.2 kmh 29.14 in986.8 mb 0.02 in0.5 mm 0.00 in0.0 mm 0.04 in1.0 mm
01:22 PM 34.1°F1.2°C 31.5°F-0.3°C 90% 18.5 mph SE29.8 kmh SE 25.0 mph40.2 kmh 29.14 in986.8 mb 0.02 in0.5 mm 0.00 in0.0 mm 0.04 in1.0 mm
01:23 PM 34.1°F1.2°C 31.5°F-0.3°C 90% 20.2 mph SE32.5 kmh SE 33.0 mph53.1 kmh 29.13 in986.5 mb 0.02 in0.5 mm 0.00 in0.0 mm 0.04 in1.0 mm
01:24 PM 34.1°F1.2°C 31.5°F-0.3°C 90% 20.5 mph SE33.0 kmh SE 33.0 mph53.1 kmh 29.13 in986.5 mb 0.02 in0.5 mm 0.00 in0.0 mm 0.04 in1.0 mm
01:25 PM 34.1°F1.2°C 31.5°F-0.3°C 90% 20.6 mph SE33.2 kmh SE 27.0 mph43.5 kmh 29.13 in986.5 mb 0.02 in0.5 mm 0.00 in0.0 mm 0.04 in1.0 mm
01:26 PM 34.1°F1.2°C 31.5°F-0.3°C 90% 18.6 mph SE29.9 kmh SE 25.0 mph40.2 kmh 29.13 in986.5 mb 0.02 in0.5 mm 0.00 in0.0 mm 0.04 in1.0 mm
01:27 PM 34.2°F1.2°C 31.3°F-0.4°C 89% 15.6 mph SE25.1 kmh SE 24.0 mph38.6 kmh 29.13 in986.5 mb 0.02 in0.5 mm 0.00 in0.0 mm 0.04 in1.0 mm
01:28 PM 34.2°F1.2°C 31.3°F-0.4°C 89% 15.0 mph SE24.1 kmh SE 23.0 mph37.0 kmh 29.13 in986.5 mb 0.02 in0.5 mm 0.00 in0.0 mm 0.04 in1.0 mm
01:29 PM 34.2°F1.2°C 31.3°F-0.4°C 89% 19.7 mph SE31.7 kmh SE 26.0 mph41.8 kmh 29.13 in986.5 mb 0.02 in0.5 mm 0.00 in0.0 mm 0.04 in1.0 mm
01:30 PM 34.2°F1.2°C 31.3°F-0.4°C 89% 14.8 mph SE23.8 kmh SE 26.0 mph41.8 kmh 29.13 in986.5 mb 0.02 in0.5 mm 0.00 in0.0 mm 0.04 in1.0 mm
01:31 PM 34.2°F1.2°C 31.3°F-0.4°C 89% 15.7 mph SE25.3 kmh SE 21.0 mph33.8 kmh 29.13 in986.5 mb 0.02 in0.5 mm 0.00 in0.0 mm 0.04 in1.0 mm
01:32 PM 34.2°F1.2°C 31.6°F-0.2°C 90% 15.5 mph SE24.9 kmh SE 21.0 mph33.8 kmh 29.13 in986.5 mb 0.02 in0.5 mm 0.00 in0.0 mm 0.04 in1.0 mm
01:33 PM 34.1°F1.2°C 31.2°F-0.4°C 89% 18.5 mph SE29.8 kmh SE 26.0 mph41.8 kmh 29.13 in986.5 mb 0.02 in0.5 mm 0.00 in0.0 mm 0.04 in1.0 mm
01:34 PM 34.1°F1.2°C 31.2°F-0.4°C 89% 18.1 mph SE29.1 kmh SE 26.0 mph41.8 kmh 29.13 in986.5 mb 0.02 in0.5 mm 0.00 in0.0 mm 0.04 in1.0 mm
01:35 PM 34.1°F1.2°C 31.2°F-0.4°C 89% 18.8 mph SE30.3 kmh SE 22.0 mph35.4 kmh 29.13 in986.5 mb 0.01 in0.3 mm 0.00 in0.0 mm 0.04 in1.0 mm
01:36 PM 34.1°F1.2°C 31.5°F-0.3°C 90% 16.5 mph SE26.6 kmh SE 27.0 mph43.5 kmh 29.13 in986.5 mb 0.01 in0.3 mm 0.00 in0.0 mm 0.04 in1.0 mm
01:37 PM 34.1°F1.2°C 31.5°F-0.3°C 90% 21.1 mph SE34.0 kmh SE 27.0 mph43.5 kmh 29.12 in986.1 mb 0.01 in0.3 mm 0.00 in0.0 mm 0.04 in1.0 mm
01:38 PM 34.1°F1.2°C 31.5°F-0.3°C 90% 16.3 mph SE26.2 kmh SE 26.0 mph41.8 kmh 29.12 in986.1 mb 0.01 in0.3 mm 0.00 in0.0 mm 0.04 in1.0 mm
01:39 PM 34.0°F1.1°C 31.4°F-0.3°C 90% 16.5 mph SE26.6 kmh SE 23.0 mph37.0 kmh 29.12 in986.1 mb 0.01 in0.3 mm 0.00 in0.0 mm 0.04 in1.0 mm
01:40 PM 34.1°F1.2°C 31.5°F-0.3°C 90% 15.7 mph SE25.3 kmh SE 23.0 mph37.0 kmh 29.12 in986.1 mb 0.01 in0.3 mm 0.00 in0.0 mm 0.04 in1.0 mm
01:41 PM 34.0°F1.1°C 31.4°F-0.3°C 90% 16.6 mph SE26.7 kmh SE 21.0 mph33.8 kmh 29.12 in986.1 mb 0.01 in0.3 mm 0.00 in0.0 mm 0.04 in1.0 mm
01:42 PM 34.0°F1.1°C 31.4°F-0.3°C 90% 18.1 mph SE29.1 kmh SE 23.0 mph37.0 kmh 29.12 in986.1 mb 0.01 in0.3 mm 0.00 in0.0 mm 0.04 in1.0 mm
01:43 PM 34.0°F1.1°C 31.4°F-0.3°C 90% 17.6 mph SE28.3 kmh SE 28.0 mph45.1 kmh 29.12 in986.1 mb 0.01 in0.3 mm 0.00 in0.0 mm 0.04 in1.0 mm
01:44 PM 34.0°F1.1°C 31.4°F-0.3°C 90% 18.7 mph SE30.1 kmh SE 28.0 mph45.1 kmh 29.12 in986.1 mb 0.01 in0.3 mm 0.00 in0.0 mm 0.04 in1.0 mm
01:45 PM 34.0°F1.1°C 31.4°F-0.3°C 90% 17.5 mph SE28.2 kmh SE 26.0 mph41.8 kmh 29.12 in986.1 mb 0.01 in0.3 mm 0.00 in0.0 mm 0.04 in1.0 mm
01:46 PM 34.0°F1.1°C 31.4°F-0.3°C 90% 16.1 mph ESE25.9 kmh ESE 26.0 mph41.8 kmh 29.12 in986.1 mb 0.01 in0.3 mm 0.00 in0.0 mm 0.04 in1.0 mm
01:47 PM 34.0°F1.1°C 31.4°F-0.3°C 90% 16.9 mph SE27.2 kmh SE 25.0 mph40.2 kmh 29.11 in985.8 mb 0.01 in0.3 mm 0.00 in0.0 mm 0.04 in1.0 mm
01:48 PM 34.0°F1.1°C 31.4°F-0.3°C 90% 17.7 mph SE28.5 kmh SE 24.0 mph38.6 kmh 29.11 in985.8 mb 0.01 in0.3 mm 0.00 in0.0 mm 0.04 in1.0 mm
01:49 PM 34.0°F1.1°C 31.4°F-0.3°C 90% 17.1 mph SE27.5 kmh SE 24.0 mph38.6 kmh 29.11 in985.8 mb 0.01 in0.3 mm 0.00 in0.0 mm 0.04 in1.0 mm
01:50 PM 34.0°F1.1°C 31.4°F-0.3°C 90% 15.6 mph SE25.1 kmh SE 23.0 mph37.0 kmh 29.11 in985.8 mb 0.01 in0.3 mm 0.00 in0.0 mm 0.04 in1.0 mm
01:51 PM 33.9°F1.1°C 31.3°F-0.4°C 90% 13.7 mph SE22.0 kmh SE 22.0 mph35.4 kmh 29.11 in985.8 mb 0.01 in0.3 mm 0.00 in0.0 mm 0.04 in1.0 mm
01:52 PM 33.9°F1.1°C 31.3°F-0.4°C 90% 18.7 mph SE30.1 kmh SE 26.0 mph41.8 kmh 29.11 in985.8 mb 0.01 in0.3 mm 0.00 in0.0 mm 0.04 in1.0 mm
01:53 PM 34.0°F1.1°C 31.4°F-0.3°C 90% 14.9 mph SE24.0 kmh SE 26.0 mph41.8 kmh 29.11 in985.8 mb 0.01 in0.3 mm 0.00 in0.0 mm 0.04 in1.0 mm
01:54 PM 34.0°F1.1°C 31.4°F-0.3°C 90% 17.6 mph SE28.3 kmh SE 24.0 mph38.6 kmh 29.11 in985.8 mb 0.01 in0.3 mm 0.00 in0.0 mm 0.04 in1.0 mm
01:55 PM 33.9°F1.1°C 31.3°F-0.4°C 90% 18.1 mph SE29.1 kmh SE 26.0 mph41.8 kmh 29.11 in985.8 mb 0.01 in0.3 mm 0.00 in0.0 mm 0.04 in1.0 mm
01:56 PM 34.0°F1.1°C 31.4°F-0.3°C 90% 16.8 mph SE27.0 kmh SE 26.0 mph41.8 kmh 29.10 in985.4 mb 0.01 in0.3 mm 0.00 in0.0 mm 0.04 in1.0 mm
01:57 PM 34.0°F1.1°C 31.4°F-0.3°C 90% 15.9 mph SE25.6 kmh SE 24.0 mph38.6 kmh 29.10 in985.4 mb 0.01 in0.3 mm 0.00 in0.0 mm 0.04 in1.0 mm
01:58 PM 34.0°F1.1°C 31.4°F-0.3°C 90% 18.0 mph SE29.0 kmh SE 23.0 mph37.0 kmh 29.10 in985.4 mb 0.01 in0.3 mm 0.00 in0.0 mm 0.04 in1.0 mm
01:59 PM 34.0°F1.1°C 31.4°F-0.3°C 90% 17.1 mph SE27.5 kmh SE 25.0 mph40.2 kmh 29.10 in985.4 mb 0.01 in0.3 mm 0.00 in0.0 mm 0.04 in1.0 mm
02:00 PM 34.0°F1.1°C 31.4°F-0.3°C 90% 15.9 mph SE25.6 kmh SE 25.0 mph40.2 kmh 29.10 in985.4 mb 0.01 in0.3 mm 0.00 in0.0 mm 0.04 in1.0 mm
02:01 PM 34.0°F1.1°C 31.4°F-0.3°C 90% 16.4 mph SE26.4 kmh SE 21.0 mph33.8 kmh 29.10 in985.4 mb 0.01 in0.3 mm 0.00 in0.0 mm 0.04 in1.0 mm
02:02 PM 34.1°F1.2°C 31.5°F-0.3°C 90% 14.5 mph SE23.3 kmh SE 21.0 mph33.8 kmh 29.10 in985.4 mb 0.00 in0.0 mm 0.00 in0.0 mm 0.04 in1.0 mm
02:03 PM 34.0°F1.1°C 31.4°F-0.3°C 90% 14.6 mph SE23.5 kmh SE 19.0 mph30.6 kmh 29.10 in985.4 mb 0.00 in0.0 mm 0.00 in0.0 mm 0.04 in1.0 mm
02:04 PM 34.1°F1.2°C 31.5°F-0.3°C 90% 18.2 mph SE29.3 kmh SE 21.0 mph33.8 kmh 29.10 in985.4 mb 0.00 in0.0 mm 0.00 in0.0 mm 0.04 in1.0 mm
02:05 PM 34.0°F1.1°C 31.4°F-0.3°C 90% 15.0 mph SE24.1 kmh SE 22.0 mph35.4 kmh 29.10 in985.4 mb 0.00 in0.0 mm 0.00 in0.0 mm 0.04 in1.0 mm
02:06 PM 34.0°F1.1°C 31.4°F-0.3°C 90% 13.8 mph SE22.2 kmh SE 22.0 mph35.4 kmh 29.10 in985.4 mb 0.00 in0.0 mm 0.00 in0.0 mm 0.04 in1.0 mm
02:07 PM 34.0°F1.1°C 31.4°F-0.3°C 90% 16.8 mph SE27.0 kmh SE 23.0 mph37.0 kmh 29.10 in985.4 mb 0.00 in0.0 mm 0.00 in0.0 mm 0.04 in1.0 mm
02:08 PM 34.0°F1.1°C 31.4°F-0.3°C 90% 16.2 mph SE26.1 kmh SE 25.0 mph40.2 kmh 29.10 in985.4 mb 0.00 in0.0 mm 0.00 in0.0 mm 0.04 in1.0 mm
02:09 PM 34.0°F1.1°C 31.4°F-0.3°C 90% 14.3 mph SE23.0 kmh SE 25.0 mph40.2 kmh 29.10 in985.4 mb 0.00 in0.0 mm 0.00 in0.0 mm 0.04 in1.0 mm
02:10 PM 34.1°F1.2°C 31.5°F-0.3°C 90% 18.5 mph SE29.8 kmh SE 26.0 mph41.8 kmh 29.09 in985.1 mb 0.00 in0.0 mm 0.00 in0.0 mm 0.04 in1.0 mm
02:11 PM 34.0°F1.1°C 31.4°F-0.3°C 90% 16.4 mph SE26.4 kmh SE 26.0 mph41.8 kmh 29.09 in985.1 mb 0.00 in0.0 mm 0.00 in0.0 mm 0.04 in1.0 mm
02:12 PM 34.0°F1.1°C 31.4°F-0.3°C 90% 15.9 mph SE25.6 kmh SE 22.0 mph35.4 kmh 29.09 in985.1 mb 0.00 in0.0 mm 0.00 in0.0 mm 0.04 in1.0 mm
02:13 PM 34.0°F1.1°C 31.4°F-0.3°C 90% 16.0 mph SE25.7 kmh SE 22.0 mph35.4 kmh 29.09 in985.1 mb 0.00 in0.0 mm 0.00 in0.0 mm 0.04 in1.0 mm
02:14 PM 34.0°F1.1°C 31.4°F-0.3°C 90% 14.9 mph SE24.0 kmh SE 25.0 mph40.2 kmh 29.09 in985.1 mb 0.00 in0.0 mm 0.00 in0.0 mm 0.04 in1.0 mm
02:15 PM 34.0°F1.1°C 31.4°F-0.3°C 90% 16.0 mph SE25.7 kmh SE 27.0 mph43.5 kmh 29.09 in985.1 mb 0.00 in0.0 mm 0.00 in0.0 mm 0.04 in1.0 mm
02:16 PM 34.1°F1.2°C 31.5°F-0.3°C 90% 16.8 mph SE27.0 kmh SE 27.0 mph43.5 kmh 29.09 in985.1 mb 0.00 in0.0 mm 0.00 in0.0 mm 0.04 in1.0 mm
02:17 PM 34.0°F1.1°C 31.7°F-0.2°C 91% 17.4 mph SE28.0 kmh SE 23.0 mph37.0 kmh 29.09 in985.1 mb 0.00 in0.0 mm 0.00 in0.0 mm 0.04 in1.0 mm
02:18 PM 34.0°F1.1°C 31.7°F-0.2°C 91% 11.5 mph ESE18.5 kmh ESE 23.0 mph37.0 kmh 29.09 in985.1 mb 0.00 in0.0 mm 0.00 in0.0 mm 0.04 in1.0 mm
02:19 PM 34.0°F1.1°C 31.7°F-0.2°C 91% 18.1 mph ESE29.1 kmh ESE 23.0 mph37.0 kmh 29.09 in985.1 mb 0.00 in0.0 mm 0.00 in0.0 mm 0.04 in1.0 mm
02:20 PM 34.1°F1.2°C 31.8°F-0.1°C 91% 16.3 mph SE26.2 kmh SE 23.0 mph37.0 kmh 29.09 in985.1 mb 0.00 in0.0 mm 0.00 in0.0 mm 0.04 in1.0 mm
02:21 PM 34.1°F1.2°C 31.8°F-0.1°C 91% 16.6 mph SE26.7 kmh SE 22.0 mph35.4 kmh 29.09 in985.1 mb 0.00 in0.0 mm 0.00 in0.0 mm 0.04 in1.0 mm
02:22 PM 34.0°F1.1°C 31.7°F-0.2°C 91% 13.9 mph SE22.4 kmh SE 22.0 mph35.4 kmh 29.09 in985.1 mb 0.00 in0.0 mm 0.00 in0.0 mm 0.04 in1.0 mm
02:23 PM 34.0°F1.1°C 31.7°F-0.2°C 91% 16.6 mph SE26.7 kmh SE 27.0 mph43.5 kmh 29.09 in985.1 mb 0.00 in0.0 mm 0.00 in0.0 mm 0.04 in1.0 mm
02:24 PM 34.1°F1.2°C 31.8°F-0.1°C 91% 16.5 mph SE26.6 kmh SE 28.0 mph45.1 kmh 29.08 in984.8 mb 0.00 in0.0 mm 0.00 in0.0 mm 0.04 in1.0 mm
02:25 PM 34.1°F1.2°C 31.8°F-0.1°C 91% 16.6 mph SE26.7 kmh SE 28.0 mph45.1 kmh 29.08 in984.8 mb 0.00 in0.0 mm 0.00 in0.0 mm 0.04 in1.0 mm
02:26 PM 34.2°F1.2°C 31.9°F-0.1°C 91% 16.1 mph SE25.9 kmh SE 24.0 mph38.6 kmh 29.09 in985.1 mb 0.00 in0.0 mm 0.00 in0.0 mm 0.04 in1.0 mm
02:27 PM 34.2°F1.2°C 31.9°F-0.1°C 91% 17.8 mph SE28.6 kmh SE 22.0 mph35.4 kmh 29.08 in984.8 mb 0.00 in0.0 mm 0.00 in0.0 mm 0.04 in1.0 mm
02:28 PM 34.2°F1.2°C 31.9°F-0.1°C 91% 14.6 mph SE23.5 kmh SE 22.0 mph35.4 kmh 29.08 in984.8 mb 0.00 in0.0 mm 0.00 in0.0 mm 0.04 in1.0 mm
02:29 PM 34.2°F1.2°C 31.9°F-0.1°C 91% 15.2 mph SE24.5 kmh SE 21.0 mph33.8 kmh 29.08 in984.8 mb 0.00 in0.0 mm 0.00 in0.0 mm 0.04 in1.0 mm
02:30 PM 34.3°F1.3°C 32.0°F0.0°C 91% 15.5 mph SE24.9 kmh SE 22.0 mph35.4 kmh 29.08 in984.8 mb 0.00 in0.0 mm 0.00 in0.0 mm 0.04 in1.0 mm
02:31 PM 34.3°F1.3°C 32.0°F0.0°C 91% 14.4 mph SE23.2 kmh SE 22.0 mph35.4 kmh 29.08 in984.8 mb 0.00 in0.0 mm 0.00 in0.0 mm 0.04 in1.0 mm
02:32 PM 34.3°F1.3°C 31.7°F-0.2°C 90% 14.4 mph SE23.2 kmh SE 21.0 mph33.8 kmh 29.08 in984.8 mb 0.00 in0.0 mm 0.00 in0.0 mm 0.04 in1.0 mm
02:33 PM 34.3°F1.3°C 32.0°F0.0°C 91% 16.5 mph SE26.6 kmh SE 24.0 mph38.6 kmh 29.08 in984.8 mb 0.00 in0.0 mm 0.00 in0.0 mm 0.04 in1.0 mm
02:34 PM 34.2°F1.2°C 31.9°F-0.1°C 91% 15.9 mph SE25.6 kmh SE 24.0 mph38.6 kmh 29.08 in984.8 mb 0.00 in0.0 mm 0.00 in0.0 mm 0.04 in1.0 mm
02:35 PM 34.3°F1.3°C 32.0°F0.0°C 91% 16.1 mph SE25.9 kmh SE 20.0 mph32.2 kmh 29.08 in984.8 mb 0.00 in0.0 mm 0.00 in0.0 mm 0.04 in1.0 mm
02:36 PM 34.3°F1.3°C 32.0°F0.0°C 91% 20.7 mph SE33.3 kmh SE 23.0 mph37.0 kmh 29.08 in984.8 mb 0.00 in0.0 mm 0.00 in0.0 mm 0.04 in1.0 mm
02:37 PM 34.3°F1.3°C 31.7°F-0.2°C 90% 20.5 mph SE33.0 kmh SE 24.0 mph38.6 kmh 29.07 in984.4 mb 0.00 in0.0 mm 0.00 in0.0 mm 0.04 in1.0 mm
02:38 PM 34.4°F1.3°C 31.8°F-0.1°C 90% 18.3 mph SE29.5 kmh SE 24.0 mph38.6 kmh 29.07 in984.4 mb 0.00 in0.0 mm 0.00 in0.0 mm 0.04 in1.0 mm
02:39 PM 34.4°F1.3°C 32.1°F0.1°C 91% 15.2 mph SE24.5 kmh SE 23.0 mph37.0 kmh 29.08 in984.8 mb 0.00 in0.0 mm 0.00 in0.0 mm 0.04 in1.0 mm
02:40 PM 34.4°F1.3°C 32.1°F0.1°C 91% 16.3 mph SE26.2 kmh SE 20.0 mph32.2 kmh 29.07 in984.4 mb 0.00 in0.0 mm 0.00 in0.0 mm 0.04 in1.0 mm
02:41 PM 34.4°F1.3°C 32.1°F0.1°C 91% 18.7 mph SE30.1 kmh SE 25.0 mph40.2 kmh 29.07 in984.4 mb 0.00 in0.0 mm 0.00 in0.0 mm 0.04 in1.0 mm
02:42 PM 34.4°F1.3°C 32.1°F0.1°C 91% 18.4 mph SE29.6 kmh SE 25.0 mph40.2 kmh 29.07 in984.4 mb 0.00 in0.0 mm 0.00 in0.0 mm 0.04 in1.0 mm
02:43 PM 34.4°F1.3°C 31.8°F-0.1°C 90% 17.5 mph SE28.2 kmh SE 25.0 mph40.2 kmh 29.07 in984.4 mb 0.00 in0.0 mm 0.00 in0.0 mm 0.04 in1.0 mm
02:44 PM 34.5°F1.4°C 31.9°F-0.1°C 90% 18.5 mph SE29.8 kmh SE 28.0 mph45.1 kmh 29.07 in984.4 mb 0.00 in0.0 mm 0.00 in0.0 mm 0.04 in1.0 mm
02:45 PM 34.5°F1.4°C 31.9°F-0.1°C 90% 18.9 mph SE30.4 kmh SE 28.0 mph45.1 kmh 29.07 in984.4 mb 0.00 in0.0 mm 0.00 in0.0 mm 0.04 in1.0 mm
02:46 PM 34.5°F1.4°C 31.9°F-0.1°C 90% 19.4 mph SE31.2 kmh SE 26.0 mph41.8 kmh 29.07 in984.4 mb 0.00 in0.0 mm 0.00 in0.0 mm 0.04 in1.0 mm
02:47 PM 34.6°F1.4°C 32.0°F0.0°C 90% 14.3 mph SE23.0 kmh SE 26.0 mph41.8 kmh 29.07 in984.4 mb 0.00 in0.0 mm 0.00 in0.0 mm 0.04 in1.0 mm
02:48 PM 34.6°F1.4°C 32.0°F0.0°C 90% 16.0 mph SE25.7 kmh SE 21.0 mph33.8 kmh 29.07 in984.4 mb 0.00 in0.0 mm 0.00 in0.0 mm 0.04 in1.0 mm
02:49 PM 34.6°F1.4°C 32.0°F0.0°C 90% 20.1 mph SE32.3 kmh SE 29.0 mph46.7 kmh 29.07 in984.4 mb 0.00 in0.0 mm 0.00 in0.0 mm 0.04 in1.0 mm
02:50 PM 34.6°F1.4°C 32.0°F0.0°C 90% 18.1 mph SE29.1 kmh SE 29.0 mph46.7 kmh 29.07 in984.4 mb 0.00 in0.0 mm 0.00 in0.0 mm 0.04 in1.0 mm
02:51 PM 34.6°F1.4°C 32.0°F0.0°C 90% 19.5 mph SE31.4 kmh SE 28.0 mph45.1 kmh 29.07 in984.4 mb 0.00 in0.0 mm 0.00 in0.0 mm 0.04 in1.0 mm
02:52 PM 34.7°F1.5°C 32.1°F0.1°C 90% 17.0 mph SE27.4 kmh SE 28.0 mph45.1 kmh 29.07 in984.4 mb 0.00 in0.0 mm 0.00 in0.0 mm 0.04 in1.0 mm
02:53 PM 34.7°F1.5°C 32.1°F0.1°C 90% 16.5 mph ESE26.6 kmh ESE 22.0 mph35.4 kmh 29.07 in984.4 mb 0.00 in0.0 mm 0.00 in0.0 mm 0.04 in1.0 mm
02:54 PM 34.7°F1.5°C 32.1°F0.1°C 90% 17.7 mph ESE28.5 kmh ESE 28.0 mph45.1 kmh 29.07 in984.4 mb 0.00 in0.0 mm 0.00 in0.0 mm 0.04 in1.0 mm
02:55 PM 34.7°F1.5°C 32.1°F0.1°C 90% 17.8 mph SE28.6 kmh SE 28.0 mph45.1 kmh 29.07 in984.4 mb 0.00 in0.0 mm 0.00 in0.0 mm 0.04 in1.0 mm
02:56 PM 34.7°F1.5°C 32.1°F0.1°C 90% 15.2 mph SE24.5 kmh SE 24.0 mph38.6 kmh 29.07 in984.4 mb 0.00 in0.0 mm 0.00 in0.0 mm 0.04 in1.0 mm
02:57 PM 34.7°F1.5°C 32.1°F0.1°C 90% 14.2 mph SE22.9 kmh SE 22.0 mph35.4 kmh 29.07 in984.4 mb 0.00 in0.0 mm 0.00 in0.0 mm 0.04 in1.0 mm
02:58 PM 34.7°F1.5°C 32.1°F0.1°C 90% 14.4 mph SE23.2 kmh SE 22.0 mph35.4 kmh 29.06 in984.1 mb 0.00 in0.0 mm 0.00 in0.0 mm 0.04 in1.0 mm
02:59 PM 34.8°F1.6°C 32.2°F0.1°C 90% 17.7 mph ESE28.5 kmh ESE 23.0 mph37.0 kmh 29.06 in984.1 mb 0.00 in0.0 mm 0.00 in0.0 mm 0.04 in1.0 mm
03:00 PM 34.8°F1.6°C 32.2°F0.1°C 90% 16.4 mph SE26.4 kmh SE 23.0 mph37.0 kmh 29.06 in984.1 mb 0.00 in0.0 mm 0.00 in0.0 mm 0.04 in1.0 mm
03:01 PM 34.8°F1.6°C 32.2°F0.1°C 90% 21.1 mph SE34.0 kmh SE 29.0 mph46.7 kmh 29.06 in984.1 mb 0.00 in0.0 mm 0.00 in0.0 mm 0.04 in1.0 mm
03:02 PM 34.8°F1.6°C 32.2°F0.1°C 90% 14.9 mph SE24.0 kmh SE 29.0 mph46.7 kmh 29.06 in984.1 mb 0.00 in0.0 mm 0.00 in0.0 mm 0.04 in1.0 mm
03:03 PM 34.9°F1.6°C 32.3°F0.2°C 90% 17.1 mph SE27.5 kmh SE 24.0 mph38.6 kmh 29.06 in984.1 mb 0.00 in0.0 mm 0.00 in0.0 mm 0.04 in1.0 mm
03:04 PM 34.9°F1.6°C 32.3°F0.2°C 90% 15.0 mph SE24.1 kmh SE 21.0 mph33.8 kmh 29.06 in984.1 mb 0.00 in0.0 mm 0.00 in0.0 mm 0.04 in1.0 mm
03:05 PM 34.9°F1.6°C 32.3°F0.2°C 90% 14.7 mph SE23.7 kmh SE 21.0 mph33.8 kmh 29.06 in984.1 mb 0.00 in0.0 mm 0.00 in0.0 mm 0.04 in1.0 mm
03:06 PM 34.9°F1.6°C 32.3°F0.2°C 90% 20.0 mph SE32.2 kmh SE 28.0 mph45.1 kmh 29.06 in984.1 mb 0.00 in0.0 mm 0.00 in0.0 mm 0.04 in1.0 mm
03:07 PM 34.9°F1.6°C 32.3°F0.2°C 90% 18.9 mph SE30.4 kmh SE 28.0 mph45.1 kmh 29.06 in984.1 mb 0.00 in0.0 mm 0.00 in0.0 mm 0.04 in1.0 mm
03:08 PM 35.0°F1.7°C 32.4°F0.2°C 90% 17.1 mph SE27.5 kmh SE 24.0 mph38.6 kmh 29.05 in983.7 mb 0.00 in0.0 mm 0.00 in0.0 mm 0.04 in1.0 mm
03:09 PM 35.1°F1.7°C 32.5°F0.3°C 90% 19.4 mph SE31.2 kmh SE 23.0 mph37.0 kmh 29.05 in983.7 mb 0.00 in0.0 mm 0.00 in0.0 mm 0.04 in1.0 mm
03:10 PM 35.1°F1.7°C 32.5°F0.3°C 90% 17.5 mph SE28.2 kmh SE 26.0 mph41.8 kmh 29.05 in983.7 mb 0.00 in0.0 mm 0.00 in0.0 mm 0.04 in1.0 mm
03:11 PM 35.1°F1.7°C 32.5°F0.3°C 90% 18.2 mph SE29.3 kmh SE 26.0 mph41.8 kmh 29.05 in983.7 mb 0.00 in0.0 mm 0.00 in0.0 mm 0.04 in1.0 mm
03:12 PM 35.2°F1.8°C 32.6°F0.3°C 90% 16.6 mph SE26.7 kmh SE 25.0 mph40.2 kmh 29.05 in983.7 mb 0.00 in0.0 mm 0.00 in0.0 mm 0.04 in1.0 mm
03:13 PM 35.2°F1.8°C 32.6°F0.3°C 90% 15.3 mph ESE24.6 kmh ESE 23.0 mph37.0 kmh 29.05 in983.7 mb 0.00 in0.0 mm 0.00 in0.0 mm 0.04 in1.0 mm
03:14 PM 35.2°F1.8°C 32.6°F0.3°C 90% 17.6 mph SE28.3 kmh SE 24.0 mph38.6 kmh 29.05 in983.7 mb 0.00 in0.0 mm 0.00 in0.0 mm 0.04 in1.0 mm
03:15 PM 35.2°F1.8°C 32.6°F0.3°C 90% 18.2 mph SE29.3 kmh SE 28.0 mph45.1 kmh 29.05 in983.7 mb 0.00 in0.0 mm 0.00 in0.0 mm 0.04 in1.0 mm
03:16 PM 35.2°F1.8°C 32.6°F0.3°C 90% 16.9 mph SE27.2 kmh SE 28.0 mph45.1 kmh 29.05 in983.7 mb 0.00 in0.0 mm 0.00 in0.0 mm 0.04 in1.0 mm
03:17 PM 35.3°F1.8°C 32.7°F0.4°C 90% 17.4 mph SE28.0 kmh SE 25.0 mph40.2 kmh 29.05 in983.7 mb 0.00 in0.0 mm 0.00 in0.0 mm 0.04 in1.0 mm
03:18 PM 35.2°F1.8°C 32.6°F0.3°C 90% 17.0 mph SE27.4 kmh SE 25.0 mph40.2 kmh 29.05 in983.7 mb 0.00 in0.0 mm 0.00 in0.0 mm 0.04 in1.0 mm
03:19 PM 35.3°F1.8°C 32.7°F0.4°C 90% 15.0 mph SE24.1 kmh SE 26.0 mph41.8 kmh 29.05 in983.7 mb 0.00 in0.0 mm 0.00 in0.0 mm 0.04 in1.0 mm
03:20 PM 35.3°F1.8°C 32.7°F0.4°C 90% 17.3 mph SE27.8 kmh SE 26.0 mph41.8 kmh 29.04 in983.4 mb 0.00 in0.0 mm 0.00 in0.0 mm 0.04 in1.0 mm
03:21 PM 35.4°F1.9°C 32.8°F0.4°C 90% 16.4 mph ESE26.4 kmh ESE 26.0 mph41.8 kmh 29.04 in983.4 mb 0.00 in0.0 mm 0.00 in0.0 mm 0.04 in1.0 mm
03:22 PM 35.4°F1.9°C 32.8°F0.4°C 90% 17.8 mph SE28.6 kmh SE 24.0 mph38.6 kmh 29.04 in983.4 mb 0.00 in0.0 mm 0.00 in0.0 mm 0.04 in1.0 mm
03:23 PM 35.4°F1.9°C 32.8°F0.4°C 90% 19.9 mph SE32.0 kmh SE 29.0 mph46.7 kmh 29.04 in983.4 mb 0.00 in0.0 mm 0.00 in0.0 mm 0.04 in1.0 mm
03:24 PM 35.4°F1.9°C 32.8°F0.4°C 90% 13.9 mph ESE22.4 kmh ESE 29.0 mph46.7 kmh 29.04 in983.4 mb 0.00 in0.0 mm 0.00 in0.0 mm 0.04 in1.0 mm
03:25 PM 35.5°F1.9°C 32.9°F0.5°C 90% 15.3 mph SE24.6 kmh SE 22.0 mph35.4 kmh 29.04 in983.4 mb 0.00 in0.0 mm 0.00 in0.0 mm 0.04 in1.0 mm
03:26 PM 35.5°F1.9°C 32.9°F0.5°C 90% 17.2 mph SE27.7 kmh SE 23.0 mph37.0 kmh 29.04 in983.4 mb 0.00 in0.0 mm 0.00 in0.0 mm 0.04 in1.0 mm
03:27 PM 35.5°F1.9°C 32.9°F0.5°C 90% 17.0 mph SE27.4 kmh SE 23.0 mph37.0 kmh 29.04 in983.4 mb 0.00 in0.0 mm 0.00 in0.0 mm 0.04 in1.0 mm
03:28 PM 35.5°F1.9°C 32.9°F0.5°C 90% 14.8 mph SE23.8 kmh SE 23.0 mph37.0 kmh 29.04 in983.4 mb 0.00 in0.0 mm 0.00 in0.0 mm 0.04 in1.0 mm
03:29 PM 35.5°F1.9°C 32.9°F0.5°C 90% 15.2 mph SE24.5 kmh SE 23.0 mph37.0 kmh 29.04 in983.4 mb 0.00 in0.0 mm 0.00 in0.0 mm 0.04 in1.0 mm
03:30 PM 35.5°F1.9°C 32.9°F0.5°C 90% 17.6 mph SE28.3 kmh SE 23.0 mph37.0 kmh 29.04 in983.4 mb 0.00 in0.0 mm 0.00 in0.0 mm 0.04 in1.0 mm
03:31 PM 35.5°F1.9°C 32.9°F0.5°C 90% 17.5 mph SE28.2 kmh SE 26.0 mph41.8 kmh 29.04 in983.4 mb 0.00 in0.0 mm 0.00 in0.0 mm 0.04 in1.0 mm
03:32 PM 35.5°F1.9°C 32.9°F0.5°C 90% 13.0 mph SE20.9 kmh SE 26.0 mph41.8 kmh 29.03 in983.1 mb 0.00 in0.0 mm 0.00 in0.0 mm 0.04 in1.0 mm
03:33 PM 35.5°F1.9°C 32.9°F0.5°C 90% 19.2 mph SE30.9 kmh SE 24.0 mph38.6 kmh 29.03 in983.1 mb 0.00 in0.0 mm 0.00 in0.0 mm 0.04 in1.0 mm
03:34 PM 35.5°F1.9°C 32.9°F0.5°C 90% 14.2 mph SE22.9 kmh SE 24.0 mph38.6 kmh 29.03 in983.1 mb 0.00 in0.0 mm 0.00 in0.0 mm 0.04 in1.0 mm
03:35 PM 35.5°F1.9°C 32.9°F0.5°C 90% 18.9 mph SE30.4 kmh SE 28.0 mph45.1 kmh 29.03 in983.1 mb 0.00 in0.0 mm 0.00 in0.0 mm 0.04 in1.0 mm
03:36 PM 35.6°F2.0°C 33.0°F0.6°C 90% 16.3 mph SE26.2 kmh SE 28.0 mph45.1 kmh 29.03 in983.1 mb 0.00 in0.0 mm 0.00 in0.0 mm 0.04 in1.0 mm
03:37 PM 35.6°F2.0°C 33.0°F0.6°C 90% 15.6 mph SE25.1 kmh SE 21.0 mph33.8 kmh 29.03 in983.1 mb 0.00 in0.0 mm 0.00 in0.0 mm 0.04 in1.0 mm
03:38 PM 35.7°F2.1°C 33.1°F0.6°C 90% 14.0 mph SE22.5 kmh SE 23.0 mph37.0 kmh 29.03 in983.1 mb 0.00 in0.0 mm 0.00 in0.0 mm 0.04 in1.0 mm
03:39 PM 35.7°F2.1°C 33.1°F0.6°C 90% 15.2 mph SE24.5 kmh SE 23.0 mph37.0 kmh 29.03 in983.1 mb 0.00 in0.0 mm 0.00 in0.0 mm 0.04 in1.0 mm
03:40 PM 35.7°F2.1°C 33.1°F0.6°C 90% 15.9 mph SE25.6 kmh SE 22.0 mph35.4 kmh 29.03 in983.1 mb 0.00 in0.0 mm 0.00 in0.0 mm 0.04 in1.0 mm
03:41 PM 35.7°F2.1°C 33.1°F0.6°C 90% 17.0 mph SE27.4 kmh SE 22.0 mph35.4 kmh 29.03 in983.1 mb 0.00 in0.0 mm 0.00 in0.0 mm 0.04 in1.0 mm
03:42 PM 35.8°F2.1°C 33.2°F0.7°C 90% 16.4 mph SE26.4 kmh SE 22.0 mph35.4 kmh 29.02 in982.7 mb 0.00 in0.0 mm 0.00 in0.0 mm 0.04 in1.0 mm
03:43 PM 35.8°F2.1°C 33.2°F0.7°C 90% 18.2 mph SE29.3 kmh SE 26.0 mph41.8 kmh 29.02 in982.7 mb 0.00 in0.0 mm 0.00 in0.0 mm 0.04 in1.0 mm
03:44 PM 35.9°F2.2°C 33.3°F0.7°C 90% 17.5 mph SE28.2 kmh SE 26.0 mph41.8 kmh 29.02 in982.7 mb 0.00 in0.0 mm 0.00 in0.0 mm 0.04 in1.0 mm
03:45 PM 35.9°F2.2°C 33.3°F0.7°C 90% 16.8 mph SE27.0 kmh SE 24.0 mph38.6 kmh 29.02 in982.7 mb 0.00 in0.0 mm 0.00 in0.0 mm 0.04 in1.0 mm
03:46 PM 36.0°F2.2°C 33.4°F0.8°C 90% 18.3 mph SE29.5 kmh SE 24.0 mph38.6 kmh 29.02 in982.7 mb 0.00 in0.0 mm 0.00 in0.0 mm 0.04 in1.0 mm
03:47 PM 36.0°F2.2°C 33.1°F0.6°C 89% 18.5 mph SE29.8 kmh SE 24.0 mph38.6 kmh 29.02 in982.7 mb 0.00 in0.0 mm 0.00 in0.0 mm 0.04 in1.0 mm
03:48 PM 36.1°F2.3°C 33.2°F0.7°C 89% 15.5 mph SE24.9 kmh SE 25.0 mph40.2 kmh 29.02 in982.7 mb 0.00 in0.0 mm 0.00 in0.0 mm 0.04 in1.0 mm
03:49 PM 36.2°F2.3°C 33.3°F0.7°C 89% 18.5 mph SE29.8 kmh SE 25.0 mph40.2 kmh 29.02 in982.7 mb 0.00 in0.0 mm 0.00 in0.0 mm 0.04 in1.0 mm
03:50 PM 36.2°F2.3°C 33.3°F0.7°C 89% 20.0 mph SE32.2 kmh SE 25.0 mph40.2 kmh 29.02 in982.7 mb 0.00 in0.0 mm 0.00 in0.0 mm 0.04 in1.0 mm
03:51 PM 36.2°F2.3°C 33.3°F0.7°C 89% 16.1 mph SE25.9 kmh SE 25.0 mph40.2 kmh 29.02 in982.7 mb 0.00 in0.0 mm 0.00 in0.0 mm 0.04 in1.0 mm
03:52 PM 36.2°F2.3°C 33.3°F0.7°C 89% 14.7 mph SE23.7 kmh SE 25.0 mph40.2 kmh 29.02 in982.7 mb 0.00 in0.0 mm 0.00 in0.0 mm 0.04 in1.0 mm
03:53 PM 36.2°F2.3°C 33.3°F0.7°C 89% 16.0 mph SE25.7 kmh SE 23.0 mph37.0 kmh 29.02 in982.7 mb 0.00 in0.0 mm 0.00 in0.0 mm 0.04 in1.0 mm
03:54 PM 36.3°F2.4°C 33.4°F0.8°C 89% 17.3 mph SE27.8 kmh SE 25.0 mph40.2 kmh 29.02 in982.7 mb 0.00 in0.0 mm 0.00 in0.0 mm 0.04 in1.0 mm
03:55 PM 36.3°F2.4°C 33.4°F0.8°C 89% 18.2 mph SE29.3 kmh SE 29.0 mph46.7 kmh 29.01 in982.4 mb 0.00 in0.0 mm 0.00 in0.0 mm 0.04 in1.0 mm
03:56 PM 36.3°F2.4°C 33.4°F0.8°C 89% 17.4 mph SE28.0 kmh SE 29.0 mph46.7 kmh 29.02 in982.7 mb 0.00 in0.0 mm 0.00 in0.0 mm 0.04 in1.0 mm
03:57 PM 36.3°F2.4°C 33.4°F0.8°C 89% 17.9 mph SE28.8 kmh SE 28.0 mph45.1 kmh 29.01 in982.4 mb 0.00 in0.0 mm 0.00 in0.0 mm 0.04 in1.0 mm
03:58 PM 36.4°F2.4°C 33.5°F0.8°C 89% 18.6 mph SE29.9 kmh SE 28.0 mph45.1 kmh 29.01 in982.4 mb 0.00 in0.0 mm 0.00 in0.0 mm 0.04 in1.0 mm
03:59 PM 36.3°F2.4°C 33.4°F0.8°C 89% 21.2 mph SE34.1 kmh SE 29.0 mph46.7 kmh 29.01 in982.4 mb 0.00 in0.0 mm 0.00 in0.0 mm 0.04 in1.0 mm
04:00 PM 36.3°F2.4°C 33.4°F0.8°C 89% 17.7 mph SE28.5 kmh SE 29.0 mph46.7 kmh 29.01 in982.4 mb 0.00 in0.0 mm 0.00 in0.0 mm 0.04 in1.0 mm
04:01 PM 36.4°F2.4°C 33.5°F0.8°C 89% 16.6 mph SE26.7 kmh SE 25.0 mph40.2 kmh 29.01 in982.4 mb 0.00 in0.0 mm 0.00 in0.0 mm 0.04 in1.0 mm
04:02 PM 36.4°F2.4°C 33.5°F0.8°C 89% 19.2 mph SE30.9 kmh SE 29.0 mph46.7 kmh 29.01 in982.4 mb 0.00 in0.0 mm 0.00 in0.0 mm 0.04 in1.0 mm
04:03 PM 36.4°F2.4°C 33.5°F0.8°C 89% 16.7 mph SE26.9 kmh SE 29.0 mph46.7 kmh 29.01 in982.4 mb 0.00 in0.0 mm 0.00 in0.0 mm 0.04 in1.0 mm
04:04 PM 36.4°F2.4°C 33.5°F0.8°C 89% 16.5 mph SE26.6 kmh SE 24.0 mph38.6 kmh 29.01 in982.4 mb 0.00 in0.0 mm 0.00 in0.0 mm 0.04 in1.0 mm
04:05 PM 36.4°F2.4°C 33.5°F0.8°C 89% 21.1 mph SE34.0 kmh SE 32.0 mph51.5 kmh 29.00 in982.1 mb 0.00 in0.0 mm 0.00 in0.0 mm 0.04 in1.0 mm
04:06 PM 36.4°F2.4°C 33.5°F0.8°C 89% 17.8 mph SE28.6 kmh SE 32.0 mph51.5 kmh 29.00 in982.1 mb 0.00 in0.0 mm 0.00 in0.0 mm 0.04 in1.0 mm
04:07 PM 36.4°F2.4°C 33.5°F0.8°C 89% 17.3 mph SE27.8 kmh SE 25.0 mph40.2 kmh 29.00 in982.1 mb 0.00 in0.0 mm 0.00 in0.0 mm 0.04 in1.0 mm
04:08 PM 36.4°F2.4°C 33.5°F0.8°C 89% 19.0 mph SE30.6 kmh SE 27.0 mph43.5 kmh 29.00 in982.1 mb 0.00 in0.0 mm 0.00 in0.0 mm 0.04 in1.0 mm
04:09 PM 36.5°F2.5°C 33.6°F0.9°C 89% 17.0 mph SE27.4 kmh SE 27.0 mph43.5 kmh 29.00 in982.1 mb 0.00 in0.0 mm 0.00 in0.0 mm 0.04 in1.0 mm
04:10 PM 36.5°F2.5°C 33.6°F0.9°C 89% 19.4 mph SE31.2 kmh SE 25.0 mph40.2 kmh 29.00 in982.1 mb 0.00 in0.0 mm 0.00 in0.0 mm 0.04 in1.0 mm
04:11 PM 36.5°F2.5°C 33.6°F0.9°C 89% 18.8 mph SE30.3 kmh SE 27.0 mph43.5 kmh 29.00 in982.1 mb 0.00 in0.0 mm 0.00 in0.0 mm 0.04 in1.0 mm
04:12 PM 36.6°F2.6°C 33.7°F0.9°C 89% 16.0 mph SE25.7 kmh SE 27.0 mph43.5 kmh 29.00 in982.1 mb 0.00 in0.0 mm 0.00 in0.0 mm 0.04 in1.0 mm
04:13 PM 36.6°F2.6°C 33.7°F0.9°C 89% 18.5 mph SE29.8 kmh SE 24.0 mph38.6 kmh 29.00 in982.1 mb 0.00 in0.0 mm 0.00 in0.0 mm 0.04 in1.0 mm
04:14 PM 36.6°F2.6°C 33.7°F0.9°C 89% 20.4 mph SE32.8 kmh SE 27.0 mph43.5 kmh 29.00 in982.1 mb 0.00 in0.0 mm 0.00 in0.0 mm 0.04 in1.0 mm
04:15 PM 36.6°F2.6°C 33.7°F0.9°C 89% 13.1 mph SE21.1 kmh SE 27.0 mph43.5 kmh 29.00 in982.1 mb 0.00 in0.0 mm 0.00 in0.0 mm 0.04 in1.0 mm
04:16 PM 36.6°F2.6°C 33.7°F0.9°C 89% 18.9 mph SE30.4 kmh SE 26.0 mph41.8 kmh 29.00 in982.1 mb 0.00 in0.0 mm 0.00 in0.0 mm 0.04 in1.0 mm
04:17 PM 36.7°F2.6°C 33.8°F1.0°C 89% 21.0 mph SE33.8 kmh SE 28.0 mph45.1 kmh 29.00 in982.1 mb 0.00 in0.0 mm 0.00 in0.0 mm 0.04 in1.0 mm
04:18 PM 36.7°F2.6°C 33.8°F1.0°C 89% 19.5 mph SE31.4 kmh SE 28.0 mph45.1 kmh 28.99 in981.7 mb 0.00 in0.0 mm 0.00 in0.0 mm 0.04 in1.0 mm
04:19 PM 36.7°F2.6°C 33.8°F1.0°C 89% 17.3 mph SE27.8 kmh SE 26.0 mph41.8 kmh 28.99 in981.7 mb 0.00 in0.0 mm 0.00 in0.0 mm 0.04 in1.0 mm
04:20 PM 36.7°F2.6°C 33.8°F1.0°C 89% 16.8 mph SE27.0 kmh SE 25.0 mph40.2 kmh 28.99 in981.7 mb 0.00 in0.0 mm 0.00 in0.0 mm 0.04 in1.0 mm
04:21 PM 36.8°F2.7°C 33.9°F1.1°C 89% 18.4 mph SE29.6 kmh SE 25.0 mph40.2 kmh 28.99 in981.7 mb 0.00 in0.0 mm 0.00 in0.0 mm 0.04 in1.0 mm
04:22 PM 36.8°F2.7°C 33.9°F1.1°C 89% 19.5 mph SE31.4 kmh SE 24.0 mph38.6 kmh 28.99 in981.7 mb 0.00 in0.0 mm 0.00 in0.0 mm 0.04 in1.0 mm
04:23 PM 36.7°F2.6°C 33.8°F1.0°C 89% 18.7 mph SE30.1 kmh SE 24.0 mph38.6 kmh 28.99 in981.7 mb 0.00 in0.0 mm 0.00 in0.0 mm 0.04 in1.0 mm
04:24 PM 36.8°F2.7°C 33.9°F1.1°C 89% 17.6 mph SE28.3 kmh SE 24.0 mph38.6 kmh 28.99 in981.7 mb 0.00 in0.0 mm 0.00 in0.0 mm 0.04 in1.0 mm
04:25 PM 36.8°F2.7°C 33.9°F1.1°C 89% 19.2 mph SE30.9 kmh SE 24.0 mph38.6 kmh 28.99 in981.7 mb 0.00 in0.0 mm 0.00 in0.0 mm 0.04 in1.0 mm
04:26 PM 36.7°F2.6°C 33.8°F1.0°C 89% 20.2 mph SE32.5 kmh SE 26.0 mph41.8 kmh 28.99 in981.7 mb 0.00 in0.0 mm 0.00 in0.0 mm 0.04 in1.0 mm
04:27 PM 36.8°F2.7°C 33.9°F1.1°C 89% 16.9 mph SE27.2 kmh SE 26.0 mph41.8 kmh 28.99 in981.7 mb 0.00 in0.0 mm 0.00 in0.0 mm 0.04 in1.0 mm
04:28 PM 36.8°F2.7°C 33.9°F1.1°C 89% 19.1 mph SE30.7 kmh SE 27.0 mph43.5 kmh 28.98 in981.4 mb 0.00 in0.0 mm 0.00 in0.0 mm 0.04 in1.0 mm
04:29 PM 36.8°F2.7°C 33.9°F1.1°C 89% 18.0 mph SE29.0 kmh SE 27.0 mph43.5 kmh 28.98 in981.4 mb 0.00 in0.0 mm 0.00 in0.0 mm 0.04 in1.0 mm
04:30 PM 36.8°F2.7°C 33.9°F1.1°C 89% 19.6 mph SE31.5 kmh SE 29.0 mph46.7 kmh 28.98 in981.4 mb 0.00 in0.0 mm 0.00 in0.0 mm 0.04 in1.0 mm
04:31 PM 36.8°F2.7°C 33.9°F1.1°C 89% 18.0 mph SE29.0 kmh SE 29.0 mph46.7 kmh 28.98 in981.4 mb 0.00 in0.0 mm 0.00 in0.0 mm 0.04 in1.0 mm
04:32 PM 36.8°F2.7°C 33.9°F1.1°C 89% 14.4 mph SE23.2 kmh SE 28.0 mph45.1 kmh 28.98 in981.4 mb 0.00 in0.0 mm 0.00 in0.0 mm 0.04 in1.0 mm
04:33 PM 36.8°F2.7°C 33.9°F1.1°C 89% 17.5 mph SE28.2 kmh SE 24.0 mph38.6 kmh 28.98 in981.4 mb 0.00 in0.0 mm 0.00 in0.0 mm 0.04 in1.0 mm
04:34 PM 36.8°F2.7°C 33.9°F1.1°C 89% 17.3 mph SE27.8 kmh SE 24.0 mph38.6 kmh 28.98 in981.4 mb 0.00 in0.0 mm 0.00 in0.0 mm 0.04 in1.0 mm
04:35 PM 36.8°F2.7°C 33.9°F1.1°C 89% 18.9 mph SE30.4 kmh SE 27.0 mph43.5 kmh 28.98 in981.4 mb 0.00 in0.0 mm 0.00 in0.0 mm 0.04 in1.0 mm
04:36 PM 36.8°F2.7°C 33.9°F1.1°C 89% 16.6 mph SE26.7 kmh SE 27.0 mph43.5 kmh 28.98 in981.4 mb 0.00 in0.0 mm 0.00 in0.0 mm 0.04 in1.0 mm
04:37 PM 36.8°F2.7°C 33.9°F1.1°C 89% 13.6 mph SE21.9 kmh SE 24.0 mph38.6 kmh 28.98 in981.4 mb 0.00 in0.0 mm 0.00 in0.0 mm 0.04 in1.0 mm
04:38 PM 36.8°F2.7°C 33.9°F1.1°C 89% 13.1 mph SE21.1 kmh SE 26.0 mph41.8 kmh 28.97 in981.0 mb 0.00 in0.0 mm 0.00 in0.0 mm 0.04 in1.0 mm
04:39 PM 36.8°F2.7°C 33.9°F1.1°C 89% 17.0 mph SE27.4 kmh SE 26.0 mph41.8 kmh 28.97 in981.0 mb 0.00 in0.0 mm 0.00 in0.0 mm 0.04 in1.0 mm
04:40 PM 36.8°F2.7°C 33.9°F1.1°C 89% 16.7 mph SE26.9 kmh SE 22.0 mph35.4 kmh 28.97 in981.0 mb 0.00 in0.0 mm 0.00 in0.0 mm 0.04 in1.0 mm
04:41 PM 36.8°F2.7°C 33.9°F1.1°C 89% 17.3 mph SE27.8 kmh SE 25.0 mph40.2 kmh 28.97 in981.0 mb 0.00 in0.0 mm 0.00 in0.0 mm 0.04 in1.0 mm
04:42 PM 36.8°F2.7°C 33.9°F1.1°C 89% 19.5 mph SE31.4 kmh SE 28.0 mph45.1 kmh 28.97 in981.0 mb 0.00 in0.0 mm 0.00 in0.0 mm 0.04 in1.0 mm
04:43 PM 36.8°F2.7°C 33.9°F1.1°C 89% 18.5 mph SE29.8 kmh SE 28.0 mph45.1 kmh 28.97 in981.0 mb 0.00 in0.0 mm 0.00 in0.0 mm 0.04 in1.0 mm
04:44 PM 36.8°F2.7°C 33.9°F1.1°C 89% 18.3 mph SE29.5 kmh SE 28.0 mph45.1 kmh 28.97 in981.0 mb 0.00 in0.0 mm 0.00 in0.0 mm 0.04 in1.0 mm
04:45 PM 36.8°F2.7°C 33.9°F1.1°C 89% 15.6 mph SE25.1 kmh SE 26.0 mph41.8 kmh 28.97 in981.0 mb 0.00 in0.0 mm 0.00 in0.0 mm 0.04 in1.0 mm
04:46 PM 36.8°F2.7°C 33.9°F1.1°C 89% 15.9 mph SE25.6 kmh SE 22.0 mph35.4 kmh 28.96 in980.7 mb 0.00 in0.0 mm 0.00 in0.0 mm 0.04 in1.0 mm
04:47 PM 36.8°F2.7°C 33.9°F1.1°C 89% 13.9 mph SE22.4 kmh SE 21.0 mph33.8 kmh 28.97 in981.0 mb 0.00 in0.0 mm 0.00 in0.0 mm 0.04 in1.0 mm
04:48 PM 36.8°F2.7°C 33.9°F1.1°C 89% 19.0 mph SE30.6 kmh SE 26.0 mph41.8 kmh 28.97 in981.0 mb 0.00 in0.0 mm 0.00 in0.0 mm 0.04 in1.0 mm
04:49 PM 36.8°F2.7°C 33.9°F1.1°C 89% 18.5 mph SE29.8 kmh SE 31.0 mph49.9 kmh 28.96 in980.7 mb 0.00 in0.0 mm 0.00 in0.0 mm 0.04 in1.0 mm
04:50 PM 36.8°F2.7°C 33.9°F1.1°C 89% 18.5 mph SE29.8 kmh SE 31.0 mph49.9 kmh 28.96 in980.7 mb 0.00 in0.0 mm 0.00 in0.0 mm 0.04 in1.0 mm
04:51 PM 36.9°F2.7°C 34.0°F1.1°C 89% 21.0 mph SE33.8 kmh SE 27.0 mph43.5 kmh 28.96 in980.7 mb 0.00 in0.0 mm 0.00 in0.0 mm 0.04 in1.0 mm
04:52 PM 36.9°F2.7°C 34.0°F1.1°C 89% 17.1 mph SE27.5 kmh SE 27.0 mph43.5 kmh 28.96 in980.7 mb 0.00 in0.0 mm 0.00 in0.0 mm 0.04 in1.0 mm
04:53 PM 36.9°F2.7°C 34.0°F1.1°C 89% 18.7 mph SE30.1 kmh SE 26.0 mph41.8 kmh 28.96 in980.7 mb 0.00 in0.0 mm 0.00 in0.0 mm 0.04 in1.0 mm
04:54 PM 37.0°F2.8°C 34.1°F1.2°C 89% 14.9 mph SE24.0 kmh SE 26.0 mph41.8 kmh 28.96 in980.7 mb 0.00 in0.0 mm 0.00 in0.0 mm 0.04 in1.0 mm
04:55 PM 37.0°F2.8°C 34.1°F1.2°C 89% 22.4 mph SE36.0 kmh SE 33.0 mph53.1 kmh 28.96 in980.7 mb 0.00 in0.0 mm 0.00 in0.0 mm 0.04 in1.0 mm
04:56 PM 37.0°F2.8°C 34.1°F1.2°C 89% 19.5 mph SE31.4 kmh SE 33.0 mph53.1 kmh 28.96 in980.7 mb 0.00 in0.0 mm 0.00 in0.0 mm 0.04 in1.0 mm
04:57 PM 37.0°F2.8°C 34.1°F1.2°C 89% 17.0 mph SE27.4 kmh SE 28.0 mph45.1 kmh 28.96 in980.7 mb 0.00 in0.0 mm 0.00 in0.0 mm 0.04 in1.0 mm
04:58 PM 37.0°F2.8°C 34.1°F1.2°C 89% 19.9 mph SE32.0 kmh SE 31.0 mph49.9 kmh 28.96 in980.7 mb 0.00 in0.0 mm 0.00 in0.0 mm 0.04 in1.0 mm
04:59 PM 37.1°F2.8°C 34.2°F1.2°C 89% 21.2 mph SE34.1 kmh SE 31.0 mph49.9 kmh 28.95 in980.4 mb 0.00 in0.0 mm 0.00 in0.0 mm 0.04 in1.0 mm
05:00 PM 37.0°F2.8°C 34.1°F1.2°C 89% 21.9 mph SE35.2 kmh SE 28.0 mph45.1 kmh 28.95 in980.4 mb 0.00 in0.0 mm 0.00 in0.0 mm 0.04 in1.0 mm
05:01 PM 37.1°F2.8°C 34.2°F1.2°C 89% 19.9 mph SE32.0 kmh SE 28.0 mph45.1 kmh 28.95 in980.4 mb 0.00 in0.0 mm 0.00 in0.0 mm 0.04 in1.0 mm
05:02 PM 37.0°F2.8°C 34.1°F1.2°C 89% 18.3 mph SE29.5 kmh SE 29.0 mph46.7 kmh 28.95 in980.4 mb 0.00 in0.0 mm 0.00 in0.0 mm 0.04 in1.0 mm
05:03 PM 37.0°F2.8°C 34.1°F1.2°C 89% 18.5 mph SE29.8 kmh SE 29.0 mph46.7 kmh 28.95 in980.4 mb 0.00 in0.0 mm 0.00 in0.0 mm 0.04 in1.0 mm
05:04 PM 37.0°F2.8°C 34.1°F1.2°C 89% 19.6 mph SE31.5 kmh SE 30.0 mph48.3 kmh 28.95 in980.4 mb 0.00 in0.0 mm 0.00 in0.0 mm 0.04 in1.0 mm
05:05 PM 37.0°F2.8°C 34.1°F1.2°C 89% 21.1 mph SE34.0 kmh SE 32.0 mph51.5 kmh 28.95 in980.4 mb 0.00 in0.0 mm 0.00 in0.0 mm 0.04 in1.0 mm
05:06 PM 37.1°F2.8°C 34.2°F1.2°C 89% 19.2 mph SE30.9 kmh SE 32.0 mph51.5 kmh 28.95 in980.4 mb 0.00 in0.0 mm 0.00 in0.0 mm 0.04 in1.0 mm
05:07 PM 37.1°F2.8°C 34.2°F1.2°C 89% 19.0 mph SE30.6 kmh SE 28.0 mph45.1 kmh 28.95 in980.4 mb 0.00 in0.0 mm 0.00 in0.0 mm 0.04 in1.0 mm
05:08 PM 37.0°F2.8°C 34.1°F1.2°C 89% 20.0 mph SE32.2 kmh SE 31.0 mph49.9 kmh 28.95 in980.4 mb 0.00 in0.0 mm 0.00 in0.0 mm 0.04 in1.0 mm
05:09 PM 37.1°F2.8°C 33.9°F1.1°C 88% 19.2 mph SE30.9 kmh SE 32.0 mph51.5 kmh 28.95 in980.4 mb 0.00 in0.0 mm 0.00 in0.0 mm 0.04 in1.0 mm
05:10 PM 37.0°F2.8°C 33.8°F1.0°C 88% 19.3 mph SE31.1 kmh SE 32.0 mph51.5 kmh 28.95 in980.4 mb 0.00 in0.0 mm 0.00 in0.0 mm 0.04 in1.0 mm
05:11 PM 37.0°F2.8°C 34.1°F1.2°C 89% 21.9 mph SE35.2 kmh SE 30.0 mph48.3 kmh 28.94 in980.0 mb 0.00 in0.0 mm 0.00 in0.0 mm 0.04 in1.0 mm
05:12 PM 37.0°F2.8°C 34.1°F1.2°C 89% 20.5 mph SE33.0 kmh SE 30.0 mph48.3 kmh 28.94 in980.0 mb 0.00 in0.0 mm 0.00 in0.0 mm 0.04 in1.0 mm
05:13 PM 37.0°F2.8°C 34.1°F1.2°C 89% 18.7 mph SE30.1 kmh SE 30.0 mph48.3 kmh 28.94 in980.0 mb 0.00 in0.0 mm 0.00 in0.0 mm 0.04 in1.0 mm
05:14 PM 37.0°F2.8°C 34.1°F1.2°C 89% 18.1 mph SE29.1 kmh SE 28.0 mph45.1 kmh 28.95 in980.4 mb 0.00 in0.0 mm 0.00 in0.0 mm 0.04 in1.0 mm
05:15 PM 37.0°F2.8°C 34.1°F1.2°C 89% 17.5 mph SE28.2 kmh SE 28.0 mph45.1 kmh 28.94 in980.0 mb 0.00 in0.0 mm 0.00 in0.0 mm 0.04 in1.0 mm
05:16 PM 37.0°F2.8°C 34.1°F1.2°C 89% 20.7 mph SE33.3 kmh SE 29.0 mph46.7 kmh 28.94 in980.0 mb 0.00 in0.0 mm 0.00 in0.0 mm 0.04 in1.0 mm
05:17 PM 37.0°F2.8°C 34.1°F1.2°C 89% 18.9 mph SE30.4 kmh SE 29.0 mph46.7 kmh 28.94 in980.0 mb 0.00 in0.0 mm 0.00 in0.0 mm 0.04 in1.0 mm
05:18 PM 37.0°F2.8°C 33.8°F1.0°C 88% 19.0 mph SE30.6 kmh SE 28.0 mph45.1 kmh 28.94 in980.0 mb 0.00 in0.0 mm 0.00 in0.0 mm 0.04 in1.0 mm
05:19 PM 37.0°F2.8°C 33.8°F1.0°C 88% 18.5 mph SE29.8 kmh SE 28.0 mph45.1 kmh 28.94 in980.0 mb 0.00 in0.0 mm 0.00 in0.0 mm 0.04 in1.0 mm
05:20 PM 36.9°F2.7°C 33.7°F0.9°C 88% 19.8 mph SE31.9 kmh SE 28.0 mph45.1 kmh 28.94 in980.0 mb 0.00 in0.0 mm 0.00 in0.0 mm 0.04 in1.0 mm
05:21 PM 36.9°F2.7°C 34.0°F1.1°C 89% 19.9 mph SE32.0 kmh SE 28.0 mph45.1 kmh 28.94 in980.0 mb 0.00 in0.0 mm 0.00 in0.0 mm 0.04 in1.0 mm
05:22 PM 36.8°F2.7°C 33.9°F1.1°C 89% 18.6 mph SE29.9 kmh SE 31.0 mph49.9 kmh 28.94 in980.0 mb 0.00 in0.0 mm 0.00 in0.0 mm 0.04 in1.0 mm
05:23 PM 36.9°F2.7°C 34.0°F1.1°C 89% 20.0 mph SE32.2 kmh SE 31.0 mph49.9 kmh 28.94 in980.0 mb 0.00 in0.0 mm 0.00 in0.0 mm 0.04 in1.0 mm
05:24 PM 36.9°F2.7°C 34.0°F1.1°C 89% 18.4 mph SE29.6 kmh SE 30.0 mph48.3 kmh 28.94 in980.0 mb 0.00 in0.0 mm 0.00 in0.0 mm 0.04 in1.0 mm
05:25 PM 36.9°F2.7°C 34.0°F1.1°C 89% 21.9 mph SE35.2 kmh SE 30.0 mph48.3 kmh 28.94 in980.0 mb 0.00 in0.0 mm 0.00 in0.0 mm 0.04 in1.0 mm
05:26 PM 37.0°F2.8°C 34.1°F1.2°C 89% 20.1 mph SE32.3 kmh SE 30.0 mph48.3 kmh 28.94 in980.0 mb 0.00 in0.0 mm 0.00 in0.0 mm 0.04 in1.0 mm
05:27 PM 36.9°F2.7°C 34.0°F1.1°C 89% 18.5 mph SE29.8 kmh SE 28.0 mph45.1 kmh 28.93 in979.7 mb 0.00 in0.0 mm 0.00 in0.0 mm 0.04 in1.0 mm
05:28 PM 37.0°F2.8°C 34.1°F1.2°C 89% 18.3 mph SE29.5 kmh SE 24.0 mph38.6 kmh 28.93 in979.7 mb 0.00 in0.0 mm 0.00 in0.0 mm 0.04 in1.0 mm
05:29 PM 36.9°F2.7°C 34.0°F1.1°C 89% 16.7 mph SE26.9 kmh SE 28.0 mph45.1 kmh 28.93 in979.7 mb 0.00 in0.0 mm 0.00 in0.0 mm 0.04 in1.0 mm
05:30 PM 37.0°F2.8°C 33.8°F1.0°C 88% 15.1 mph SE24.3 kmh SE 28.0 mph45.1 kmh 28.93 in979.7 mb 0.00 in0.0 mm 0.00 in0.0 mm 0.04 in1.0 mm
05:31 PM 36.9°F2.7°C 34.0°F1.1°C 89% 15.6 mph SE25.1 kmh SE 24.0 mph38.6 kmh 28.93 in979.7 mb 0.00 in0.0 mm 0.00 in0.0 mm 0.04 in1.0 mm
05:32 PM 36.8°F2.7°C 33.6°F0.9°C 88% 17.3 mph SE27.8 kmh SE 24.0 mph38.6 kmh 28.93 in979.7 mb 0.00 in0.0 mm 0.00 in0.0 mm 0.04 in1.0 mm
05:33 PM 36.8°F2.7°C 33.9°F1.1°C 89% 18.9 mph SE30.4 kmh SE 23.0 mph37.0 kmh 28.93 in979.7 mb 0.00 in0.0 mm 0.00 in0.0 mm 0.04 in1.0 mm
05:34 PM 36.8°F2.7°C 33.9°F1.1°C 89% 19.6 mph SE31.5 kmh SE 25.0 mph40.2 kmh 28.93 in979.7 mb 0.00 in0.0 mm 0.00 in0.0 mm 0.04 in1.0 mm
05:35 PM 36.8°F2.7°C 33.9°F1.1°C 89% 20.8 mph SE33.5 kmh SE 29.0 mph46.7 kmh 28.93 in979.7 mb 0.00 in0.0 mm 0.00 in0.0 mm 0.04 in1.0 mm
05:36 PM 36.8°F2.7°C 33.9°F1.1°C 89% 17.7 mph SE28.5 kmh SE 29.0 mph46.7 kmh 28.93 in979.7 mb 0.00 in0.0 mm 0.00 in0.0 mm 0.04 in1.0 mm
05:37 PM 36.8°F2.7°C 33.9°F1.1°C 89% 20.5 mph SE33.0 kmh SE 29.0 mph46.7 kmh 28.93 in979.7 mb 0.00 in0.0 mm 0.00 in0.0 mm 0.04 in1.0 mm
05:38 PM 36.8°F2.7°C 33.9°F1.1°C 89% 18.9 mph SE30.4 kmh SE 29.0 mph46.7 kmh 28.93 in979.7 mb 0.00 in0.0 mm 0.00 in0.0 mm 0.04 in1.0 mm
05:39 PM 36.8°F2.7°C 33.9°F1.1°C 89% 16.9 mph SE27.2 kmh SE 28.0 mph45.1 kmh 28.93 in979.7 mb 0.00 in0.0 mm 0.00 in0.0 mm 0.04 in1.0 mm
05:40 PM 36.7°F2.6°C 33.8°F1.0°C 89% 18.8 mph SE30.3 kmh SE 28.0 mph45.1 kmh 28.93 in979.7 mb 0.00 in0.0 mm 0.00 in0.0 mm 0.04 in1.0 mm
05:41 PM 36.8°F2.7°C 33.9°F1.1°C 89% 21.4 mph SE34.4 kmh SE 29.0 mph46.7 kmh 28.93 in979.7 mb 0.00 in0.0 mm 0.00 in0.0 mm 0.04 in1.0 mm
05:42 PM 36.8°F2.7°C 33.9°F1.1°C 89% 16.5 mph SE26.6 kmh SE 29.0 mph46.7 kmh 28.93 in979.7 mb 0.00 in0.0 mm 0.00 in0.0 mm 0.04 in1.0 mm
05:43 PM 36.7°F2.6°C 33.8°F1.0°C 89% 19.7 mph SE31.7 kmh SE 27.0 mph43.5 kmh 28.93 in979.7 mb 0.00 in0.0 mm 0.00 in0.0 mm 0.04 in1.0 mm
05:44 PM 36.7°F2.6°C 33.8°F1.0°C 89% 18.9 mph SE30.4 kmh SE 27.0 mph43.5 kmh 28.93 in979.7 mb 0.00 in0.0 mm 0.00 in0.0 mm 0.04 in1.0 mm
05:45 PM 36.7°F2.6°C 33.8°F1.0°C 89% 19.7 mph SE31.7 kmh SE 26.0 mph41.8 kmh 28.93 in979.7 mb 0.00 in0.0 mm 0.00 in0.0 mm 0.04 in1.0 mm
05:46 PM 36.7°F2.6°C 33.8°F1.0°C 89% 19.7 mph SE31.7 kmh SE 29.0 mph46.7 kmh 28.92 in979.3 mb 0.00 in0.0 mm 0.00 in0.0 mm 0.04 in1.0 mm
05:47 PM 36.7°F2.6°C 33.8°F1.0°C 89% 17.0 mph SE27.4 kmh SE 29.0 mph46.7 kmh 28.93 in979.7 mb 0.00 in0.0 mm 0.00 in0.0 mm 0.04 in1.0 mm
05:48 PM 36.7°F2.6°C 33.8°F1.0°C 89% 17.5 mph SE28.2 kmh SE 23.0 mph37.0 kmh 28.92 in979.3 mb 0.00 in0.0 mm 0.00 in0.0 mm 0.04 in1.0 mm
05:49 PM 36.6°F2.6°C 33.7°F0.9°C 89% 16.5 mph SE26.6 kmh SE 24.0 mph38.6 kmh 28.92 in979.3 mb 0.00 in0.0 mm 0.00 in0.0 mm 0.04 in1.0 mm
05:50 PM 36.6°F2.6°C 33.7°F0.9°C 89% 20.5 mph SE33.0 kmh SE 26.0 mph41.8 kmh 28.93 in979.7 mb 0.01 in0.3 mm 0.60 in15.2 mm 0.05 in1.3 mm
05:51 PM 36.6°F2.6°C 33.7°F0.9°C 89% 21.3 mph SE34.3 kmh SE 30.0 mph48.3 kmh 28.93 in979.7 mb 0.01 in0.3 mm 0.00 in0.0 mm 0.05 in1.3 mm
05:52 PM 36.6°F2.6°C 33.7°F0.9°C 89% 21.5 mph SE34.6 kmh SE 30.0 mph48.3 kmh 28.92 in979.3 mb 0.01 in0.3 mm 0.00 in0.0 mm 0.05 in1.3 mm
05:53 PM 36.5°F2.5°C 33.6°F0.9°C 89% 17.2 mph SE27.7 kmh SE 28.0 mph45.1 kmh 28.93 in979.7 mb 0.01 in0.3 mm 0.00 in0.0 mm 0.05 in1.3 mm
05:54 PM 36.6°F2.6°C 33.7°F0.9°C 89% 17.5 mph SE28.2 kmh SE 24.0 mph38.6 kmh 28.92 in979.3 mb 0.01 in0.3 mm 0.00 in0.0 mm 0.05 in1.3 mm
05:55 PM 36.6°F2.6°C 33.7°F0.9°C 89% 17.8 mph SE28.6 kmh SE 25.0 mph40.2 kmh 28.92 in979.3 mb 0.01 in0.3 mm 0.00 in0.0 mm 0.05 in1.3 mm
05:56 PM 36.5°F2.5°C 33.6°F0.9°C 89% 21.0 mph SE33.8 kmh SE 27.0 mph43.5 kmh 28.92 in979.3 mb 0.01 in0.3 mm 0.00 in0.0 mm 0.05 in1.3 mm
05:57 PM 36.6°F2.6°C 33.7°F0.9°C 89% 18.9 mph SE30.4 kmh SE 27.0 mph43.5 kmh 28.93 in979.7 mb 0.01 in0.3 mm 0.00 in0.0 mm 0.05 in1.3 mm
05:58 PM 36.5°F2.5°C 33.6°F0.9°C 89% 16.9 mph SE27.2 kmh SE 29.0 mph46.7 kmh 28.92 in979.3 mb 0.01 in0.3 mm 0.00 in0.0 mm 0.05 in1.3 mm
05:59 PM 36.5°F2.5°C 33.6°F0.9°C 89% 20.5 mph SE33.0 kmh SE 31.0 mph49.9 kmh 28.92 in979.3 mb 0.01 in0.3 mm 0.00 in0.0 mm 0.05 in1.3 mm
06:00 PM 36.5°F2.5°C 33.6°F0.9°C 89% 18.7 mph SE30.1 kmh SE 31.0 mph49.9 kmh 28.92 in979.3 mb 0.01 in0.3 mm 0.00 in0.0 mm 0.05 in1.3 mm
06:01 PM 36.5°F2.5°C 33.6°F0.9°C 89% 18.0 mph SE29.0 kmh SE 25.0 mph40.2 kmh 28.92 in979.3 mb 0.01 in0.3 mm 0.00 in0.0 mm 0.05 in1.3 mm
06:02 PM 36.4°F2.4°C 33.5°F0.8°C 89% 17.8 mph SE28.6 kmh SE 25.0 mph40.2 kmh 28.92 in979.3 mb 0.01 in0.3 mm 0.00 in0.0 mm 0.05 in1.3 mm
06:03 PM 36.4°F2.4°C 33.5°F0.8°C 89% 17.2 mph SE27.7 kmh SE 25.0 mph40.2 kmh 28.92 in979.3 mb 0.01 in0.3 mm 0.00 in0.0 mm 0.05 in1.3 mm
06:04 PM 36.4°F2.4°C 33.5°F0.8°C 89% 15.0 mph SE24.1 kmh SE 24.0 mph38.6 kmh 28.92 in979.3 mb 0.01 in0.3 mm 0.00 in0.0 mm 0.05 in1.3 mm
06:05 PM 36.4°F2.4°C 33.5°F0.8°C 89% 14.3 mph SE23.0 kmh SE 23.0 mph37.0 kmh 28.92 in979.3 mb 0.01 in0.3 mm 0.00 in0.0 mm 0.05 in1.3 mm
06:06 PM 36.4°F2.4°C 33.5°F0.8°C 89% 16.8 mph SE27.0 kmh SE 24.0 mph38.6 kmh 28.92 in979.3 mb 0.01 in0.3 mm 0.00 in0.0 mm 0.05 in1.3 mm
06:07 PM 36.3°F2.4°C 33.4°F0.8°C 89% 19.0 mph SE30.6 kmh SE 27.0 mph43.5 kmh 28.92 in979.3 mb 0.01 in0.3 mm 0.00 in0.0 mm 0.05 in1.3 mm
06:08 PM 36.3°F2.4°C 33.4°F0.8°C 89% 18.5 mph SE29.8 kmh SE 27.0 mph43.5 kmh 28.92 in979.3 mb 0.01 in0.3 mm 0.00 in0.0 mm 0.05 in1.3 mm
06:09 PM 36.3°F2.4°C 33.4°F0.8°C 89% 17.7 mph SE28.5 kmh SE 26.0 mph41.8 kmh 28.92 in979.3 mb 0.01 in0.3 mm 0.00 in0.0 mm 0.05 in1.3 mm
06:10 PM 36.3°F2.4°C 33.4°F0.8°C 89% 14.3 mph SE23.0 kmh SE 25.0 mph40.2 kmh 28.92 in979.3 mb 0.01 in0.3 mm 0.00 in0.0 mm 0.05 in1.3 mm
06:11 PM 36.3°F2.4°C 33.4°F0.8°C 89% 19.1 mph SE30.7 kmh SE 22.0 mph35.4 kmh 28.92 in979.3 mb 0.01 in0.3 mm 0.00 in0.0 mm 0.05 in1.3 mm
06:12 PM 36.2°F2.3°C 33.3°F0.7°C 89% 19.6 mph SE31.5 kmh SE 25.0 mph40.2 kmh 28.92 in979.3 mb 0.01 in0.3 mm 0.00 in0.0 mm 0.05 in1.3 mm
06:13 PM 36.2°F2.3°C 33.3°F0.7°C 89% 16.9 mph SE27.2 kmh SE 25.0 mph40.2 kmh 28.92 in979.3 mb 0.01 in0.3 mm 0.00 in0.0 mm 0.05 in1.3 mm
06:14 PM 36.1°F2.3°C 33.2°F0.7°C 89% 20.4 mph SE32.8 kmh SE 30.0 mph48.3 kmh 28.92 in979.3 mb 0.01 in0.3 mm 0.00 in0.0 mm 0.05 in1.3 mm
06:15 PM 36.1°F2.3°C 33.2°F0.7°C 89% 18.5 mph SE29.8 kmh SE 30.0 mph48.3 kmh 28.92 in979.3 mb 0.01 in0.3 mm 0.00 in0.0 mm 0.05 in1.3 mm
06:16 PM 36.1°F2.3°C 33.2°F0.7°C 89% 17.8 mph SE28.6 kmh SE 27.0 mph43.5 kmh 28.92 in979.3 mb 0.01 in0.3 mm 0.00 in0.0 mm 0.05 in1.3 mm
06:17 PM 36.1°F2.3°C 33.2°F0.7°C 89% 14.9 mph SE24.0 kmh SE 24.0 mph38.6 kmh 28.92 in979.3 mb 0.01 in0.3 mm 0.00 in0.0 mm 0.05 in1.3 mm
06:18 PM 36.1°F2.3°C 33.2°F0.7°C 89% 18.8 mph SE30.3 kmh SE 27.0 mph43.5 kmh 28.92 in979.3 mb 0.01 in0.3 mm 0.00 in0.0 mm 0.05 in1.3 mm
06:19 PM 36.1°F2.3°C 33.2°F0.7°C 89% 15.1 mph SE24.3 kmh SE 27.0 mph43.5 kmh 28.92 in979.3 mb 0.01 in0.3 mm 0.00 in0.0 mm 0.05 in1.3 mm
06:20 PM 36.1°F2.3°C 33.2°F0.7°C 89% 11.1 mph SE17.9 kmh SE 21.0 mph33.8 kmh 28.92 in979.3 mb 0.01 in0.3 mm 0.00 in0.0 mm 0.05 in1.3 mm
06:21 PM 36.1°F2.3°C 33.2°F0.7°C 89% 15.8 mph SE25.4 kmh SE 22.0 mph35.4 kmh 28.92 in979.3 mb 0.01 in0.3 mm 0.00 in0.0 mm 0.05 in1.3 mm
06:22 PM 36.1°F2.3°C 33.2°F0.7°C 89% 17.0 mph SE27.4 kmh SE 23.0 mph37.0 kmh 28.92 in979.3 mb 0.01 in0.3 mm 0.00 in0.0 mm 0.05 in1.3 mm
06:23 PM 36.1°F2.3°C 33.5°F0.8°C 90% 17.4 mph SE28.0 kmh SE 24.0 mph38.6 kmh 28.92 in979.3 mb 0.01 in0.3 mm 0.00 in0.0 mm 0.05 in1.3 mm
06:24 PM 36.0°F2.2°C 33.4°F0.8°C 90% 15.0 mph SE24.1 kmh SE 24.0 mph38.6 kmh 28.92 in979.3 mb 0.01 in0.3 mm 0.00 in0.0 mm 0.05 in1.3 mm
06:25 PM 36.0°F2.2°C 33.1°F0.6°C 89% 17.0 mph SE27.4 kmh SE 24.0 mph38.6 kmh 28.92 in979.3 mb 0.01 in0.3 mm 0.00 in0.0 mm 0.05 in1.3 mm
06:26 PM 36.0°F2.2°C 33.4°F0.8°C 90% 17.1 mph SE27.5 kmh SE 24.0 mph38.6 kmh 28.92 in979.3 mb 0.01 in0.3 mm 0.00 in0.0 mm 0.05 in1.3 mm
06:27 PM 36.0°F2.2°C 33.4°F0.8°C 90% 16.2 mph SE26.1 kmh SE 23.0 mph37.0 kmh 28.92 in979.3 mb 0.01 in0.3 mm 0.00 in0.0 mm 0.05 in1.3 mm
06:28 PM 36.0°F2.2°C 33.4°F0.8°C 90% 18.5 mph SE29.8 kmh SE 28.0 mph45.1 kmh 28.92 in979.3 mb 0.01 in0.3 mm 0.00 in0.0 mm 0.05 in1.3 mm
06:29 PM 36.0°F2.2°C 33.4°F0.8°C 90% 13.7 mph SSE22.0 kmh SSE 27.0 mph43.5 kmh 28.92 in979.3 mb 0.01 in0.3 mm 0.00 in0.0 mm 0.05 in1.3 mm
06:30 PM 36.0°F2.2°C 33.4°F0.8°C 90% 13.4 mph SE21.6 kmh SE 20.0 mph32.2 kmh 28.92 in979.3 mb 0.01 in0.3 mm 0.00 in0.0 mm 0.05 in1.3 mm
06:31 PM 36.0°F2.2°C 33.4°F0.8°C 90% 12.0 mph SE19.3 kmh SE 17.0 mph27.4 kmh 28.92 in979.3 mb 0.01 in0.3 mm 0.00 in0.0 mm 0.05 in1.3 mm
06:32 PM 36.0°F2.2°C 33.4°F0.8°C 90% 17.0 mph SE27.4 kmh SE 25.0 mph40.2 kmh 28.91 in979.0 mb 0.01 in0.3 mm 0.00 in0.0 mm 0.05 in1.3 mm
06:33 PM 35.9°F2.2°C 33.3°F0.7°C 90% 14.7 mph SE23.7 kmh SE 25.0 mph40.2 kmh 28.92 in979.3 mb 0.01 in0.3 mm 0.00 in0.0 mm 0.05 in1.3 mm
06:34 PM 35.9°F2.2°C 33.3°F0.7°C 90% 14.3 mph SE23.0 kmh SE 21.0 mph33.8 kmh 28.92 in979.3 mb 0.01 in0.3 mm 0.00 in0.0 mm 0.05 in1.3 mm
06:35 PM 35.9°F2.2°C 33.3°F0.7°C 90% 12.1 mph SSE19.5 kmh SSE 21.0 mph33.8 kmh 28.91 in979.0 mb 0.01 in0.3 mm 0.00 in0.0 mm 0.05 in1.3 mm
06:36 PM 35.9°F2.2°C 33.3°F0.7°C 90% 16.8 mph SSE27.0 kmh SSE 23.0 mph37.0 kmh 28.92 in979.3 mb 0.01 in0.3 mm 0.00 in0.0 mm 0.05 in1.3 mm
06:37 PM 35.9°F2.2°C 33.3°F0.7°C 90% 15.4 mph SE24.8 kmh SE 23.0 mph37.0 kmh 28.92 in979.3 mb 0.01 in0.3 mm 0.00 in0.0 mm 0.05 in1.3 mm
06:38 PM 35.9°F2.2°C 33.3°F0.7°C 90% 16.4 mph SSE26.4 kmh SSE 24.0 mph38.6 kmh 28.92 in979.3 mb 0.01 in0.3 mm 0.00 in0.0 mm 0.05 in1.3 mm
06:39 PM 35.9°F2.2°C 33.3°F0.7°C 90% 17.5 mph SSE28.2 kmh SSE 24.0 mph38.6 kmh 28.92 in979.3 mb 0.01 in0.3 mm 0.00 in0.0 mm 0.05 in1.3 mm
06:40 PM 35.9°F2.2°C 33.3°F0.7°C 90% 13.6 mph SE21.9 kmh SE 22.0 mph35.4 kmh 28.92 in979.3 mb 0.01 in0.3 mm 0.00 in0.0 mm 0.05 in1.3 mm
06:41 PM 35.9°F2.2°C 33.3°F0.7°C 90% 13.4 mph SSE21.6 kmh SSE 22.0 mph35.4 kmh 28.92 in979.3 mb 0.01 in0.3 mm 0.00 in0.0 mm 0.05 in1.3 mm
06:42 PM 35.8°F2.1°C 33.2°F0.7°C 90% 15.0 mph SSE24.1 kmh SSE 20.0 mph32.2 kmh 28.91 in979.0 mb 0.01 in0.3 mm 0.00 in0.0 mm 0.05 in1.3 mm
06:43 PM 35.8°F2.1°C 33.2°F0.7°C 90% 13.3 mph SE21.4 kmh SE 23.0 mph37.0 kmh 28.91 in979.0 mb 0.02 in0.5 mm 0.60 in15.2 mm 0.06 in1.5 mm
06:44 PM 35.8°F2.1°C 33.2°F0.7°C 90% 12.5 mph SSE20.1 kmh SSE 23.0 mph37.0 kmh 28.91 in979.0 mb 0.02 in0.5 mm 0.00 in0.0 mm 0.06 in1.5 mm
06:45 PM 35.7°F2.1°C 33.1°F0.6°C 90% 11.9 mph SE19.2 kmh SE 20.0 mph32.2 kmh 28.91 in979.0 mb 0.02 in0.5 mm 0.00 in0.0 mm 0.06 in1.5 mm
06:46 PM 35.7°F2.1°C 33.1°F0.6°C 90% 15.1 mph SE24.3 kmh SE 22.0 mph35.4 kmh 28.91 in979.0 mb 0.02 in0.5 mm 0.00 in0.0 mm 0.06 in1.5 mm
06:47 PM 35.7°F2.1°C 33.1°F0.6°C 90% 15.9 mph SSE25.6 kmh SSE 22.0 mph35.4 kmh 28.91 in979.0 mb 0.02 in0.5 mm 0.00 in0.0 mm 0.06 in1.5 mm
06:48 PM 35.7°F2.1°C 33.1°F0.6°C 90% 12.3 mph SE19.8 kmh SE 21.0 mph33.8 kmh 28.91 in979.0 mb 0.02 in0.5 mm 0.00 in0.0 mm 0.06 in1.5 mm
06:49 PM 35.7°F2.1°C 33.1°F0.6°C 90% 16.8 mph SE27.0 kmh SE 21.0 mph33.8 kmh 28.91 in979.0 mb 0.02 in0.5 mm 0.00 in0.0 mm 0.06 in1.5 mm
06:50 PM 35.7°F2.1°C 33.1°F0.6°C 90% 14.8 mph SSE23.8 kmh SSE 25.0 mph40.2 kmh 28.91 in979.0 mb 0.01 in0.3 mm 0.00 in0.0 mm 0.06 in1.5 mm
06:51 PM 35.7°F2.1°C 33.1°F0.6°C 90% 11.8 mph SSE19.0 kmh SSE 25.0 mph40.2 kmh 28.91 in979.0 mb 0.01 in0.3 mm 0.00 in0.0 mm 0.06 in1.5 mm
06:52 PM 35.6°F2.0°C 33.0°F0.6°C 90% 14.3 mph SSE23.0 kmh SSE 19.0 mph30.6 kmh 28.91 in979.0 mb 0.01 in0.3 mm 0.00 in0.0 mm 0.06 in1.5 mm
06:53 PM 35.7°F2.1°C 33.1°F0.6°C 90% 16.0 mph SSE25.7 kmh SSE 21.0 mph33.8 kmh 28.91 in979.0 mb 0.01 in0.3 mm 0.00 in0.0 mm 0.06 in1.5 mm
06:54 PM 35.7°F2.1°C 33.3°F0.7°C 91% 15.1 mph SSE24.3 kmh SSE 21.0 mph33.8 kmh 28.91 in979.0 mb 0.01 in0.3 mm 0.00 in0.0 mm 0.06 in1.5 mm
06:55 PM 35.6°F2.0°C 33.2°F0.7°C 91% 15.7 mph SSE25.3 kmh SSE 25.0 mph40.2 kmh 28.91 in979.0 mb 0.01 in0.3 mm 0.00 in0.0 mm 0.06 in1.5 mm
06:56 PM 35.6°F2.0°C 33.2°F0.7°C 91% 14.7 mph SE23.7 kmh SE 25.0 mph40.2 kmh 28.91 in979.0 mb 0.01 in0.3 mm 0.00 in0.0 mm 0.06 in1.5 mm
06:57 PM 35.7°F2.1°C 33.3°F0.7°C 91% 13.3 mph SSE21.4 kmh SSE 24.0 mph38.6 kmh 28.91 in979.0 mb 0.01 in0.3 mm 0.00 in0.0 mm 0.06 in1.5 mm
06:58 PM 35.6°F2.0°C 33.2°F0.7°C 91% 12.6 mph SE20.3 kmh SE 22.0 mph35.4 kmh 28.91 in979.0 mb 0.01 in0.3 mm 0.00 in0.0 mm 0.06 in1.5 mm
06:59 PM 35.6°F2.0°C 33.2°F0.7°C 91% 14.6 mph SSE23.5 kmh SSE 22.0 mph35.4 kmh 28.91 in979.0 mb 0.01 in0.3 mm 0.00 in0.0 mm 0.06 in1.5 mm
07:00 PM 35.6°F2.0°C 33.2°F0.7°C 91% 16.4 mph SSE26.4 kmh SSE 24.0 mph38.6 kmh 28.91 in979.0 mb 0.01 in0.3 mm 0.00 in0.0 mm 0.06 in1.5 mm
07:01 PM 35.6°F2.0°C 33.2°F0.7°C 91% 13.9 mph SSE22.4 kmh SSE 24.0 mph38.6 kmh 28.91 in979.0 mb 0.01 in0.3 mm 0.00 in0.0 mm 0.06 in1.5 mm
07:02 PM 35.7°F2.1°C 33.3°F0.7°C 91% 11.7 mph SSE18.8 kmh SSE 18.0 mph29.0 kmh 28.91 in979.0 mb 0.01 in0.3 mm 0.00 in0.0 mm 0.06 in1.5 mm
07:03 PM 35.7°F2.1°C 33.3°F0.7°C 91% 17.1 mph SSE27.5 kmh SSE 23.0 mph37.0 kmh 28.91 in979.0 mb 0.01 in0.3 mm 0.00 in0.0 mm 0.06 in1.5 mm
07:04 PM 35.7°F2.1°C 33.3°F0.7°C 91% 12.1 mph SSE19.5 kmh SSE 23.0 mph37.0 kmh 28.91 in979.0 mb 0.01 in0.3 mm 0.00 in0.0 mm 0.06 in1.5 mm
07:05 PM 35.7°F2.1°C 33.3°F0.7°C 91% 14.5 mph SE23.3 kmh SE 23.0 mph37.0 kmh 28.91 in979.0 mb 0.01 in0.3 mm 0.00 in0.0 mm 0.06 in1.5 mm
07:06 PM 35.7°F2.1°C 33.3°F0.7°C 91% 17.5 mph SSE28.2 kmh SSE 24.0 mph38.6 kmh 28.91 in979.0 mb 0.01 in0.3 mm 0.00 in0.0 mm 0.06 in1.5 mm
07:07 PM 35.8°F2.1°C 33.4°F0.8°C 91% 13.3 mph SSE21.4 kmh SSE 24.0 mph38.6 kmh 28.91 in979.0 mb 0.01 in0.3 mm 0.00 in0.0 mm 0.06 in1.5 mm
07:08 PM 35.9°F2.2°C 33.5°F0.8°C 91% 14.1 mph SSE22.7 kmh SSE 22.0 mph35.4 kmh 28.91 in979.0 mb 0.01 in0.3 mm 0.00 in0.0 mm 0.06 in1.5 mm
07:09 PM 35.9°F2.2°C 33.5°F0.8°C 91% 12.2 mph SSE19.6 kmh SSE 22.0 mph35.4 kmh 28.91 in979.0 mb 0.01 in0.3 mm 0.00 in0.0 mm 0.06 in1.5 mm
07:10 PM 35.9°F2.2°C 33.5°F0.8°C 91% 10.1 mph SSE16.3 kmh SSE 17.0 mph27.4 kmh 28.91 in979.0 mb 0.01 in0.3 mm 0.00 in0.0 mm 0.06 in1.5 mm
07:11 PM 35.9°F2.2°C 33.5°F0.8°C 91% 7.8 mph SSE12.6 kmh SSE 16.0 mph25.7 kmh 28.91 in979.0 mb 0.01 in0.3 mm 0.00 in0.0 mm 0.06 in1.5 mm
07:12 PM 35.9°F2.2°C 33.5°F0.8°C 91% 10.3 mph SSE16.6 kmh SSE 15.0 mph24.1 kmh 28.91 in979.0 mb 0.01 in0.3 mm 0.00 in0.0 mm 0.06 in1.5 mm
07:13 PM 35.9°F2.2°C 33.5°F0.8°C 91% 12.8 mph SSE20.6 kmh SSE 21.0 mph33.8 kmh 28.91 in979.0 mb 0.01 in0.3 mm 0.00 in0.0 mm 0.06 in1.5 mm
07:14 PM 35.9°F2.2°C 33.5°F0.8°C 91% 15.9 mph SSE25.6 kmh SSE 23.0 mph37.0 kmh 28.91 in979.0 mb 0.01 in0.3 mm 0.00 in0.0 mm 0.06 in1.5 mm
07:15 PM 35.9°F2.2°C 33.5°F0.8°C 91% 10.3 mph SSE16.6 kmh SSE 23.0 mph37.0 kmh 28.91 in979.0 mb 0.01 in0.3 mm 0.00 in0.0 mm 0.06 in1.5 mm
07:16 PM 36.0°F2.2°C 33.6°F0.9°C 91% 9.4 mph SSE15.1 kmh SSE 19.0 mph30.6 kmh 28.91 in979.0 mb 0.01 in0.3 mm 0.00 in0.0 mm 0.06 in1.5 mm
07:17 PM 36.0°F2.2°C 33.6°F0.9°C 91% 11.1 mph SSE17.9 kmh SSE 17.0 mph27.4 kmh 28.91 in979.0 mb 0.01 in0.3 mm 0.00 in0.0 mm 0.06 in1.5 mm
07:18 PM 36.0°F2.2°C 33.6°F0.9°C 91% 12.7 mph SSE20.4 kmh SSE 19.0 mph30.6 kmh 28.91 in979.0 mb 0.01 in0.3 mm 0.00 in0.0 mm 0.06 in1.5 mm
07:19 PM 36.0°F2.2°C 33.6°F0.9°C 91% 13.6 mph SE21.9 kmh SE 19.0 mph30.6 kmh 28.91 in979.0 mb 0.01 in0.3 mm 0.00 in0.0 mm 0.06 in1.5 mm
07:20 PM 36.0°F2.2°C 33.6°F0.9°C 91% 12.1 mph SSE19.5 kmh SSE 19.0 mph30.6 kmh 28.91 in979.0 mb 0.01 in0.3 mm 0.00 in0.0 mm 0.06 in1.5 mm
07:21 PM 36.0°F2.2°C 33.6°F0.9°C 91% 14.6 mph SSE23.5 kmh SSE 23.0 mph37.0 kmh 28.91 in979.0 mb 0.01 in0.3 mm 0.00 in0.0 mm 0.06 in1.5 mm
07:22 PM 36.1°F2.3°C 33.7°F0.9°C 91% 10.6 mph S17.1 kmh S 23.0 mph37.0 kmh 28.91 in979.0 mb 0.01 in0.3 mm 0.00 in0.0 mm 0.06 in1.5 mm
07:23 PM 36.0°F2.2°C 33.6°F0.9°C 91% 16.2 mph SSE26.1 kmh SSE 23.0 mph37.0 kmh 28.91 in979.0 mb 0.01 in0.3 mm 0.00 in0.0 mm 0.06 in1.5 mm
07:24 PM 36.1°F2.3°C 33.7°F0.9°C 91% 14.1 mph SSE22.7 kmh SSE 23.0 mph37.0 kmh 28.91 in979.0 mb 0.01 in0.3 mm 0.00 in0.0 mm 0.06 in1.5 mm
07:25 PM 36.1°F2.3°C 33.7°F0.9°C 91% 12.7 mph SSE20.4 kmh SSE 21.0 mph33.8 kmh 28.91 in979.0 mb 0.01 in0.3 mm 0.00 in0.0 mm 0.06 in1.5 mm
07:26 PM 36.2°F2.3°C 33.8°F1.0°C 91% 13.7 mph SSE22.0 kmh SSE 19.0 mph30.6 kmh 28.91 in979.0 mb 0.01 in0.3 mm 0.00 in0.0 mm 0.06 in1.5 mm
07:27 PM 36.2°F2.3°C 33.8°F1.0°C 91% 10.6 mph SSE17.1 kmh SSE 18.0 mph29.0 kmh 28.91 in979.0 mb 0.01 in0.3 mm 0.00 in0.0 mm 0.06 in1.5 mm
07:28 PM 36.2°F2.3°C 33.8°F1.0°C 91% 14.2 mph SSE22.9 kmh SSE 25.0 mph40.2 kmh 28.91 in979.0 mb 0.01 in0.3 mm 0.00 in0.0 mm 0.06 in1.5 mm
07:29 PM 36.2°F2.3°C 33.8°F1.0°C 91% 11.7 mph SSE18.8 kmh SSE 25.0 mph40.2 kmh 28.91 in979.0 mb 0.01 in0.3 mm 0.00 in0.0 mm 0.06 in1.5 mm
07:30 PM 36.2°F2.3°C 33.8°F1.0°C 91% 12.6 mph SSE20.3 kmh SSE 19.0 mph30.6 kmh 28.91 in979.0 mb 0.01 in0.3 mm 0.00 in0.0 mm 0.06 in1.5 mm
07:31 PM 36.3°F2.4°C 33.9°F1.1°C 91% 11.4 mph SSE18.3 kmh SSE 19.0 mph30.6 kmh 28.91 in979.0 mb 0.01 in0.3 mm 0.00 in0.0 mm 0.06 in1.5 mm
07:32 PM 36.3°F2.4°C 33.9°F1.1°C 91% 13.9 mph S22.4 kmh S 19.0 mph30.6 kmh 28.91 in979.0 mb 0.01 in0.3 mm 0.00 in0.0 mm 0.06 in1.5 mm
07:33 PM 36.3°F2.4°C 33.9°F1.1°C 91% 14.1 mph SSE22.7 kmh SSE 23.0 mph37.0 kmh 28.91 in979.0 mb 0.01 in0.3 mm 0.00 in